Provisional Data: Little Muncy Creek near Moreland, PA


Please select a monitoring station.
Please select start date.
Please select start date.

Toggle Unit: C/F Toggle Unit: C/F
Sample Time Temperature (C) Temperature (F) Specific Conductivity (mS/cm) pH   Turbidity (NTU+) DO (mg/L)
3/23/2021 12:00:00 AM 6.98 44.564 0.085 6.93 10.45 11.51
3/23/2021 12:15:00 AM 6.89 44.402 0.085 6.93 9.28 11.54
3/23/2021 12:30:00 AM 6.8 44.24 0.085 6.93 10.66 11.57
3/23/2021 12:45:00 AM 6.71 44.078 0.085 6.93 11.26 11.59
3/23/2021 1:00:00 AM 6.62 43.916 0.085 6.93 13.92 11.62
3/23/2021 1:15:00 AM 6.53 43.754 0.085 6.93 14.24 11.65
3/23/2021 1:30:00 AM 6.44 43.592 0.085 6.94 12.26 11.68
3/23/2021 1:45:00 AM 6.35 43.43 0.085 6.93 12.29 11.71
3/23/2021 2:00:00 AM 6.27 43.286 0.085 6.94 12.41 11.74
3/23/2021 2:15:00 AM 6.18 43.124 0.085 6.94 13.39 11.76
3/23/2021 2:30:00 AM 6.09 42.962 0.086 6.94 13.28 11.79
3/23/2021 2:45:00 AM 6.01 42.818 0.085 6.93 16.43 11.82
3/23/2021 3:00:00 AM 5.92 42.656 0.085 6.94 16.13 11.84
3/23/2021 3:15:00 AM 5.84 42.512 0.085 6.93 16.46 11.87
3/23/2021 3:30:00 AM 5.76 42.368 0.086 6.94 15.72 11.9
3/23/2021 3:45:00 AM 5.67 42.206 0.085 6.93 14.87 11.93
3/23/2021 4:00:00 AM 5.59 42.062 0.085 6.94 30.62 11.95
3/23/2021 4:15:00 AM 5.51 41.918 0.086 6.94 20.2 11.98
3/23/2021 4:30:00 AM 5.43 41.774 0.086 6.93 19.94 12.02
3/23/2021 4:45:00 AM 5.35 41.63 0.086 6.94 15.94 12.04
3/23/2021 5:00:00 AM 5.27 41.486 0.086 6.94 15.46 12.08
3/23/2021 5:15:00 AM 5.19 41.342 0.086 6.94 19.22 12.11
3/23/2021 5:30:00 AM 5.11 41.198 0.086 6.94 17.7 12.13
3/23/2021 5:45:00 AM 5.02 41.036 0.086 6.93 16.17 12.16
3/23/2021 6:00:00 AM 4.94 40.892 0.086 6.93 22.92 12.19
3/23/2021 6:15:00 AM 4.87 40.766 0.086 6.93 21.15 12.22
3/23/2021 6:30:00 AM 4.79 40.622 0.086 6.94 23.53 12.25
3/23/2021 6:45:00 AM 4.71 40.478 0.086 6.94 27.11 12.27
3/23/2021 7:00:00 AM 4.63 40.334 0.086 6.94 23.34 12.3
3/23/2021 7:15:00 AM 4.56 40.208 0.086 6.94 33.79 12.34
3/23/2021 7:30:00 AM 4.49 40.082 0.086 6.95 18.95 12.4
3/23/2021 7:45:00 AM 4.43 39.974 0.086 6.96 26.66 12.48
3/23/2021 8:00:00 AM 4.38 39.884 0.086 6.98 57.81 12.57
3/23/2021 8:15:00 AM 4.34 39.812 0.086 7 26.22 12.66
3/23/2021 8:30:00 AM 4.32 39.776 0.086 7.03 23.5 12.75
3/23/2021 8:45:00 AM 4.31 39.758 0.086 7.05 25.81 12.85
3/23/2021 9:00:00 AM 4.33 39.794 0.086 7.09 25.46 12.95
3/23/2021 9:15:00 AM 4.35 39.83 0.086 7.11 23.75 13.03
3/23/2021 9:30:00 AM 4.39 39.902 0.085 7.15 47.78 13.12
3/23/2021 9:45:00 AM 4.44 39.992 0.085 7.19 25.85 13.19
3/23/2021 10:00:00 AM 4.52 40.136 0.085 7.22 34.52 13.25
3/23/2021 10:15:00 AM 4.62 40.316 0.085 7.25 27.13 13.29
3/23/2021 10:30:00 AM 4.73 40.514 0.085 7.29 26.43 13.33
3/23/2021 10:45:00 AM 4.85 40.73 0.085 7.32 28.83 13.36
3/23/2021 11:00:00 AM 5 41 0.085 7.35 29.23 13.39
3/23/2021 11:15:00 AM 5.16 41.288 0.085 7.39 29.7 13.41
3/23/2021 11:30:00 AM 5.34 41.612 0.085 7.41 33.31 13.41
3/23/2021 11:45:00 AM 5.52 41.936 0.085 7.45 37.05 13.39
3/23/2021 12:00:00 PM 5.73 42.314 0.084 7.48 30.81 13.39
3/23/2021 12:15:00 PM 5.94 42.692 0.084 7.51 34.03 13.37
3/23/2021 12:30:00 PM 6.18 43.124 0.084 7.54 29.5 13.35
3/23/2021 12:45:00 PM 6.45 43.61 0.084 7.58 43.02 13.32
3/23/2021 1:00:00 PM 6.71 44.078 0.084 7.6 37.07 13.27
3/23/2021 1:15:00 PM 6.96 44.528 0.084 7.63 38.5 13.22
3/23/2021 1:30:00 PM 7.17 44.906 0.084 7.64 59.03 13.17
3/23/2021 1:45:00 PM 7.35 45.23 0.083 7.66 71.67 13.13
3/23/2021 2:00:00 PM 7.54 45.572 0.083 7.7 36.39 13.08
3/23/2021 2:15:00 PM 7.7 45.86 0.083 7.72 70.25 13.02
3/23/2021 2:30:00 PM 7.82 46.076 0.083 7.74 74.9 12.97
3/23/2021 2:45:00 PM 7.99 46.382 0.083 7.79 124.36 12.92
3/23/2021 3:00:00 PM 8.14 46.652 0.083 7.8 149.86 12.86
3/23/2021 3:15:00 PM 8.28 46.904 0.083 7.84 130.63 12.81
3/23/2021 3:30:00 PM 8.42 47.156 0.083 7.85 112.44 12.75
3/23/2021 3:45:00 PM 8.49 47.282 0.083 7.86 131.33 12.7
3/23/2021 4:00:00 PM 8.61 47.498 0.082 7.89 114.18 12.64
3/23/2021 4:15:00 PM 8.68 47.624 0.082 7.82 151.63 12.58
3/23/2021 4:30:00 PM 8.76 47.768 0.082 7.87 154.41 12.53
3/23/2021 4:45:00 PM 8.86 47.948 0.082 7.87 161.45 12.47
3/23/2021 5:00:00 PM 8.92 48.056 0.082 7.89 146.81 12.42
3/23/2021 5:15:00 PM 8.97 48.146 0.082 7.84 235.99 12.34
3/23/2021 5:30:00 PM 9.01 48.218 0.082 7.82 177.29 12.27
3/23/2021 5:45:00 PM 9.06 48.308 0.082 7.81 199.9 12.22
3/23/2021 6:00:00 PM 9.09 48.362 0.082 7.78 249.7 12.16
3/23/2021 6:15:00 PM 9.1 48.38 0.082 7.74 211.04 12.09
3/23/2021 6:30:00 PM 9.11 48.398 0.082 7.69 255.86 12.02
3/23/2021 6:45:00 PM 9.1 48.38 0.082 7.62 188.6 11.93
3/23/2021 7:00:00 PM 9.09 48.362 0.082 7.54 292.71 11.84
3/23/2021 7:15:00 PM 9.06 48.308 0.082 7.44 281.28 11.73
3/23/2021 7:30:00 PM 9.03 48.254 0.083 7.41 317.74 11.62
3/23/2021 7:45:00 PM 8.98 48.164 0.083 7.32 274.05 11.53
3/23/2021 8:00:00 PM 8.93 48.074 0.083 7.28 268.24 11.45
3/23/2021 8:15:00 PM 8.87 47.966 0.083 7.23 262.35 11.39
3/23/2021 8:30:00 PM 8.81 47.858 0.083 7.17 281.99 11.34
3/23/2021 8:45:00 PM 8.75 47.75 0.083 7.15 304 11.3
3/23/2021 9:00:00 PM 8.67 47.606 0.083 7.11 333.51 11.27
3/23/2021 9:15:00 PM 8.61 47.498 0.083 7.07 323.47 11.24
3/23/2021 9:30:00 PM 8.54 47.372 0.084 7.1 311.18 11.22
3/23/2021 9:45:00 PM 8.48 47.264 0.084 7.08 302.99 11.21
3/23/2021 10:00:00 PM 8.41 47.138 0.084 7.06 350.18 11.19
3/23/2021 10:15:00 PM 8.34 47.012 0.084 7.06 311.95 11.19
3/23/2021 10:30:00 PM 8.28 46.904 0.084 7.03 295.64 11.18
3/23/2021 10:45:00 PM 8.22 46.796 0.084 7.03 286.16 11.18
3/23/2021 11:00:00 PM 8.15 46.67 0.084 7.03 290.81 11.18
3/23/2021 11:15:00 PM 8.09 46.562 0.084 6.98 300.51 11.19
3/23/2021 11:30:00 PM 8.02 46.436 0.085 6.99 297.29 11.19
3/23/2021 11:45:00 PM 7.96 46.328 0.085 6.96 399.93 11.2
3/24/2021 12:00:00 AM 7.9 46.22 0.085 6.96 372.15 11.21
3/24/2021 12:15:00 AM 7.84 46.112 0.085 6.96 347.59 11.23
3/24/2021 12:30:00 AM 7.79 46.022 0.085 6.96 347.11 11.23
3/24/2021 12:45:00 AM 7.74 45.932 0.085 6.98 352.56 11.25
3/24/2021 1:00:00 AM 7.7 45.86 0.085 6.97 322.75 11.26
3/24/2021 1:15:00 AM 7.65 45.77 0.086 6.97 359.51 11.27
3/24/2021 1:30:00 AM 7.61 45.698 0.086 6.96 354.07 11.29
3/24/2021 1:45:00 AM 7.58 45.644 0.086 6.98 351.17 11.3
3/24/2021 2:00:00 AM 7.55 45.59 0.086 6.96 360.86 11.31
3/24/2021 2:15:00 AM 7.52 45.536 0.086 6.98 324.77 11.32
3/24/2021 2:30:00 AM 7.49 45.482 0.086 6.96 376.49 11.33
3/24/2021 2:45:00 AM 7.46 45.428 0.086 6.95 354.62 11.34
3/24/2021 3:00:00 AM 7.43 45.374 0.086 6.97 420.81 11.35
3/24/2021 3:15:00 AM 7.39 45.302 0.086 6.97 3.23 11.36
3/24/2021 3:30:00 AM 7.37 45.266 0.086 6.96 3.23 11.37
3/24/2021 3:45:00 AM 7.34 45.212 0.086 6.97 3.29 11.38
3/24/2021 4:00:00 AM 7.31 45.158 0.086 6.97 3.19 11.39
3/24/2021 4:15:00 AM 7.29 45.122 0.086 6.99 3.32 11.39
3/24/2021 4:30:00 AM 7.27 45.086 0.086 6.97 3.42 11.41
3/24/2021 4:45:00 AM 7.24 45.032 0.086 6.98 3.26 11.42
3/24/2021 5:00:00 AM 7.22 44.996 0.086 6.98 3.19 11.42
3/24/2021 5:15:00 AM 7.2 44.96 0.086 6.98 3.27 11.43
3/24/2021 5:30:00 AM 7.17 44.906 0.087 6.98 3.3 11.44
3/24/2021 5:45:00 AM 7.16 44.888 0.087 6.98 3.26 11.44
3/24/2021 6:00:00 AM 7.14 44.852 0.087 6.99 3.23 11.45
3/24/2021 6:15:00 AM 7.12 44.816 0.087 6.99 3.3 11.46
3/24/2021 6:30:00 AM 7.1 44.78 0.087 6.98 3.35 11.47
3/24/2021 6:45:00 AM 7.08 44.744 0.087 6.99 3.29 11.47
3/24/2021 7:00:00 AM 7.07 44.726 0.087 6.98 3.34 11.48
3/24/2021 7:15:00 AM 7.05 44.69 0.087 6.98 3.3 11.49
3/24/2021 7:30:00 AM 7.04 44.672 0.087 7 3.32 11.5
3/24/2021 7:45:00 AM 7.03 44.654 0.087 6.99 3.25 11.52
3/24/2021 8:00:00 AM 7.02 44.636 0.087 7.01 3.25 11.54
3/24/2021 8:15:00 AM 7.02 44.636 0.087 7.04 3.27 11.57
3/24/2021 8:30:00 AM 7.02 44.636 0.087 7.04 3.32 11.61
3/24/2021 8:45:00 AM 7.02 44.636 0.087 7.01 3.35 11.64
3/24/2021 9:00:00 AM 7.01 44.618 0.086 7.03 3.26 11.68
3/24/2021 9:15:00 AM 7.02 44.636 0.086 7.05 3.29 11.71
3/24/2021 9:30:00 AM 7.03 44.654 0.086 7.06 3.28 11.77
3/24/2021 9:45:00 AM 7.05 44.69 0.086 7.07 3.31 11.83
3/24/2021 10:00:00 AM 7.06 44.708 0.086 7.09 3.44 11.86
3/24/2021 10:15:00 AM 7.08 44.744 0.085 7.1 3.45 11.89
3/24/2021 10:30:00 AM 7.1 44.78 0.085 7.14 3.56 11.94
3/24/2021 10:45:00 AM 7.13 44.834 0.085 7.11 3.66 11.99
3/24/2021 11:00:00 AM 7.15 44.87 0.085 7.13 3.76 12.03
3/24/2021 11:15:00 AM 7.19 44.942 0.085 7.19 3.85 12.1
3/24/2021 11:30:00 AM 7.23 45.014 0.085 7.2 4.23 12.18
3/24/2021 11:45:00 AM 7.27 45.086 0.084 7.24 4.49 12.22
3/24/2021 12:00:00 PM 7.32 45.176 0.084 7.25 4.35 12.26
3/24/2021 12:15:00 PM 7.38 45.284 0.084 7.27 4.9 12.29
3/24/2021 12:30:00 PM 7.43 45.374 0.084 7.28 5.45 12.3
3/24/2021 12:45:00 PM 7.49 45.482 0.085 7.31 6.67 12.32
3/24/2021 1:00:00 PM 7.57 45.626 0.085 7.34 7.04 12.34
3/24/2021 1:15:00 PM 7.66 45.788 0.085 7.41 9.07 12.36
3/24/2021 1:30:00 PM 7.71 45.878 0.087 7.36 8.48 12.34
3/24/2021 1:45:00 PM 7.78 46.004 0.088 7.39 9.78 12.33
3/24/2021 2:00:00 PM 7.86 46.148 0.09 7.42 10.87 12.31
3/24/2021 2:15:00 PM 7.93 46.274 0.092 7.47 17.33 12.27
3/24/2021 2:30:00 PM 7.98 46.364 0.092 7.49 15.35 12.22
3/24/2021 2:45:00 PM 8.04 46.472 0.093 7.49 16.48 12.19
3/24/2021 3:00:00 PM 8.09 46.562 0.092 7.49 156.31 12.17
3/24/2021 3:15:00 PM 8.13 46.634 0.092 7.48 425.21 12.14
3/24/2021 3:30:00 PM 8.18 46.724 0.091 7.47 517.3 12.12
3/24/2021 3:45:00 PM 8.22 46.796 0.09 7.47 721.05 12.1
3/24/2021 4:00:00 PM 8.25 46.85 0.089 7.45 643.45 12.05
3/24/2021 4:15:00 PM 8.28 46.904 0.088 7.45 350.61 12
3/24/2021 4:30:00 PM 8.31 46.958 0.087 7.42 677.96 11.97
3/24/2021 4:45:00 PM 8.34 47.012 0.087 7.44 727.5 11.97
3/24/2021 5:00:00 PM 8.36 47.048 0.086 7.41 728.92 11.96
3/24/2021 5:15:00 PM 8.39 47.102 0.085 7.44 776.3 11.94
3/24/2021 5:30:00 PM 8.42 47.156 0.085 7.39 696.23 11.9
3/24/2021 5:45:00 PM 8.43 47.174 0.085 7.39 836.2 11.86
3/24/2021 6:00:00 PM 8.44 47.192 0.084 7.36 855.33 11.81
3/24/2021 6:15:00 PM 8.44 47.192 0.084 7.33 851.18 11.76
3/24/2021 6:30:00 PM 8.44 47.192 0.084 7.3 795.2 11.71
3/24/2021 6:45:00 PM 8.45 47.21 0.084 7.29 740.91 11.65
3/24/2021 7:00:00 PM 8.46 47.228 0.084 7.28 870.06 11.59
3/24/2021 7:15:00 PM 8.46 47.228 0.084 7.26 920.47 11.52
3/24/2021 7:30:00 PM 8.47 47.246 0.085 7.22 839.85 11.46
3/24/2021 7:45:00 PM 8.48 47.264 0.085 7.21 647.53 11.4
3/24/2021 8:00:00 PM 8.49 47.282 0.086 7.19 889.08 11.34
3/24/2021 8:15:00 PM 8.49 47.282 0.086 7.17 1567.03 11.29
3/24/2021 8:30:00 PM 8.5 47.3 0.087 7.15 863.54 11.25
3/24/2021 8:45:00 PM 8.51 47.318 0.087 7.14 875.64 11.22
3/24/2021 9:00:00 PM 8.51 47.318 0.087 7.14 135.77 11.18
3/24/2021 9:15:00 PM 8.51 47.318 0.087 7.13 140.49 11.16
3/24/2021 9:30:00 PM 8.51 47.318 0.087 7.12 170.35 11.14
3/24/2021 9:45:00 PM 8.5 47.3 0.087 7.09 180.88 11.12
3/24/2021 10:00:00 PM 8.5 47.3 0.087 7.09 223.73 11.11
3/24/2021 10:15:00 PM 8.5 47.3 0.086 7.09 187.54 11.1
3/24/2021 10:30:00 PM 8.49 47.282 0.086 7.08 167.32 11.1
3/24/2021 10:45:00 PM 8.48 47.264 0.086 7.06 197.07 11.09
3/24/2021 11:00:00 PM 8.47 47.246 0.086 7.05 214.32 11.09
3/24/2021 11:15:00 PM 8.46 47.228 0.086 7.05 229.86 11.09
3/24/2021 11:30:00 PM 8.44 47.192 0.086 7.04 221.2 11.09
3/24/2021 11:45:00 PM 8.42 47.156 0.086 7.03 231.59 11.09
3/25/2021 12:00:00 AM 8.41 47.138 0.086 7.03 251.68 11.09
3/25/2021 12:15:00 AM 8.4 47.12 0.086 7.03 236.19 11.09
3/25/2021 12:30:00 AM 8.38 47.084 0.086 7.02 283.26 11.1
3/25/2021 12:45:00 AM 8.37 47.066 0.086 7.02 264.2 11.09
3/25/2021 1:00:00 AM 8.35 47.03 0.086 7.02 263.02 11.1
3/25/2021 1:15:00 AM 8.34 47.012 0.086 6.99 296.27 11.1
3/25/2021 1:30:00 AM 8.33 46.994 0.086 7.01 1726.36 11.1
3/25/2021 1:45:00 AM 8.31 46.958 0.086 6.98 37.51 11.1
3/25/2021 2:00:00 AM 8.3 46.94 0.086 7 40.4 11.11
3/25/2021 2:15:00 AM 8.28 46.904 0.086 7 55.61 11.11
3/25/2021 2:30:00 AM 8.26 46.868 0.086 6.99 43.04 11.11
3/25/2021 2:45:00 AM 8.25 46.85 0.086 6.97 45.2 11.12
3/25/2021 3:00:00 AM 8.23 46.814 0.086 6.98 51.18 11.12
3/25/2021 3:15:00 AM 8.22 46.796 0.086 6.97 78.74 11.13
3/25/2021 3:30:00 AM 8.21 46.778 0.086 6.99 71.52 11.13
3/25/2021 3:45:00 AM 8.19 46.742 0.086 6.96 72.15 11.14
3/25/2021 4:00:00 AM 8.18 46.724 0.086 6.98 91.4 11.14
3/25/2021 4:15:00 AM 8.17 46.706 0.086 6.98 90.18 11.14
3/25/2021 4:30:00 AM 8.15 46.67 0.086 6.99 101.92 11.14
3/25/2021 4:45:00 AM 8.14 46.652 0.086 6.99 99.42 11.15
3/25/2021 5:00:00 AM 8.13 46.634 0.086 6.96 29.75 11.16
3/25/2021 5:15:00 AM 8.12 46.616 0.086 6.98 16.74 11.16
3/25/2021 5:30:00 AM 8.1 46.58 0.087 6.97 22.46 11.16
3/25/2021 5:45:00 AM 8.09 46.562 0.086 6.96 18.68 11.16
3/25/2021 6:00:00 AM 8.08 46.544 0.086 6.98 540.77 11.17
3/25/2021 6:15:00 AM 8.07 46.526 0.087 6.98 730.27 11.18
3/25/2021 6:30:00 AM 8.06 46.508 0.087 6.96 23.48 11.18
3/25/2021 6:45:00 AM 8.05 46.49 0.086 6.98 30.44 11.18
3/25/2021 7:00:00 AM 8.04 46.472 0.087 6.96 1805.69 11.19
3/25/2021 7:15:00 AM 8.03 46.454 0.087 6.98 1660.82 11.2
3/25/2021 7:30:00 AM 8.03 46.454 0.087 6.97 36.83 11.22
3/25/2021 7:45:00 AM 8.02 46.436 0.087 6.97 747.53 11.25
3/25/2021 8:00:00 AM 8.02 46.436 0.087 6.98 40.09 11.29
3/25/2021 8:15:00 AM 8.02 46.436 0.087 6.99 46 11.34
3/25/2021 8:30:00 AM 8.03 46.454 0.087 7.01 30.15 11.4
3/25/2021 8:45:00 AM 8.04 46.472 0.087 7.03 41.81 11.47
3/25/2021 9:00:00 AM 8.06 46.508 0.087 7.06 289.56 11.53
3/25/2021 9:15:00 AM 8.07 46.526 0.087 7.06 59.76 11.59
3/25/2021 9:30:00 AM 8.09 46.562 0.087 7.1 165.63 11.65
3/25/2021 9:45:00 AM 8.12 46.616 0.087 7.13 22.04 11.71
3/25/2021 10:00:00 AM 8.15 46.67 0.087 7.14 21.28 11.76
3/25/2021 10:15:00 AM 8.18 46.724 0.087 7.17 26.24 11.82
3/25/2021 10:30:00 AM 8.23 46.814 0.086 7.22 34.07 11.89
3/25/2021 10:45:00 AM 8.27 46.886 0.086 7.24 4.48 11.95
3/25/2021 11:00:00 AM 8.32 46.976 0.086 7.28 20.88 12.01
3/25/2021 11:15:00 AM 8.37 47.066 0.086 7.25 16.58 12.06
3/25/2021 11:30:00 AM 8.43 47.174 0.086 7.3 16.88 12.1
3/25/2021 11:45:00 AM 8.49 47.282 0.086 7.32 17.38 12.14
3/25/2021 12:00:00 PM 8.58 47.444 0.086 7.39 18.82 12.18
3/25/2021 12:15:00 PM 8.67 47.606 0.086 7.41 20.12 12.22
3/25/2021 12:30:00 PM 8.83 47.894 0.086 7.48 20.38 12.25
3/25/2021 12:45:00 PM 8.87 47.966 0.085 7.5 20.64 12.26
3/25/2021 1:00:00 PM 8.94 48.092 0.086 7.53 22.48 12.26
3/25/2021 1:15:00 PM 9.11 48.398 0.085 7.62 87.23 12.27
3/25/2021 1:30:00 PM 9.28 48.704 0.085 7.65 84.26 12.27
3/25/2021 1:45:00 PM 9.43 48.974 0.085 7.71 78.43 12.27
3/25/2021 2:00:00 PM 9.59 49.262 0.085 7.76 67.61 12.26
3/25/2021 2:15:00 PM 9.82 49.676 0.085 7.79 85.06 12.24
3/25/2021 2:30:00 PM 9.94 49.892 0.085 7.8 83.14 12.22
3/25/2021 2:45:00 PM 10.1 50.18 0.085 7.84 32.14 12.19
3/25/2021 3:00:00 PM 10.26 50.468 0.085 7.88 30.15 12.15
3/25/2021 3:15:00 PM 10.37 50.666 0.085 7.89 29.31 12.11
3/25/2021 3:30:00 PM 10.44 50.792 0.085 7.91 32.51 12.07
3/25/2021 3:45:00 PM 10.51 50.918 0.085 7.92 31.99 12.03
3/25/2021 4:00:00 PM 10.59 51.062 0.085 7.93 31.14 11.98
3/25/2021 4:15:00 PM 10.67 51.206 0.085 7.96 32.75 11.93
3/25/2021 4:30:00 PM 10.74 51.332 0.084 7.97 33.64 11.89
3/25/2021 4:45:00 PM 10.79 51.422 0.084 7.97 34.48 11.85
3/25/2021 5:00:00 PM 10.83 51.494 0.084 7.96 35.71 11.8
3/25/2021 5:15:00 PM 10.87 51.566 0.084 7.93 37.1 11.73
3/25/2021 5:30:00 PM 10.92 51.656 0.084 7.91 47.16 11.66
3/25/2021 5:45:00 PM 10.96 51.728 0.084 7.85 38.88 11.58
3/25/2021 6:00:00 PM 10.97 51.746 0.085 7.79 42.02 11.49
3/25/2021 6:15:00 PM 10.99 51.782 0.085 7.74 43.53 11.4
3/25/2021 6:30:00 PM 10.99 51.782 0.085 7.66 42.26 11.31
3/25/2021 6:45:00 PM 10.99 51.782 0.085 7.59 34.64 11.22
3/25/2021 7:00:00 PM 10.97 51.746 0.085 7.52 35.07 11.11
3/25/2021 7:15:00 PM 10.95 51.71 0.085 7.45 36.15 11.01
3/25/2021 7:30:00 PM 10.91 51.638 0.085 7.37 35.68 10.91
3/25/2021 7:45:00 PM 10.88 51.584 0.085 7.32 35.53 10.83
3/25/2021 8:00:00 PM 10.84 51.512 0.085 7.27 38.65 10.76
3/25/2021 8:15:00 PM 10.79 51.422 0.085 7.23 39.2 10.7
3/25/2021 8:30:00 PM 10.75 51.35 0.085 7.2 39.34 10.66
3/25/2021 8:45:00 PM 10.71 51.278 0.085 7.18 41.42 10.62
3/25/2021 9:00:00 PM 10.67 51.206 0.086 7.16 43.53 10.59
3/25/2021 9:15:00 PM 10.64 51.152 0.086 7.13 45.68 10.56
3/25/2021 9:30:00 PM 10.6 51.08 0.086 7.13 45.15 10.54
3/25/2021 9:45:00 PM 10.57 51.026 0.086 7.1 46.85 10.52
3/25/2021 10:00:00 PM 10.53 50.954 0.086 7.1 48.22 10.51
3/25/2021 10:15:00 PM 10.51 50.918 0.086 7.09 48 10.5
3/25/2021 10:30:00 PM 10.48 50.864 0.086 7.09 50.18 10.49
3/25/2021 10:45:00 PM 10.46 50.828 0.086 7.09 50.53 10.48
3/25/2021 11:00:00 PM 10.44 50.792 0.086 7.09 51.54 10.48
3/25/2021 11:15:00 PM 10.41 50.738 0.086 7.08 49.99 10.48
3/25/2021 11:30:00 PM 10.38 50.684 0.087 7.07 61.04 10.47
3/25/2021 11:45:00 PM 10.36 50.648 0.087 7.05 57.54 10.48
3/26/2021 12:00:00 AM 10.34 50.612 0.087 7.06 55.15 10.48
3/26/2021 12:15:00 AM 10.32 50.576 0.087 7.06 54.73 10.48
3/26/2021 12:30:00 AM 10.3 50.54 0.087 7.05 63.96 10.48
3/26/2021 12:45:00 AM 10.27 50.486 0.087 7.04 77.91 10.48
3/26/2021 1:00:00 AM 10.25 50.45 0.087 7.04 86.39 10.48
3/26/2021 1:15:00 AM 10.23 50.414 0.087 7.03 80.82 10.49
3/26/2021 1:30:00 AM 10.21 50.378 0.087 7.04 111.15 10.49
3/26/2021 1:45:00 AM 10.18 50.324 0.087 7.06 64.1 10.49
3/26/2021 2:00:00 AM 10.16 50.288 0.087 7.06 69.71 10.5
3/26/2021 2:15:00 AM 10.14 50.252 0.087 7.06 70.22 10.5
3/26/2021 2:30:00 AM 10.12 50.216 0.087 7.06 68.69 10.5
3/26/2021 2:45:00 AM 10.1 50.18 0.087 7.05 70.76 10.51
3/26/2021 3:00:00 AM 10.08 50.144 0.087 7.05 73 10.51
3/26/2021 3:15:00 AM 10.05 50.09 0.087 7.05 72 10.52
3/26/2021 3:30:00 AM 10.03 50.054 0.087 7.06 72.53 10.52
3/26/2021 3:45:00 AM 10.01 50.018 0.087 7.03 68.66 10.53
3/26/2021 4:00:00 AM 9.99 49.982 0.087 7.05 73.41 10.54
3/26/2021 4:15:00 AM 9.98 49.964 0.087 7.07 72.48 10.54
3/26/2021 4:30:00 AM 9.96 49.928 0.087 7.06 77.51 10.54
3/26/2021 4:45:00 AM 9.94 49.892 0.087 7.06 76.51 10.54
3/26/2021 5:00:00 AM 9.92 49.856 0.087 7.05 78.44 10.55
3/26/2021 5:15:00 AM 9.89 49.802 0.087 7.05 79.74 10.55
3/26/2021 5:30:00 AM 9.89 49.802 0.087 7.07 77.39 10.55
3/26/2021 5:45:00 AM 9.87 49.766 0.087 7.06 78.89 10.55
3/26/2021 6:00:00 AM 9.86 49.748 0.087 7.07 80.02 10.56
3/26/2021 6:15:00 AM 9.85 49.73 0.087 7.05 79.62 10.56
3/26/2021 6:30:00 AM 9.83 49.694 0.087 7.06 79.52 10.56
3/26/2021 6:45:00 AM 9.82 49.676 0.087 7.06 85.9 10.56
3/26/2021 7:00:00 AM 9.81 49.658 0.087 7.05 79.98 10.56
3/26/2021 7:15:00 AM 9.8 49.64 0.087 7.07 80.77 10.58
3/26/2021 7:30:00 AM 9.79 49.622 0.087 7.07 81.73 10.61
3/26/2021 7:45:00 AM 9.8 49.64 0.087 7.08 83.5 10.66
3/26/2021 8:00:00 AM 9.83 49.694 0.087 7.12 82.96 10.74
3/26/2021 8:15:00 AM 9.86 49.748 0.087 7.15 404.27 10.84
3/26/2021 8:30:00 AM 9.88 49.784 0.087 7.17 84.7 10.89
3/26/2021 8:45:00 AM 9.92 49.856 0.087 7.19 89.41 10.97
3/26/2021 9:00:00 AM 9.99 49.982 0.087 7.24 85.92 11.06
3/26/2021 9:15:00 AM 10.08 50.144 0.087 7.29 92.66 11.14
3/26/2021 9:30:00 AM 10.17 50.306 0.087 7.32 90.78 11.2
3/26/2021 9:45:00 AM 10.25 50.45 0.087 7.35 87.27 11.25
3/26/2021 10:00:00 AM 10.36 50.648 0.087 7.39 83.94 11.32
3/26/2021 10:15:00 AM 10.48 50.864 0.086 7.43 87.87 11.38
3/26/2021 10:30:00 AM 10.56 51.008 0.086 7.47 91.17 11.41
3/26/2021 10:45:00 AM 10.67 51.206 0.086 7.52 86.43 11.43
3/26/2021 11:00:00 AM 10.73 51.314 0.086 7.52 40.38 11.43
3/26/2021 11:15:00 AM 10.86 51.548 0.086 7.58 85.1 11.45
3/26/2021 11:30:00 AM 10.97 51.746 0.086 7.61 87.6 11.47
3/26/2021 11:45:00 AM 11.11 51.998 0.086 7.67 88.88 11.49
3/26/2021 12:00:00 PM 11.23 52.214 0.086 7.72 88.47 11.52
3/26/2021 12:15:00 PM 11.38 52.484 0.086 7.75 88.16 11.53
3/26/2021 12:30:00 PM 11.48 52.664 0.085 7.8 87.57 11.54
3/26/2021 12:45:00 PM 11.67 53.006 0.085 7.85 88.15 11.53
3/26/2021 1:00:00 PM 11.75 53.15 0.085 7.89 88.02 11.51
3/26/2021 1:15:00 PM 11.84 53.312 0.085 7.92 82.21 11.5
3/26/2021 1:30:00 PM 11.88 53.384 0.085 7.92 109.87 11.47
3/26/2021 1:45:00 PM 11.96 53.528 0.085 7.97 126.39 11.45
3/26/2021 2:00:00 PM 12.02 53.636 0.085 7.97 80.75 11.43
3/26/2021 2:15:00 PM 12.09 53.762 0.084 8.03 84.7 11.42
3/26/2021 2:30:00 PM 12.13 53.834 0.084 8.02 73.48 11.4
3/26/2021 2:45:00 PM 12.17 53.906 0.084 8.04 77.78 11.38
3/26/2021 3:00:00 PM 12.19 53.942 0.084 8.05 74.52 11.35
3/26/2021 3:15:00 PM 12.18 53.924 0.084 7.99 73.16 11.27
3/26/2021 3:30:00 PM 12.19 53.942 0.084 8 72.63 11.23
3/26/2021 3:45:00 PM 12.19 53.942 0.083 7.95 80.04 11.18
3/26/2021 4:00:00 PM 12.19 53.942 0.083 7.93 83.15 11.16
3/26/2021 4:15:00 PM 12.18 53.924 0.084 7.95 77.83 11.16
3/26/2021 4:30:00 PM 12.21 53.978 0.084 7.96 79.76 11.17
3/26/2021 4:45:00 PM 12.2 53.96 0.084 7.97 79.54 11.17
3/26/2021 5:00:00 PM 12.19 53.942 0.084 7.94 79.54 11.14
3/26/2021 5:15:00 PM 12.19 53.942 0.083 7.96 77.5 11.15
3/26/2021 5:30:00 PM 12.17 53.906 0.083 7.95 78.31 11.14
3/26/2021 5:45:00 PM 12.11 53.798 0.084 7.88 86.69 11.1
3/26/2021 6:00:00 PM 12.06 53.708 0.084 7.85 73 11.08
3/26/2021 6:15:00 PM 12 53.6 0.084 7.8 71.55 11.05
3/26/2021 6:30:00 PM 11.93 53.474 0.084 7.74 75.04 11
3/26/2021 6:45:00 PM 11.85 53.33 0.084 7.65 77.66 10.93
3/26/2021 7:00:00 PM 11.77 53.186 0.084 7.59 74.59 10.85
3/26/2021 7:15:00 PM 11.68 53.024 0.084 7.51 74.51 10.78
3/26/2021 7:30:00 PM 11.59 52.862 0.084 7.45 74.53 10.7
3/26/2021 7:45:00 PM 11.51 52.718 0.084 7.39 74.5 10.63
3/26/2021 8:00:00 PM 11.41 52.538 0.084 7.35 73.56 10.58
3/26/2021 8:15:00 PM 11.33 52.394 0.085 7.32 73.44 10.53
3/26/2021 8:30:00 PM 11.26 52.268 0.085 7.28 72.87 10.48
3/26/2021 8:45:00 PM 11.18 52.124 0.085 7.25 72.81 10.46
3/26/2021 9:00:00 PM 11.11 51.998 0.085 7.24 72.69 10.43
3/26/2021 9:15:00 PM 11.04 51.872 0.085 7.22 76.21 10.41
3/26/2021 9:30:00 PM 10.97 51.746 0.085 7.2 77.25 10.41
3/26/2021 9:45:00 PM 10.89 51.602 0.085 7.19 72.91 10.4
3/26/2021 10:00:00 PM 10.82 51.476 0.085 7.17 72.87 10.4
3/26/2021 10:15:00 PM 10.74 51.332 0.085 7.16 74.55 10.41
3/26/2021 10:30:00 PM 10.67 51.206 0.086 7.16 73.42 10.42
3/26/2021 10:45:00 PM 10.6 51.08 0.086 7.15 73.74 10.42
3/26/2021 11:00:00 PM 10.53 50.954 0.086 7.14 74.84 10.44
3/26/2021 11:15:00 PM 10.46 50.828 0.086 7.14 75.06 10.46
3/26/2021 11:30:00 PM 10.39 50.702 0.086 7.14 73.68 10.47
3/26/2021 11:45:00 PM 10.32 50.576 0.086 7.13 73.41 10.48
3/27/2021 12:00:00 AM 10.25 50.45 0.086 7.13 73.15 10.51
3/27/2021 12:15:00 AM 10.18 50.324 0.086 7.12 76 10.52
3/27/2021 12:30:00 AM 10.11 50.198 0.086 7.11 75.38 10.54
3/27/2021 12:45:00 AM 10.04 50.072 0.086 7.12 73.52 10.56
3/27/2021 1:00:00 AM 9.96 49.928 0.086 7.11 74.46 10.57
3/27/2021 1:15:00 AM 9.89 49.802 0.086 7.1 76.4 10.59
3/27/2021 1:30:00 AM 9.81 49.658 0.086 7.09 74.47 10.61
3/27/2021 1:45:00 AM 9.73 49.514 0.086 7.1 77.75 10.63
3/27/2021 2:00:00 AM 9.66 49.388 0.086 7.09 73.38 10.65
3/27/2021 2:15:00 AM 9.57 49.226 0.086 7.08 75.46 10.67
3/27/2021 2:30:00 AM 9.5 49.1 0.086 7.09 74.47 10.69
3/27/2021 2:45:00 AM 9.44 48.992 0.086 7.09 73.22 10.71
3/27/2021 3:00:00 AM 9.37 48.866 0.086 7.07 76.24 10.73
3/27/2021 3:15:00 AM 9.31 48.758 0.086 7.08 77.05 10.75
3/27/2021 3:30:00 AM 9.25 48.65 0.086 7.09 76.23 10.77
3/27/2021 3:45:00 AM 9.2 48.56 0.086 7.09 76.04 10.78
3/27/2021 4:00:00 AM 9.15 48.47 0.086 7.09 78.18 10.8
3/27/2021 4:15:00 AM 9.11 48.398 0.086 7.1 77.53 10.82
3/27/2021 4:30:00 AM 9.06 48.308 0.086 7.1 82.35 10.84
3/27/2021 4:45:00 AM 9.02 48.236 0.086 7.1 81.16 10.85
3/27/2021 5:00:00 AM 8.98 48.164 0.086 7.09 79.51 10.86
3/27/2021 5:15:00 AM 8.93 48.074 0.086 7.09 82.07 10.88
3/27/2021 5:30:00 AM 8.87 47.966 0.086 7.09 79.08 10.89
3/27/2021 5:45:00 AM 8.82 47.876 0.086 7.09 84.08 10.91
3/27/2021 6:00:00 AM 8.77 47.786 0.086 7.09 86.77 10.93
3/27/2021 6:15:00 AM 8.72 47.696 0.086 7.09 82.63 10.94
3/27/2021 6:30:00 AM 8.67 47.606 0.086 7.09 87.15 10.96
3/27/2021 6:45:00 AM 8.62 47.516 0.086 7.09 88.18 10.97
3/27/2021 7:00:00 AM 8.56 47.408 0.086 7.09 87.82 10.99
3/27/2021 7:15:00 AM 8.5 47.3 0.086 7.1 96.62 11.03
3/27/2021 7:30:00 AM 8.46 47.228 0.086 7.1 86.45 11.08
3/27/2021 7:45:00 AM 8.42 47.156 0.086 7.11 87.24 11.16
3/27/2021 8:00:00 AM 8.38 47.084 0.086 7.11 83.46 11.24
3/27/2021 8:15:00 AM 8.36 47.048 0.086 7.14 83.04 11.33
3/27/2021 8:30:00 AM 8.34 47.012 0.086 7.16 85.66 11.41
3/27/2021 8:45:00 AM 8.34 47.012 0.086 7.21 83.74 11.48
3/27/2021 9:00:00 AM 8.36 47.048 0.086 7.24 82.3 11.6
3/27/2021 9:15:00 AM 8.39 47.102 0.086 7.27 86.33 11.69
3/27/2021 9:30:00 AM 8.44 47.192 0.086 7.33 98.74 11.78
3/27/2021 9:45:00 AM 8.5 47.3 0.085 7.38 89.58 11.85
3/27/2021 10:00:00 AM 8.58 47.444 0.085 7.4 84.97 11.91
3/27/2021 10:15:00 AM 8.65 47.57 0.084 7.44 110.25 11.96
3/27/2021 10:30:00 AM 8.75 47.75 0.082 7.5 121.25 12.01
3/27/2021 10:45:00 AM 8.84 47.912 0.085 7.51 94.59 12.03
3/27/2021 11:00:00 AM 8.87 47.966 0.085 7.52 119.74 12.06
3/27/2021 11:15:00 AM 8.92 48.056 0.085 7.55 112.67 12.09
3/27/2021 11:30:00 AM 9.06 48.308 0.085 7.63 110.98 12.13
3/27/2021 11:45:00 AM 9.23 48.614 0.084 7.67 101.88 12.14
3/27/2021 12:00:00 PM 9.44 48.992 0.084 7.74 92.23 12.17
3/27/2021 12:15:00 PM 9.6 49.28 0.084 7.77 100.84 12.15
3/27/2021 12:30:00 PM 9.69 49.442 0.084 7.79 108.83 12.13
3/27/2021 12:45:00 PM 9.93 49.874 0.084 7.88 87.74 12.13
3/27/2021 1:00:00 PM 10.09 50.162 0.084 7.84 94.74 12.1
3/27/2021 1:15:00 PM 10.31 50.558 0.084 7.91 122.82 12.07
3/27/2021 1:30:00 PM 10.49 50.882 0.084 7.96 115.46 12.05
3/27/2021 1:45:00 PM 10.63 51.134 0.084 7.97 82.54 12
3/27/2021 2:00:00 PM 10.81 51.458 0.083 8.05 94.19 11.98
3/27/2021 2:15:00 PM 11.04 51.872 0.083 8.1 98.53 11.94
3/27/2021 2:30:00 PM 11.26 52.268 0.083 8.13 117.66 11.91
3/27/2021 2:45:00 PM 11.42 52.556 0.084 8.11 105.81 11.86
3/27/2021 3:00:00 PM 11.54 52.772 0.083 8.13 105.03 11.82
3/27/2021 3:15:00 PM 11.63 52.934 0.083 8.13 108.18 11.77
3/27/2021 3:30:00 PM 11.71 53.078 0.083 8.12 93.85 11.72
3/27/2021 3:45:00 PM 11.83 53.294 0.083 8.16 132.59 11.66
3/27/2021 4:00:00 PM 11.95 53.51 0.083 8.18 98.1 11.61
3/27/2021 4:15:00 PM 12.06 53.708 0.083 8.19 98.51 11.54
3/27/2021 4:30:00 PM 12.14 53.852 0.083 8.21 11.32 11.49
3/27/2021 4:45:00 PM 12.22 53.996 0.083 8.19 12.47 11.43
3/27/2021 5:00:00 PM 12.28 54.104 0.083 8.18 16.26 11.37
3/27/2021 5:15:00 PM 12.31 54.158 0.083 8.15 10.65 11.32
3/27/2021 5:30:00 PM 12.32 54.176 0.083 8.11 12.68 11.25
3/27/2021 5:45:00 PM 12.31 54.158 0.083 8.07 12.83 11.21
3/27/2021 6:00:00 PM 12.28 54.104 0.083 8.03 14.15 11.16
3/27/2021 6:15:00 PM 12.24 54.032 0.083 7.95 13.77 11.1
3/27/2021 6:30:00 PM 12.2 53.96 0.083 7.91 13.88 11.05
3/27/2021 6:45:00 PM 12.14 53.852 0.083 7.83 14.49 10.97
3/27/2021 7:00:00 PM 12.08 53.744 0.083 7.74 13.76 10.89
3/27/2021 7:15:00 PM 12.01 53.618 0.083 7.66 12.63 10.81
3/27/2021 7:30:00 PM 11.94 53.492 0.083 7.58 11.46 10.71
3/27/2021 7:45:00 PM 11.86 53.348 0.083 7.49 10.32 10.63
3/27/2021 8:00:00 PM 11.79 53.222 0.083 7.45 10.85 10.56
3/27/2021 8:15:00 PM 11.71 53.078 0.084 7.4 12.02 10.5
3/27/2021 8:30:00 PM 11.63 52.934 0.084 7.35 11.67 10.45
3/27/2021 8:45:00 PM 11.55 52.79 0.084 7.29 14.49 10.41
3/27/2021 9:00:00 PM 11.46 52.628 0.084 7.28 13.57 10.38
3/27/2021 9:15:00 PM 11.37 52.466 0.084 7.25 13.76 10.36
3/27/2021 9:30:00 PM 11.28 52.304 0.084 7.23 15.23 10.34
3/27/2021 9:45:00 PM 11.2 52.16 0.084 7.2 15.46 10.33
3/27/2021 10:00:00 PM 11.11 51.998 0.084 7.17 16.63 10.32
3/27/2021 10:15:00 PM 11.03 51.854 0.084 7.16 20.01 10.32
3/27/2021 10:30:00 PM 10.95 51.71 0.085 7.18 19.78 10.32
3/27/2021 10:45:00 PM 10.87 51.566 0.085 7.17 21.79 10.32
3/27/2021 11:00:00 PM 10.8 51.44 0.085 7.15 22.68 10.32
3/27/2021 11:15:00 PM 10.73 51.314 0.085 7.16 22.47 10.33
3/27/2021 11:30:00 PM 10.66 51.188 0.085 7.15 22.6 10.34
3/27/2021 11:45:00 PM 10.6 51.08 0.085 7.14 22.75 10.35
3/28/2021 12:00:00 AM 10.53 50.954 0.085 7.15 25.08 10.37
3/28/2021 12:15:00 AM 10.46 50.828 0.086 7.15 24.28 10.37
3/28/2021 12:30:00 AM 10.39 50.702 0.086 7.14 24.86 10.39
3/28/2021 12:45:00 AM 10.32 50.576 0.086 7.13 27.64 10.41
3/28/2021 1:00:00 AM 10.25 50.45 0.086 7.13 28.62 10.43
3/28/2021 1:15:00 AM 10.18 50.324 0.086 7.13 28.09 10.44
3/28/2021 1:30:00 AM 10.11 50.198 0.086 7.12 29.41 10.45
3/28/2021 1:45:00 AM 10.04 50.072 0.086 7.14 33 10.47
3/28/2021 2:00:00 AM 9.97 49.946 0.086 7.13 32.92 10.49
3/28/2021 2:15:00 AM 9.9 49.82 0.086 7.13 33.54 10.51
3/28/2021 2:30:00 AM 9.83 49.694 0.086 7.12 34.61 10.52
3/28/2021 2:45:00 AM 9.76 49.568 0.086 7.13 34.91 10.54
3/28/2021 3:00:00 AM 9.69 49.442 0.086 7.13 36.13 10.55
3/28/2021 3:15:00 AM 9.63 49.334 0.086 7.11 35.53 10.57
3/28/2021 3:30:00 AM 9.58 49.244 0.086 7.11 37.15 10.59
3/28/2021 3:45:00 AM 9.52 49.136 0.086 7.13 32.37 10.61
3/28/2021 4:00:00 AM 9.48 49.064 0.086 7.11 35.36 10.62
3/28/2021 4:15:00 AM 9.44 48.992 0.086 7.13 35.94 10.63
3/28/2021 4:30:00 AM 9.4 48.92 0.086 7.13 36.93 10.64
3/28/2021 4:45:00 AM 9.36 48.848 0.086 7.13 38.3 10.66
3/28/2021 5:00:00 AM 9.33 48.794 0.086 7.14 38 10.67
3/28/2021 5:15:00 AM 9.3 48.74 0.086 7.14 35.28 10.68
3/28/2021 5:30:00 AM 9.28 48.704 0.086 7.14 40.6 10.7
3/28/2021 5:45:00 AM 9.26 48.668 0.086 7.15 39.09 10.7
3/28/2021 6:00:00 AM 9.23 48.614 0.086 7.15 38.54 10.71
3/28/2021 6:15:00 AM 9.21 48.578 0.086 7.15 39.14 10.72
3/28/2021 6:30:00 AM 9.19 48.542 0.086 7.15 42.05 10.73
3/28/2021 6:45:00 AM 9.17 48.506 0.086 7.16 40.66 10.74
3/28/2021 7:00:00 AM 9.15 48.47 0.086 7.15 40.68 10.74
3/28/2021 7:15:00 AM 9.13 48.434 0.086 7.16 42.66 10.75
3/28/2021 7:30:00 AM 9.12 48.416 0.086 7.17 39.3 10.76
3/28/2021 7:45:00 AM 9.1 48.38 0.086 7.17 41.45 10.78
3/28/2021 8:00:00 AM 9.09 48.362 0.086 7.18 40.82 10.8
3/28/2021 8:15:00 AM 9.07 48.326 0.086 7.18 38.69 10.83
3/28/2021 8:30:00 AM 9.06 48.308 0.086 7.2 40.51 10.86
3/28/2021 8:45:00 AM 9.06 48.308 0.086 7.2 41.38 10.9
3/28/2021 9:00:00 AM 9.06 48.308 0.086 7.22 43.39 10.96
3/28/2021 9:15:00 AM 9.06 48.308 0.086 7.23 45.47 10.95
3/28/2021 9:30:00 AM 9.06 48.308 0.086 7.24 46.84 10.99
3/28/2021 9:45:00 AM 9.08 48.344 0.086 7.26 40.89 11.07
3/28/2021 10:00:00 AM 9.08 48.344 0.086 7.27 40.55 11.09
3/28/2021 10:15:00 AM 9.1 48.38 0.085 7.29 41.93 11.14
3/28/2021 10:30:00 AM 9.11 48.398 0.085 7.3 42.27 11.18
3/28/2021 10:45:00 AM 9.13 48.434 0.085 7.32 46.68 11.24
3/28/2021 11:00:00 AM 9.15 48.47 0.085 7.34 50.02 11.3
3/28/2021 11:15:00 AM 9.18 48.524 0.085 7.37 55.11 11.34
3/28/2021 11:30:00 AM 9.19 48.542 0.085 7.37 46 11.35
3/28/2021 11:45:00 AM 9.2 48.56 0.085 7.39 45.32 11.36
3/28/2021 12:00:00 PM 9.22 48.596 0.085 7.39 47.87 11.35
3/28/2021 12:15:00 PM 9.22 48.596 0.085 7.4 61.96 11.35
3/28/2021 12:30:00 PM 9.25 48.65 0.085 7.42 51.17 11.35
3/28/2021 12:45:00 PM 9.25 48.65 0.085 7.4 56.17 11.34
3/28/2021 1:00:00 PM 9.27 48.686 0.085 7.41 51.1 11.35
3/28/2021 1:15:00 PM 9.3 48.74 0.085 7.43 52.1 11.37
3/28/2021 1:30:00 PM 9.32 48.776 0.085 7.41 54.02 11.38
3/28/2021 1:45:00 PM 9.34 48.812 0.085 7.43 51.11 11.39
3/28/2021 2:00:00 PM 9.37 48.866 0.085 7.45 54.28 11.41
3/28/2021 2:15:00 PM 9.4 48.92 0.085 7.47 55.52 11.41
3/28/2021 2:30:00 PM 9.44 48.992 0.084 7.49 56.27 11.41
3/28/2021 2:45:00 PM 9.48 49.064 0.084 7.48 60.08 11.4
3/28/2021 3:00:00 PM 9.54 49.172 0.084 7.53 58.05 11.42
3/28/2021 3:15:00 PM 9.61 49.298 0.084 7.55 59.27 11.45
3/28/2021 3:30:00 PM 9.68 49.424 0.084 7.57 55.58 11.45
3/28/2021 3:45:00 PM 9.71 49.478 0.084 7.56 60.38 11.42
3/28/2021 4:00:00 PM 9.76 49.568 0.084 7.55 65.84 11.4
3/28/2021 4:15:00 PM 9.8 49.64 0.084 7.55 61.95 11.32
3/28/2021 4:30:00 PM 9.84 49.712 0.084 7.52 61.58 11.25
3/28/2021 4:45:00 PM 9.87 49.766 0.084 7.53 57.73 11.23
3/28/2021 5:00:00 PM 9.9 49.82 0.084 7.5 63.28 11.2
3/28/2021 5:15:00 PM 9.93 49.874 0.085 7.52 65.49 11.18
3/28/2021 5:30:00 PM 9.95 49.91 0.085 7.48 62.42 11.1
3/28/2021 5:45:00 PM 9.97 49.946 0.085 7.47 59.58 11.06
3/28/2021 6:00:00 PM 9.97 49.946 0.085 7.44 67.95 11
3/28/2021 6:15:00 PM 9.97 49.946 0.085 7.43 61.13 10.97
3/28/2021 6:30:00 PM 9.96 49.928 0.085 7.41 64.92 10.92
3/28/2021 6:45:00 PM 9.95 49.91 0.086 7.37 70.42 10.9
3/28/2021 7:00:00 PM 9.93 49.874 0.086 7.37 86.02 10.86
3/28/2021 7:15:00 PM 9.89 49.802 0.087 7.35 73.35 10.83
3/28/2021 7:30:00 PM 9.86 49.748 0.087 7.34 78.34 10.78
3/28/2021 7:45:00 PM 9.81 49.658 0.088 7.29 78.06 10.75
3/28/2021 8:00:00 PM 9.78 49.604 0.088 7.26 87.6 10.72
3/28/2021 8:15:00 PM 9.74 49.532 0.089 7.28 79.04 10.69
3/28/2021 8:30:00 PM 9.69 49.442 0.089 7.26 81.73 10.67
3/28/2021 8:45:00 PM 9.64 49.352 0.09 7.25 87.62 10.66
3/28/2021 9:00:00 PM 9.6 49.28 0.089 7.23 77.31 10.65
3/28/2021 9:15:00 PM 9.56 49.208 0.089 7.22 81.88 10.65
3/28/2021 9:30:00 PM 9.51 49.118 0.089 7.21 77.22 10.64
3/28/2021 9:45:00 PM 9.46 49.028 0.089 7.2 91.28 10.64
3/28/2021 10:00:00 PM 9.4 48.92 0.088 7.21 93.45 10.65
3/28/2021 10:15:00 PM 9.33 48.794 0.088 7.19 98.04 10.66
3/28/2021 10:30:00 PM 9.28 48.704 0.088 7.19 334.19 10.68
3/28/2021 10:45:00 PM 9.22 48.596 0.088 7.19 301 10.69
3/28/2021 11:00:00 PM 9.15 48.47 0.088 7.17 36.71 10.71
3/28/2021 11:15:00 PM 9.08 48.344 0.088 7.17 30.21 10.72
3/28/2021 11:30:00 PM 9.01 48.218 0.088 7.18 89.94 10.74
3/28/2021 11:45:00 PM 8.95 48.11 0.088 7.17 364.19 10.76
3/29/2021 12:00:00 AM 8.87 47.966 0.087 7.15 177.07 10.78
3/29/2021 12:15:00 AM 8.78 47.804 0.088 7.15 289.29 10.8
3/29/2021 12:30:00 AM 8.7 47.66 0.087 7.14 231.67 10.82
3/29/2021 12:45:00 AM 8.61 47.498 0.087 7.13 78.22 10.85
3/29/2021 1:00:00 AM 8.53 47.354 0.087 7.14 491.05 10.87
3/29/2021 1:15:00 AM 8.45 47.21 0.087 7.12 328.61 10.89
3/29/2021 1:30:00 AM 8.37 47.066 0.087 7.12 411.58 10.92
3/29/2021 1:45:00 AM 8.29 46.922 0.087 7.12 404.18 10.94
3/29/2021 2:00:00 AM 8.22 46.796 0.087 7.13 414.69 10.97
3/29/2021 2:15:00 AM 8.16 46.688 0.087 7.12 111.63 10.99
3/29/2021 2:30:00 AM 8.1 46.58 0.087 7.12 269.67 11.01
3/29/2021 2:45:00 AM 8.03 46.454 0.088 7.13 211.91 11.03
3/29/2021 3:00:00 AM 7.95 46.31 0.088 7.13 69.33 11.06
3/29/2021 3:15:00 AM 7.89 46.202 0.088 7.12 277.49 11.08
3/29/2021 3:30:00 AM 7.81 46.058 0.088 7.13 132.04 11.11
3/29/2021 3:45:00 AM 7.74 45.932 0.088 7.12 300.4 11.13
3/29/2021 4:00:00 AM 7.67 45.806 0.088 7.14 101.13 11.15
3/29/2021 4:15:00 AM 7.61 45.698 0.088 7.15 114.59 11.17
3/29/2021 4:30:00 AM 7.54 45.572 0.088 7.12 502.43 11.2
3/29/2021 4:45:00 AM 7.48 45.464 0.088 7.15 122.6 11.22
3/29/2021 5:00:00 AM 7.42 45.356 0.088 7.15 338.3 11.25
3/29/2021 5:15:00 AM 7.36 45.248 0.088 7.15 129.85 11.27
3/29/2021 5:30:00 AM 7.3 45.14 0.088 7.13 103.53 11.28
3/29/2021 5:45:00 AM 7.24 45.032 0.088 7.13 107.77 11.31
3/29/2021 6:00:00 AM 7.17 44.906 0.088 7.08 394.38 11.33
3/29/2021 6:15:00 AM 7.12 44.816 0.088 7.11 650.53 11.35
3/29/2021 6:30:00 AM 7.05 44.69 0.088 7.11 52 11.37
3/29/2021 6:45:00 AM 6.98 44.564 0.088 7.12 367.98 11.4
3/29/2021 7:00:00 AM 6.92 44.456 0.088 7.11 139.74 11.42
3/29/2021 7:15:00 AM 6.86 44.348 0.088 7.14 501.01 11.46
3/29/2021 7:30:00 AM 6.81 44.258 0.088 7.13 88.61 11.51
3/29/2021 7:45:00 AM 6.77 44.186 0.088 7.16 76.03 11.57
3/29/2021 8:00:00 AM 6.72 44.096 0.088 7.17 511.92 11.66
3/29/2021 8:15:00 AM 6.68 44.024 0.087 7.2 369.85 11.75
3/29/2021 8:30:00 AM 6.64 43.952 0.087 7.19 1552.54 11.83
3/29/2021 8:45:00 AM 6.63 43.934 0.087 7.25 70.66 11.93
3/29/2021 9:00:00 AM 6.61 43.898 0.087 7.26 85.23 12.02
3/29/2021 9:15:00 AM 6.6 43.88 0.087 7.28 92.6 12.11
3/29/2021 9:30:00 AM 6.59 43.862 0.087 7.31 90.71 12.16
3/29/2021 9:45:00 AM 6.6 43.88 0.087 7.33 78.1 12.24
3/29/2021 10:00:00 AM 6.61 43.898 0.087 7.36 95.04 12.3
3/29/2021 10:15:00 AM 6.64 43.952 0.087 7.4 85.71 12.36
3/29/2021 10:30:00 AM 6.66 43.988 0.087 7.41 92.07 12.43
3/29/2021 10:45:00 AM 6.79 44.222 0.087 7.51 91.72 12.47
3/29/2021 11:00:00 AM 6.82 44.276 0.087 7.46 86.83 12.49
3/29/2021 11:15:00 AM 6.92 44.456 0.087 7.54 89.01 12.54
3/29/2021 11:30:00 AM 7.07 44.726 0.086 7.59 98.83 12.58
3/29/2021 11:45:00 AM 7.21 44.978 0.086 7.61 84.78 12.57
3/29/2021 12:00:00 PM 7.39 45.302 0.086 7.66 92.78 12.6
3/29/2021 12:15:00 PM 7.53 45.554 0.086 7.64 82.26 12.57
3/29/2021 12:30:00 PM 7.78 46.004 0.086 7.75 91.77 12.57
3/29/2021 12:45:00 PM 8.01 46.418 0.086 7.75 89.26 12.53
3/29/2021 1:00:00 PM 8.2 46.76 0.086 7.83 175.08 12.51
3/29/2021 1:15:00 PM 8.39 47.102 0.086 7.84 197.99 12.48
3/29/2021 1:30:00 PM 8.57 47.426 0.086 7.85 184.57 12.45
3/29/2021 1:45:00 PM 8.72 47.696 0.086 7.89 185.56 12.42
3/29/2021 2:00:00 PM 8.9 48.02 0.085 7.9 264.25 12.39
3/29/2021 2:15:00 PM 9.03 48.254 0.085 7.9 200.63 12.34
3/29/2021 2:30:00 PM 9.18 48.524 0.085 7.9 211.54 12.3
3/29/2021 2:45:00 PM 9.26 48.668 0.091 7.6 3.25 12.28
3/29/2021 3:00:00 PM 9.35 48.83 0.09 7.56 2.04 12.28
3/29/2021 3:15:00 PM 9.45 49.01 0.09 7.55 2.09 12.24
3/29/2021 3:30:00 PM 9.55 49.19 0.09 7.55 1.88 12.18
3/29/2021 3:45:00 PM 9.64 49.352 0.09 7.54 1.84 12.12
3/29/2021 4:00:00 PM 9.73 49.514 0.09 7.53 2.01 12.06
3/29/2021 4:15:00 PM 9.8 49.64 0.09 7.52 1.98 12.01
3/29/2021 4:30:00 PM 9.85 49.73 0.09 7.51 2.07 11.95
3/29/2021 4:45:00 PM 9.91 49.838 0.09 7.5 1.91 11.89
3/29/2021 5:00:00 PM 9.95 49.91 0.09 7.5 2.04 11.83
3/29/2021 5:15:00 PM 9.97 49.946 0.09 7.45 1.9 11.75
3/29/2021 5:30:00 PM 9.98 49.964 0.09 7.45 1.93 11.69
3/29/2021 5:45:00 PM 9.99 49.982 0.09 7.42 1.91 11.63
3/29/2021 6:00:00 PM 9.98 49.964 0.09 7.37 2.05 11.57
3/29/2021 6:15:00 PM 9.95 49.91 0.09 7.33 2.03 11.5
3/29/2021 6:30:00 PM 9.92 49.856 0.09 7.29 1.88 11.45
3/29/2021 6:45:00 PM 9.87 49.766 0.09 7.28 1.86 11.4
3/29/2021 7:00:00 PM 9.79 49.622 0.091 7.24 1.84 11.34
3/29/2021 7:15:00 PM 9.71 49.478 0.091 7.18 1.94 11.3
3/29/2021 7:30:00 PM 9.61 49.298 0.091 7.16 2.03 11.25
3/29/2021 7:45:00 PM 9.5 49.1 0.091 7.12 1.89 11.2
3/29/2021 8:00:00 PM 9.39 48.902 0.091 7.09 2.01 11.17
3/29/2021 8:15:00 PM 9.27 48.686 0.091 7.06 1.97 11.14
3/29/2021 8:30:00 PM 9.15 48.47 0.091 7.03 1.9 11.12
3/29/2021 8:45:00 PM 9.02 48.236 0.091 6.98 2.25 11.1
3/29/2021 9:00:00 PM 8.9 48.02 0.092 6.98 1.96 11.1
3/29/2021 9:15:00 PM 8.78 47.804 0.092 6.97 2.06 11.1
3/29/2021 9:30:00 PM 8.65 47.57 0.092 6.92 2.36 11.1
3/29/2021 9:45:00 PM 8.53 47.354 0.092 6.9 2.12 11.11
3/29/2021 10:00:00 PM 8.41 47.138 0.092 6.9 2.2 11.13
3/29/2021 10:15:00 PM 8.3 46.94 0.092 6.89 2.02 11.15
3/29/2021 10:30:00 PM 8.18 46.724 0.092 6.89 2.03 11.16
3/29/2021 10:45:00 PM 8.07 46.526 0.092 6.86 2.07 11.18
3/29/2021 11:00:00 PM 7.95 46.31 0.093 6.86 1.98 11.21
3/29/2021 11:15:00 PM 7.84 46.112 0.093 6.88 2.09 11.23
3/29/2021 11:30:00 PM 7.74 45.932 0.093 6.86 2.16 11.25
3/29/2021 11:45:00 PM 7.64 45.752 0.093 6.87 2.14 11.28
3/30/2021 12:00:00 AM 7.54 45.572 0.093 6.87 2.2 11.3
3/30/2021 12:15:00 AM 7.44 45.392 0.093 6.85 2.02 11.33
3/30/2021 12:30:00 AM 7.35 45.23 0.093 6.85 2.11 11.36
3/30/2021 12:45:00 AM 7.26 45.068 0.093 6.86 2.16 11.38
3/30/2021 1:00:00 AM 7.17 44.906 0.093 6.86 2.27 11.42
3/30/2021 1:15:00 AM 7.08 44.744 0.093 6.86 2.26 11.44
3/30/2021 1:30:00 AM 7 44.6 0.093 6.86 1.95 11.47
3/30/2021 1:45:00 AM 6.91 44.438 0.093 6.86 2.13 11.5
3/30/2021 2:00:00 AM 6.82 44.276 0.094 6.85 2.14 11.52
3/30/2021 2:15:00 AM 6.73 44.114 0.094 6.84 1.96 11.55
3/30/2021 2:30:00 AM 6.65 43.97 0.094 6.84 1.98 11.58
3/30/2021 2:45:00 AM 6.56 43.808 0.094 6.85 2.1 11.61
3/30/2021 3:00:00 AM 6.47 43.646 0.094 6.85 1.96 11.64
3/30/2021 3:15:00 AM 6.39 43.502 0.094 6.86 2.68 11.67
3/30/2021 3:30:00 AM 6.3 43.34 0.094 6.86 2.1 11.69
3/30/2021 3:45:00 AM 6.22 43.196 0.094 6.86 1.92 11.72
3/30/2021 4:00:00 AM 6.13 43.034 0.094 6.85 2.03 11.75
3/30/2021 4:15:00 AM 6.05 42.89 0.094 6.85 2.06 11.78
3/30/2021 4:30:00 AM 5.97 42.746 0.094 6.85 2 11.8
3/30/2021 4:45:00 AM 5.89 42.602 0.094 6.87 1.96 11.83
3/30/2021 5:00:00 AM 5.82 42.476 0.094 6.86 1.96 11.86
3/30/2021 5:15:00 AM 5.74 42.332 0.094 6.86 1.98 11.89
3/30/2021 5:30:00 AM 5.67 42.206 0.094 6.87 2.02 11.91
3/30/2021 5:45:00 AM 5.59 42.062 0.094 6.86 1.99 11.94
3/30/2021 6:00:00 AM 5.51 41.918 0.094 6.86 2.03 11.97
3/30/2021 6:15:00 AM 5.44 41.792 0.094 6.87 2.32 12
3/30/2021 6:30:00 AM 5.37 41.666 0.094 6.86 2.13 12.02
3/30/2021 6:45:00 AM 5.3 41.54 0.094 6.84 1.9 12.05
3/30/2021 7:00:00 AM 5.23 41.414 0.094 6.86 2.04 12.08
3/30/2021 7:15:00 AM 5.17 41.306 0.094 6.85 1.89 12.13
3/30/2021 7:30:00 AM 5.11 41.198 0.094 6.89 1.97 12.2
3/30/2021 7:45:00 AM 5.06 41.108 0.094 6.9 2.04 12.26
3/30/2021 8:00:00 AM 5.03 41.054 0.094 6.92 1.84 12.34
3/30/2021 8:15:00 AM 5.01 41.018 0.094 6.91 1.9 12.42
3/30/2021 8:30:00 AM 5 41 0.094 6.95 1.92 12.51
3/30/2021 8:45:00 AM 5.01 41.018 0.093 6.97 1.83 12.59
3/30/2021 9:00:00 AM 5.05 41.09 0.093 7.01 1.88 12.66
3/30/2021 9:15:00 AM 5.1 41.18 0.093 7 1.79 12.74
3/30/2021 9:30:00 AM 5.17 41.306 0.093 7.04 1.75 12.79
3/30/2021 9:45:00 AM 5.26 41.468 0.093 7.08 1.83 12.84
3/30/2021 10:00:00 AM 5.37 41.666 0.093 7.11 1.78 12.88
3/30/2021 10:15:00 AM 5.49 41.882 0.093 7.14 1.73 12.91
3/30/2021 10:30:00 AM 5.63 42.134 0.093 7.16 1.72 12.93
3/30/2021 10:45:00 AM 5.77 42.386 0.093 7.17 1.84 12.94
3/30/2021 11:00:00 AM 5.95 42.71 0.093 7.2 1.85 12.95
3/30/2021 11:15:00 AM 6.12 43.016 0.093 7.22 1.96 12.96
3/30/2021 11:30:00 AM 6.32 43.376 0.092 7.25 1.76 12.95
3/30/2021 11:45:00 AM 6.55 43.79 0.092 7.27 1.76 12.93
3/30/2021 12:00:00 PM 6.8 44.24 0.092 7.29 1.62 12.91
3/30/2021 12:15:00 PM 7.08 44.744 0.092 7.31 1.64 12.88
3/30/2021 12:30:00 PM 7.35 45.23 0.092 7.34 1.56 12.84
3/30/2021 12:45:00 PM 7.64 45.752 0.092 7.36 1.55 12.8
3/30/2021 1:00:00 PM 7.92 46.256 0.091 7.38 1.5 12.74
3/30/2021 1:15:00 PM 8.21 46.778 0.091 7.4 1.57 12.69
3/30/2021 1:30:00 PM 8.48 47.264 0.091 7.41 1.57 12.63
3/30/2021 1:45:00 PM 8.73 47.714 0.091 7.44 1.58 12.57
3/30/2021 2:00:00 PM 8.99 48.182 0.091 7.45 1.63 12.5
3/30/2021 2:15:00 PM 9.21 48.578 0.091 7.47 1.65 12.44
3/30/2021 2:30:00 PM 9.44 48.992 0.091 7.48 1.66 12.38
3/30/2021 2:45:00 PM 9.63 49.334 0.091 7.49 1.56 12.31
3/30/2021 3:00:00 PM 9.81 49.658 0.091 7.5 1.62 12.24
3/30/2021 3:15:00 PM 9.97 49.946 0.091 7.51 1.53 12.17
3/30/2021 3:30:00 PM 10.13 50.234 0.09 7.52 1.54 12.1
3/30/2021 3:45:00 PM 10.25 50.45 0.09 7.53 1.56 12.03
3/30/2021 4:00:00 PM 10.37 50.666 0.09 7.53 1.49 11.96
3/30/2021 4:15:00 PM 10.46 50.828 0.09 7.53 1.54 11.89
3/30/2021 4:30:00 PM 10.56 51.008 0.09 7.51 1.61 11.82
3/30/2021 4:45:00 PM 10.65 51.17 0.09 7.51 1.55 11.75
3/30/2021 5:00:00 PM 10.71 51.278 0.09 7.5 1.57 11.67
3/30/2021 5:15:00 PM 10.75 51.35 0.09 7.49 1.6 11.6
3/30/2021 5:30:00 PM 10.85 51.53 0.09 7.47 1.73 11.56
3/30/2021 5:45:00 PM 10.88 51.584 0.09 7.45 1.58 11.5
3/30/2021 6:00:00 PM 10.9 51.62 0.09 7.43 1.8 11.42
3/30/2021 6:15:00 PM 10.92 51.656 0.09 7.39 1.73 11.36
3/30/2021 6:30:00 PM 10.92 51.656 0.09 7.38 1.52 11.29
3/30/2021 6:45:00 PM 10.92 51.656 0.09 7.32 1.67 11.23
3/30/2021 7:00:00 PM 10.89 51.602 0.09 7.31 1.71 11.15
3/30/2021 7:15:00 PM 10.84 51.512 0.09 7.26 1.61 11.07
3/30/2021 7:30:00 PM 10.79 51.422 0.091 7.22 1.77 10.99
3/30/2021 7:45:00 PM 10.73 51.314 0.091 7.17 2.17 10.92
3/30/2021 8:00:00 PM 10.67 51.206 0.091 7.14 1.82 10.86
3/30/2021 8:15:00 PM 10.6 51.08 0.091 7.09 1.73 10.81
3/30/2021 8:30:00 PM 10.52 50.936 0.091 7.08 1.71 10.76
3/30/2021 8:45:00 PM 10.44 50.792 0.091 7 1.9 10.73
3/30/2021 9:00:00 PM 10.36 50.648 0.091 7.03 1.96 10.71
3/30/2021 9:15:00 PM 10.28 50.504 0.091 6.98 1.9 10.69
3/30/2021 9:30:00 PM 10.19 50.342 0.091 6.96 1.88 10.68
3/30/2021 9:45:00 PM 10.11 50.198 0.091 6.95 1.86 10.67
3/30/2021 10:00:00 PM 10.02 50.036 0.092 6.94 2.03 10.67
3/30/2021 10:15:00 PM 9.94 49.892 0.092 6.95 2.1 10.68
3/30/2021 10:30:00 PM 9.86 49.748 0.092 6.92 1.87 10.69
3/30/2021 10:45:00 PM 9.78 49.604 0.092 6.87 1.77 10.69
3/30/2021 11:00:00 PM 9.71 49.478 0.092 6.89 2.04 10.7
3/30/2021 11:15:00 PM 9.64 49.352 0.092 6.89 1.96 10.71
3/30/2021 11:30:00 PM 9.58 49.244 0.092 6.89 1.89 10.72
3/30/2021 11:45:00 PM 9.51 49.118 0.092 6.87 1.94 10.74
3/31/2021 12:00:00 AM 9.44 48.992 0.092 6.88 2 10.75
3/31/2021 12:15:00 AM 9.37 48.866 0.092 6.89 1.85 10.76
3/31/2021 12:30:00 AM 9.31 48.758 0.092 6.89 1.78 10.78
3/31/2021 12:45:00 AM 9.24 48.632 0.093 6.86 1.92 10.79
3/31/2021 1:00:00 AM 9.17 48.506 0.093 6.87 2.14 10.81
3/31/2021 1:15:00 AM 9.11 48.398 0.093 6.87 1.7 10.83
3/31/2021 1:30:00 AM 9.04 48.272 0.093 6.88 1.96 10.84
3/31/2021 1:45:00 AM 8.98 48.164 0.093 6.85 1.9 10.85
3/31/2021 2:00:00 AM 8.91 48.038 0.093 6.87 1.88 10.87
3/31/2021 2:15:00 AM 8.85 47.93 0.093 6.87 1.81 10.89
3/31/2021 2:30:00 AM 8.78 47.804 0.093 6.86 1.79 10.91
3/31/2021 2:45:00 AM 8.72 47.696 0.093 6.87 1.94 10.92
3/31/2021 3:00:00 AM 8.65 47.57 0.093 6.86 1.81 10.94
3/31/2021 3:15:00 AM 8.59 47.462 0.093 6.86 2.07 10.96
3/31/2021 3:30:00 AM 8.52 47.336 0.093 6.87 1.85 10.98
3/31/2021 3:45:00 AM 8.46 47.228 0.093 6.88 1.94 11
3/31/2021 4:00:00 AM 8.4 47.12 0.093 6.87 1.87 11.02
3/31/2021 4:15:00 AM 8.34 47.012 0.093 6.87 1.96 11.03
3/31/2021 4:30:00 AM 8.28 46.904 0.093 6.85 1.88 11.05
3/31/2021 4:45:00 AM 8.22 46.796 0.093 6.85 1.87 11.07
3/31/2021 5:00:00 AM 8.16 46.688 0.093 6.86 1.72 11.08
3/31/2021 5:15:00 AM 8.11 46.598 0.093 6.86 1.79 11.1
3/31/2021 5:30:00 AM 8.06 46.508 0.093 6.88 1.8 11.12
3/31/2021 5:45:00 AM 8.01 46.418 0.093 6.87 1.69 11.13
3/31/2021 6:00:00 AM 7.97 46.346 0.093 6.86 1.89 11.14
3/31/2021 6:15:00 AM 7.93 46.274 0.093 6.86 1.76 11.15
3/31/2021 6:30:00 AM 7.89 46.202 0.093 6.85 1.92 11.17
3/31/2021 6:45:00 AM 7.85 46.13 0.093 6.88 2.1 11.18
3/31/2021 7:00:00 AM 7.82 46.076 0.093 6.88 1.96 11.2
3/31/2021 7:15:00 AM 7.79 46.022 0.093 6.87 1.94 11.23
3/31/2021 7:30:00 AM 7.77 45.986 0.093 6.89 1.87 11.28
3/31/2021 7:45:00 AM 7.75 45.95 0.093 6.92 1.8 11.35
3/31/2021 8:00:00 AM 7.75 45.95 0.093 6.91 1.87 11.43
3/31/2021 8:15:00 AM 7.75 45.95 0.093 6.95 1.72 11.52
3/31/2021 8:30:00 AM 7.77 45.986 0.093 6.99 1.71 11.61
3/31/2021 8:45:00 AM 7.8 46.04 0.093 7.01 1.71 11.7
3/31/2021 9:00:00 AM 7.83 46.094 0.093 7.04 1.73 11.77
3/31/2021 9:15:00 AM 7.86 46.148 0.093 7.05 1.7 11.82
3/31/2021 9:30:00 AM 7.9 46.22 0.093 7.1 1.68 11.87
3/31/2021 9:45:00 AM 7.97 46.346 0.092 7.1 1.72 11.94
3/31/2021 10:00:00 AM 8.02 46.436 0.092 7.13 1.64 11.98
3/31/2021 10:15:00 AM 8.08 46.544 0.092 7.17 1.65 12.01
3/31/2021 10:30:00 AM 8.12 46.616 0.092 7.2 1.68 12.02
3/31/2021 10:45:00 AM 8.18 46.724 0.092 7.2 1.62 12.04
3/31/2021 11:00:00 AM 8.24 46.832 0.092 7.22 1.74 12.05
3/31/2021 11:15:00 AM 8.29 46.922 0.092 7.24 1.65 12.05
3/31/2021 11:30:00 AM 8.32 46.976 0.092 7.26 1.69 12.03
3/31/2021 11:45:00 AM 8.35 47.03 0.092 7.25 1.74 11.97
3/31/2021 12:00:00 PM 8.39 47.102 0.092 7.25 1.64 11.98
3/31/2021 12:15:00 PM 8.43 47.174 0.091 7.27 1.62 11.96
3/31/2021 12:30:00 PM 8.46 47.228 0.091 7.25 1.85 11.95
3/31/2021 12:45:00 PM 8.51 47.318 0.091 7.26 1.7 11.95
3/31/2021 1:00:00 PM 8.56 47.408 0.091 7.28 1.76 11.96
3/31/2021 1:15:00 PM 8.59 47.462 0.091 7.28 1.96 11.95
3/31/2021 1:30:00 PM 8.63 47.534 0.091 7.3 1.65 11.94
3/31/2021 1:45:00 PM 8.65 47.57 0.091 7.28 1.73 11.9
3/31/2021 2:00:00 PM 8.67 47.606 0.091 7.28 1.6 11.86
3/31/2021 2:15:00 PM 8.69 47.642 0.091 7.24 1.61 11.81
3/31/2021 2:30:00 PM 8.71 47.678 0.091 7.26 1.7 11.78
3/31/2021 2:45:00 PM 8.74 47.732 0.091 7.24 1.71 11.74
3/31/2021 3:00:00 PM 8.76 47.768 0.091 7.24 1.77 11.71
3/31/2021 3:15:00 PM 8.78 47.804 0.091 7.23 1.93 11.69
3/31/2021 3:30:00 PM 8.81 47.858 0.09 7.22 1.7 11.66
3/31/2021 3:45:00 PM 8.84 47.912 0.09 7.24 1.8 11.65
3/31/2021 4:00:00 PM 8.85 47.93 0.091 7.22 1.64 11.59
3/31/2021 4:15:00 PM 8.86 47.948 0.091 7.19 1.95 11.53
3/31/2021 4:30:00 PM 8.86 47.948 0.091 7.15 2.22 11.47
3/31/2021 4:45:00 PM 8.87 47.966 0.091 7.12 1.81 11.44
3/31/2021 5:00:00 PM 8.89 48.002 0.091 7.14 1.79 11.42
3/31/2021 5:15:00 PM 8.9 48.02 0.091 7.12 1.81 11.43
3/31/2021 5:30:00 PM 8.92 48.056 0.091 7.12 1.77 11.42
3/31/2021 5:45:00 PM 8.94 48.092 0.091 7.12 1.86 11.39
3/31/2021 6:00:00 PM 8.95 48.11 0.091 7.11 1.81 11.34
3/31/2021 6:15:00 PM 8.97 48.146 0.09 7.08 1.93 11.29
3/31/2021 6:30:00 PM 8.98 48.164 0.09 7.08 2.08 11.26
3/31/2021 6:45:00 PM 9 48.2 0.09 7.05 2.2 11.23
3/31/2021 7:00:00 PM 9.01 48.218 0.09 7.04 2.12 11.18
3/31/2021 7:15:00 PM 9.02 48.236 0.09 7.02 2.25 11.13
3/31/2021 7:30:00 PM 9.02 48.236 0.09 7 1.99 11.09
3/31/2021 7:45:00 PM 9.03 48.254 0.09 7.01 1.96 11.06
3/31/2021 8:00:00 PM 9.03 48.254 0.09 6.98 1.99 11.03
3/31/2021 8:15:00 PM 9.04 48.272 0.09 6.98 2.05 10.99
3/31/2021 8:30:00 PM 9.04 48.272 0.091 6.96 2.24 10.97
3/31/2021 8:45:00 PM 9.04 48.272 0.091 6.94 2.33 10.94
3/31/2021 9:00:00 PM 9.05 48.29 0.091 6.93 2.31 10.93
3/31/2021 9:15:00 PM 9.05 48.29 0.091 6.94 2.04 10.91
3/31/2021 9:30:00 PM 9.05 48.29 0.091 6.93 2.11 10.9
3/31/2021 9:45:00 PM 9.04 48.272 0.091 6.94 2.3 10.9
3/31/2021 10:00:00 PM 9.03 48.254 0.091 6.93 2.42 10.89
3/31/2021 10:15:00 PM 9.02 48.236 0.091 6.93 2.4 10.88
3/31/2021 10:30:00 PM 9 48.2 0.091 6.92 2.37 10.88
3/31/2021 10:45:00 PM 8.98 48.164 0.091 6.93 2.5 10.88
3/31/2021 11:00:00 PM 8.95 48.11 0.091 6.9 2.46 10.89
3/31/2021 11:15:00 PM 8.91 48.038 0.091 6.92 2.43 10.89
3/31/2021 11:30:00 PM 8.88 47.984 0.091 6.92 2.82 10.9
3/31/2021 11:45:00 PM 8.84 47.912 0.091 6.91 2.59 10.91
4/1/2021 12:00:00 AM 8.8 47.84 0.091 6.91 2.53 10.92
4/1/2021 12:15:00 AM 8.76 47.768 0.091 6.91 2.87 10.93
4/1/2021 12:30:00 AM 8.72 47.696 0.091 6.92 2.9 10.94
4/1/2021 12:45:00 AM 8.69 47.642 0.091 6.91 2.58 10.94
4/1/2021 1:00:00 AM 8.66 47.588 0.091 6.92 2.54 10.96
4/1/2021 1:15:00 AM 8.63 47.534 0.091 6.89 2.46 10.97
4/1/2021 1:30:00 AM 8.6 47.48 0.091 6.91 2.58 10.98
4/1/2021 1:45:00 AM 8.57 47.426 0.091 6.9 2.45 10.99
4/1/2021 2:00:00 AM 8.53 47.354 0.091 6.9 2.41 11
4/1/2021 2:15:00 AM 8.49 47.282 0.091 6.91 2.33 11.01
4/1/2021 2:30:00 AM 8.45 47.21 0.091 6.9 2.45 11.02
4/1/2021 2:45:00 AM 8.41 47.138 0.091 6.91 2.83 11.03
4/1/2021 3:00:00 AM 8.37 47.066 0.091 6.91 2.38 11.04
4/1/2021 3:15:00 AM 8.32 46.976 0.091 6.92 2.63 11.06
4/1/2021 3:30:00 AM 8.27 46.886 0.091 6.89 2.5 11.06
4/1/2021 3:45:00 AM 8.21 46.778 0.091 6.89 2.52 11.09
4/1/2021 4:00:00 AM 8.15 46.67 0.091 6.89 2.63 11.1
4/1/2021 4:15:00 AM 8.09 46.562 0.091 6.9 2.7 11.12
4/1/2021 4:30:00 AM 8.03 46.454 0.091 6.88 2.65 11.14
4/1/2021 4:45:00 AM 7.93 46.274 0.091 6.9 2.6 11.15
4/1/2021 5:00:00 AM 7.84 46.112 0.091 6.88 2.79 11.17
4/1/2021 5:15:00 AM 7.77 45.986 0.091 6.88 2.64 11.19
4/1/2021 5:30:00 AM 7.69 45.842 0.091 6.9 2.65 11.22
4/1/2021 5:45:00 AM 7.57 45.626 0.092 6.88 2.68 11.24
4/1/2021 6:00:00 AM 7.5 45.5 0.092 6.88 2.84 11.26
4/1/2021 6:15:00 AM 7.43 45.374 0.092 6.89 2.86 11.28
4/1/2021 6:30:00 AM 7.37 45.266 0.092 6.88 2.99 11.3
4/1/2021 6:45:00 AM 7.31 45.158 0.093 6.89 2.8 11.33
4/1/2021 7:00:00 AM 7.26 45.068 0.093 6.89 5.67 11.35
4/1/2021 7:15:00 AM 7.21 44.978 0.093 6.91 3.37 11.37
4/1/2021 7:30:00 AM 7.15 44.87 0.093 6.9 3.3 11.41
4/1/2021 7:45:00 AM 7.09 44.762 0.094 6.91 3.49 11.46
4/1/2021 8:00:00 AM 7.04 44.672 0.094 6.93 3.43 11.51
4/1/2021 8:15:00 AM 6.98 44.564 0.094 6.93 3.27 11.55
4/1/2021 8:30:00 AM 6.94 44.492 0.094 6.96 3.53 11.64
4/1/2021 8:45:00 AM 6.91 44.438 0.094 6.98 3.45 11.72
4/1/2021 9:00:00 AM 6.86 44.348 0.094 6.98 3.64 11.78
4/1/2021 9:15:00 AM 6.84 44.312 0.094 7 3.45 11.86
4/1/2021 9:30:00 AM 6.84 44.312 0.094 7.02 3.55 11.96
4/1/2021 9:45:00 AM 6.85 44.33 0.094 7.07 3.57 12.04
4/1/2021 10:00:00 AM 6.86 44.348 0.094 7.09 3.35 12.12
4/1/2021 10:15:00 AM 6.94 44.492 0.093 7.12 4.06 12.19
4/1/2021 10:30:00 AM 7.03 44.654 0.093 7.13 3.49 12.24
4/1/2021 10:45:00 AM 7.07 44.726 0.093 7.17 3.21 12.27
4/1/2021 11:00:00 AM 7.13 44.834 0.093 7.19 3.49 12.31
4/1/2021 11:15:00 AM 7.2 44.96 0.092 7.21 2.85 12.33
4/1/2021 11:30:00 AM 7.36 45.248 0.092 7.24 3.02 12.35
4/1/2021 11:45:00 AM 7.48 45.464 0.092 7.26 2.88 12.35
4/1/2021 12:00:00 PM 7.56 45.608 0.092 7.27 3.02 12.36
4/1/2021 12:15:00 PM 7.57 45.626 0.092 7.28 2.9 12.37
4/1/2021 12:30:00 PM 7.62 45.716 0.092 7.28 2.97 12.36
4/1/2021 12:45:00 PM 7.7 45.86 0.091 7.32 3.02 12.36
4/1/2021 1:00:00 PM 7.73 45.914 0.091 7.33 2.86 12.34
4/1/2021 1:15:00 PM 7.78 46.004 0.091 7.32 2.79 12.33
4/1/2021 1:30:00 PM 7.79 46.022 0.091 7.34 2.69 12.31
4/1/2021 1:45:00 PM 7.8 46.04 0.091 7.33 2.85 12.3
4/1/2021 2:00:00 PM 7.79 46.022 0.091 7.32 2.47 12.29
4/1/2021 2:15:00 PM 7.78 46.004 0.091 7.33 2.66 12.29
4/1/2021 2:30:00 PM 7.76 45.968 0.091 7.34 2.36 12.26
4/1/2021 2:45:00 PM 7.76 45.968 0.091 7.33 2.57 12.23
4/1/2021 3:00:00 PM 7.76 45.968 0.091 7.33 2.44 12.22
4/1/2021 3:15:00 PM 7.72 45.896 0.091 7.31 2.62 12.21
4/1/2021 3:30:00 PM 7.69 45.842 0.091 7.32 2.49 12.22
4/1/2021 3:45:00 PM 7.67 45.806 0.091 7.33 2.52 12.22
4/1/2021 4:00:00 PM 7.66 45.788 0.091 7.32 2.54 12.24
4/1/2021 4:15:00 PM 7.6 45.68 0.091 7.31 2.62 12.23
4/1/2021 4:30:00 PM 7.59 45.662 0.091 7.3 2.52 12.25
4/1/2021 4:45:00 PM 7.53 45.554 0.091 7.29 2.47 12.24
4/1/2021 5:00:00 PM 7.49 45.482 0.091 7.3 2.7 12.22
4/1/2021 5:15:00 PM 7.46 45.428 0.092 7.27 2.44 12.19
4/1/2021 5:30:00 PM 7.43 45.374 0.092 7.28 2.62 12.19
4/1/2021 5:45:00 PM 7.38 45.284 0.092 7.26 2.6 12.19
4/1/2021 6:00:00 PM 7.35 45.23 0.091 7.26 2.48 12.2
4/1/2021 6:15:00 PM 7.24 45.032 0.092 7.23 2.47 12.16
4/1/2021 6:30:00 PM 7.19 44.942 0.092 7.22 2.59 12.16
4/1/2021 6:45:00 PM 7.09 44.762 0.092 7.19 2.48 12.14
4/1/2021 7:00:00 PM 7 44.6 0.092 7.15 2.32 12.1
4/1/2021 7:15:00 PM 6.91 44.438 0.092 7.14 2.52 12.05
4/1/2021 7:30:00 PM 6.83 44.294 0.092 7.12 2.35 12.02
4/1/2021 7:45:00 PM 6.74 44.132 0.092 7.1 2.36 11.99
4/1/2021 8:00:00 PM 6.66 43.988 0.092 7.11 2.67 11.95
4/1/2021 8:15:00 PM 6.57 43.826 0.092 7.06 2.65 11.93
4/1/2021 8:30:00 PM 6.5 43.7 0.092 7.02 2.29 11.9
4/1/2021 8:45:00 PM 6.42 43.556 0.092 7.02 2.3 11.89
4/1/2021 9:00:00 PM 6.36 43.448 0.092 7.02 2.44 11.87
4/1/2021 9:15:00 PM 6.29 43.322 0.092 7 2.38 11.87
4/1/2021 9:30:00 PM 6.23 43.214 0.092 6.97 2.37 11.86
4/1/2021 9:45:00 PM 6.17 43.106 0.092 6.97 2.3 11.86
4/1/2021 10:00:00 PM 6.08 42.944 0.093 6.95 2.23 11.87
4/1/2021 10:15:00 PM 6.02 42.836 0.093 6.95 2.25 11.88
4/1/2021 10:30:00 PM 5.95 42.71 0.093 6.95 2.39 11.89
4/1/2021 10:45:00 PM 5.88 42.584 0.093 6.93 2.38 11.9
4/1/2021 11:00:00 PM 5.82 42.476 0.093 6.92 2.22 11.91
4/1/2021 11:15:00 PM 5.74 42.332 0.093 6.93 4.69 11.93
4/1/2021 11:30:00 PM 5.66 42.188 0.093 6.92 2.19 11.94
4/1/2021 11:45:00 PM 5.58 42.044 0.093 6.93 2.13 11.97
4/2/2021 12:00:00 AM 5.5 41.9 0.093 6.93 2.2 11.99
4/2/2021 12:15:00 AM 5.41 41.738 0.093 6.91 2.16 12.01
4/2/2021 12:30:00 AM 5.33 41.594 0.093 6.92 2.29 12.04
4/2/2021 12:45:00 AM 5.25 41.45 0.093 6.91 2.29 12.06
4/2/2021 1:00:00 AM 5.16 41.288 0.093 6.91 2.26 12.09
4/2/2021 1:15:00 AM 5.08 41.144 0.093 6.91 2.27 12.11
4/2/2021 1:30:00 AM 5 41 0.093 6.91 2.33 12.15
4/2/2021 1:45:00 AM 4.93 40.874 0.093 6.92 2.09 12.17
4/2/2021 2:00:00 AM 4.84 40.712 0.094 6.91 2.14 12.2
4/2/2021 2:15:00 AM 4.76 40.568 0.093 6.9 2.05 12.23
4/2/2021 2:30:00 AM 4.66 40.388 0.094 6.91 2.01 12.26
4/2/2021 2:45:00 AM 4.58 40.244 0.093 6.92 2.17 12.28
4/2/2021 3:00:00 AM 4.49 40.082 0.094 6.9 2.14 12.31
4/2/2021 3:15:00 AM 4.41 39.938 0.094 6.91 2.06 12.34
4/2/2021 3:30:00 AM 4.33 39.794 0.094 6.9 2.08 12.37
4/2/2021 3:45:00 AM 4.25 39.65 0.094 6.9 2.08 12.41
4/2/2021 4:00:00 AM 4.16 39.488 0.094 6.9 2.09 12.44
4/2/2021 4:15:00 AM 4.08 39.344 0.094 6.89 2.2 12.46
4/2/2021 4:30:00 AM 4.01 39.218 0.094 6.89 2.03 12.49
4/2/2021 4:45:00 AM 3.94 39.092 0.094 6.89 2.01 12.52
4/2/2021 5:00:00 AM 3.87 38.966 0.094 6.88 2.1 12.55
4/2/2021 5:15:00 AM 3.82 38.876 0.094 6.91 2.15 12.57
4/2/2021 5:30:00 AM 3.78 38.804 0.094 6.91 2.01 12.59
4/2/2021 5:45:00 AM 3.73 38.714 0.094 6.9 1.94 12.62
4/2/2021 6:00:00 AM 3.68 38.624 0.094 6.88 1.9 12.64
4/2/2021 6:15:00 AM 3.62 38.516 0.094 6.9 1.87 12.65
4/2/2021 6:30:00 AM 3.56 38.408 0.094 6.9 2.02 12.68
4/2/2021 6:45:00 AM 3.5 38.3 0.094 6.9 1.84 12.71
4/2/2021 7:00:00 AM 3.43 38.174 0.094 6.9 1.8 12.75
4/2/2021 7:15:00 AM 3.38 38.084 0.094 6.91 1.9 12.8
4/2/2021 7:30:00 AM 3.33 37.994 0.094 6.92 2.02 12.85
4/2/2021 7:45:00 AM 3.29 37.922 0.094 6.93 1.77 12.92
4/2/2021 8:00:00 AM 3.26 37.868 0.094 6.93 1.8 12.98
4/2/2021 8:15:00 AM 3.23 37.814 0.094 6.96 1.74 13.05
4/2/2021 8:30:00 AM 3.22 37.796 0.094 6.98 1.75 13.12
4/2/2021 8:45:00 AM 3.21 37.778 0.093 7 1.76 13.18
4/2/2021 9:00:00 AM 3.22 37.796 0.093 7.01 1.73 13.25
4/2/2021 9:15:00 AM 3.23 37.814 0.093 7.03 1.73 13.31
4/2/2021 9:30:00 AM 3.26 37.868 0.093 7.05 1.89 13.36
4/2/2021 9:45:00 AM 3.32 37.976 0.093 7.05 1.78 13.41
4/2/2021 10:00:00 AM 3.38 38.084 0.093 7.07 1.8 13.44
4/2/2021 10:15:00 AM 3.46 38.228 0.093 7.1 1.76 13.47
4/2/2021 10:30:00 AM 3.54 38.372 0.093 7.09 1.78 13.49
4/2/2021 10:45:00 AM 3.63 38.534 0.093 7.11 1.75 13.5
4/2/2021 11:00:00 AM 3.76 38.768 0.093 7.13 1.81 13.51
4/2/2021 11:15:00 AM 3.92 39.056 0.093 7.16 1.69 13.51
4/2/2021 11:30:00 AM 4.09 39.362 0.093 7.17 1.68 13.5
4/2/2021 11:45:00 AM 4.26 39.668 0.093 7.18 1.63 13.48
4/2/2021 12:00:00 PM 4.46 40.028 0.092 7.18 1.59 13.45
4/2/2021 12:15:00 PM 4.67 40.406 0.092 7.2 1.67 13.42
4/2/2021 12:30:00 PM 4.89 40.802 0.092 7.23 1.62 13.39
4/2/2021 12:45:00 PM 5.12 41.216 0.092 7.23 1.77 13.35
4/2/2021 1:00:00 PM 5.35 41.63 0.092 7.24 1.55 13.3
4/2/2021 1:15:00 PM 5.57 42.026 0.092 7.27 1.64 13.25
4/2/2021 1:30:00 PM 5.78 42.404 0.092 7.26 1.66 13.2
4/2/2021 1:45:00 PM 6 42.8 0.092 7.28 1.55 13.15
4/2/2021 2:00:00 PM 6.19 43.142 0.092 7.29 1.62 13.08
4/2/2021 2:15:00 PM 6.37 43.466 0.091 7.29 1.68 13.03
4/2/2021 2:30:00 PM 6.54 43.772 0.091 7.3 1.61 12.96
4/2/2021 2:45:00 PM 6.7 44.06 0.091 7.31 1.68 12.9
4/2/2021 3:00:00 PM 6.8 44.24 0.091 7.3 1.65 12.85
4/2/2021 3:15:00 PM 6.85 44.33 0.091 7.29 1.59 12.78
4/2/2021 3:30:00 PM 6.97 44.546 0.091 7.29 1.62 12.74
4/2/2021 3:45:00 PM 7.08 44.744 0.091 7.31 1.55 12.69
4/2/2021 4:00:00 PM 7.15 44.87 0.091 7.31 1.49 12.64
4/2/2021 4:15:00 PM 7.19 44.942 0.091 7.31 1.54 12.59
4/2/2021 4:30:00 PM 7.23 45.014 0.091 7.3 1.64 12.53
4/2/2021 4:45:00 PM 7.26 45.068 0.091 7.28 1.89 12.48
4/2/2021 5:00:00 PM 7.29 45.122 0.091 7.29 1.84 12.42
4/2/2021 5:15:00 PM 7.29 45.122 0.091 7.27 1.71 12.38
4/2/2021 5:30:00 PM 7.28 45.104 0.091 7.26 1.64 12.33
4/2/2021 5:45:00 PM 7.26 45.068 0.091 7.24 1.62 12.29
4/2/2021 6:00:00 PM 7.23 45.014 0.091 7.23 1.7 12.24
4/2/2021 6:15:00 PM 7.19 44.942 0.091 7.23 1.59 12.2
4/2/2021 6:30:00 PM 7.14 44.852 0.091 7.2 1.63 12.17
4/2/2021 6:45:00 PM 7.08 44.744 0.091 7.18 1.96 12.14
4/2/2021 7:00:00 PM 7 44.6 0.091 7.15 1.58 12.11
4/2/2021 7:15:00 PM 6.91 44.438 0.091 7.14 1.68 12.08
4/2/2021 7:30:00 PM 6.83 44.294 0.091 7.11 1.79 12.06
4/2/2021 7:45:00 PM 6.72 44.096 0.091 7.08 1.65 12.03
4/2/2021 8:00:00 PM 6.62 43.916 0.091 7.07 1.81 12.01
4/2/2021 8:15:00 PM 6.5 43.7 0.091 7.03 1.65 12
4/2/2021 8:30:00 PM 6.38 43.484 0.092 7.04 1.84 11.99
4/2/2021 8:45:00 PM 6.26 43.268 0.092 7.01 1.68 11.99
4/2/2021 9:00:00 PM 6.14 43.052 0.092 6.97 1.83 12
4/2/2021 9:15:00 PM 6.02 42.836 0.092 6.96 1.71 12.01
4/2/2021 9:30:00 PM 5.9 42.62 0.092 6.96 1.67 12.02
4/2/2021 9:45:00 PM 5.78 42.404 0.092 6.96 1.78 12.04
4/2/2021 10:00:00 PM 5.66 42.188 0.092 6.95 1.76 12.06
4/2/2021 10:15:00 PM 5.56 42.008 0.092 6.94 1.63 12.08
4/2/2021 10:30:00 PM 5.44 41.792 0.092 6.93 1.81 12.11
4/2/2021 10:45:00 PM 5.33 41.594 0.092 6.93 1.68 12.14
4/2/2021 11:00:00 PM 5.23 41.414 0.092 6.92 1.96 12.17
4/2/2021 11:15:00 PM 5.12 41.216 0.092 6.89 1.75 12.21
4/2/2021 11:30:00 PM 5.01 41.018 0.093 6.9 1.98 12.23
4/2/2021 11:45:00 PM 4.9 40.82 0.093 6.9 1.77 12.26
4/3/2021 12:00:00 AM 4.8 40.64 0.093 6.88 1.74 12.29
4/3/2021 12:15:00 AM 4.71 40.478 0.093 6.89 1.87 12.31
4/3/2021 12:30:00 AM 4.61 40.298 0.093 6.89 1.77 12.35
4/3/2021 12:45:00 AM 4.51 40.118 0.093 6.91 1.89 12.38
4/3/2021 1:00:00 AM 4.42 39.956 0.093 6.89 1.79 12.41
4/3/2021 1:15:00 AM 4.34 39.812 0.093 6.89 1.77 12.45
4/3/2021 1:30:00 AM 4.24 39.632 0.093 6.91 1.77 12.47
4/3/2021 1:45:00 AM 4.16 39.488 0.093 6.9 1.78 12.5
4/3/2021 2:00:00 AM 4.07 39.326 0.093 6.9 1.87 12.54
4/3/2021 2:15:00 AM 3.99 39.182 0.093 6.9 1.95 12.56
4/3/2021 2:30:00 AM 3.91 39.038 0.093 6.9 1.82 12.59
4/3/2021 2:45:00 AM 3.82 38.876 0.093 6.88 1.81 12.62
4/3/2021 3:00:00 AM 3.75 38.75 0.093 6.89 1.82 12.66
4/3/2021 3:15:00 AM 3.66 38.588 0.093 6.89 1.74 12.69
4/3/2021 3:30:00 AM 3.58 38.444 0.093 6.88 1.75 12.72
4/3/2021 3:45:00 AM 3.51 38.318 0.093 6.89 1.77 12.74
4/3/2021 4:00:00 AM 3.43 38.174 0.093 6.89 1.77 12.78
4/3/2021 4:15:00 AM 3.35 38.03 0.093 6.86 1.64 12.8
4/3/2021 4:30:00 AM 3.27 37.886 0.093 6.89 1.76 12.84
4/3/2021 4:45:00 AM 3.2 37.76 0.093 6.89 1.64 12.87
4/3/2021 5:00:00 AM 3.13 37.634 0.093 6.9 1.8 12.89
4/3/2021 5:15:00 AM 3.05 37.49 0.093 6.89 1.71 12.93
4/3/2021 5:30:00 AM 2.98 37.364 0.093 6.88 1.71 12.96
4/3/2021 5:45:00 AM 2.91 37.238 0.093 6.88 1.68 12.99
4/3/2021 6:00:00 AM 2.84 37.112 0.093 6.88 1.69 13.01
4/3/2021 6:15:00 AM 2.77 36.986 0.093 6.88 1.72 13.04
4/3/2021 6:30:00 AM 2.7 36.86 0.093 6.88 1.68 13.07
4/3/2021 6:45:00 AM 2.63 36.734 0.093 6.88 3.07 13.1
4/3/2021 7:00:00 AM 2.56 36.608 0.093 6.87 1.69 13.15
4/3/2021 7:15:00 AM 2.5 36.5 0.093 6.89 1.65 13.2
4/3/2021 7:30:00 AM 2.45 36.41 0.093 6.9 1.64 13.26
4/3/2021 7:45:00 AM 2.4 36.32 0.093 6.9 1.65 13.33
4/3/2021 8:00:00 AM 2.38 36.284 0.093 6.92 1.68 13.39
4/3/2021 8:15:00 AM 2.36 36.248 0.093 6.94 1.6 13.45
4/3/2021 8:30:00 AM 2.36 36.248 0.093 6.95 1.6 13.53
4/3/2021 8:45:00 AM 2.38 36.284 0.093 6.98 1.58 13.58
4/3/2021 9:00:00 AM 2.41 36.338 0.093 6.99 1.58 13.65
4/3/2021 9:15:00 AM 2.45 36.41 0.093 7 1.57 13.69
4/3/2021 9:30:00 AM 2.51 36.518 0.093 7.01 1.6 13.73
4/3/2021 9:45:00 AM 2.61 36.698 0.093 7.04 1.54 13.76
4/3/2021 10:00:00 AM 2.7 36.86 0.093 7.04 1.53 13.78
4/3/2021 10:15:00 AM 2.82 37.076 0.093 7.08 1.47 13.8
4/3/2021 10:30:00 AM 2.93 37.274 0.092 7.09 1.55 13.81
4/3/2021 10:45:00 AM 3.07 37.526 0.092 7.11 1.54 13.81
4/3/2021 11:00:00 AM 3.23 37.814 0.092 7.12 1.56 13.81
4/3/2021 11:15:00 AM 3.41 38.138 0.092 7.13 1.68 13.79
4/3/2021 11:30:00 AM 3.6 38.48 0.092 7.14 1.57 13.77
4/3/2021 11:45:00 AM 3.8 38.84 0.092 7.15 1.5 13.74
4/3/2021 12:00:00 PM 4.03 39.254 0.092 7.17 1.58 13.7
4/3/2021 12:15:00 PM 4.29 39.722 0.092 7.18 1.61 13.66
4/3/2021 12:30:00 PM 4.56 40.208 0.092 7.21 1.56 13.6
4/3/2021 12:45:00 PM 4.82 40.676 0.091 7.22 1.53 13.55
4/3/2021 1:00:00 PM 5.1 41.18 0.091 7.22 1.45 13.49
4/3/2021 1:15:00 PM 5.37 41.666 0.091 7.24 1.39 13.41
4/3/2021 1:30:00 PM 5.63 42.134 0.091 7.25 1.52 13.35
4/3/2021 1:45:00 PM 5.83 42.494 0.091 7.26 1.42 13.28
4/3/2021 2:00:00 PM 6.03 42.854 0.091 7.27 1.49 13.21
4/3/2021 2:15:00 PM 6.17 43.106 0.091 7.27 1.38 13.16
4/3/2021 2:30:00 PM 6.33 43.394 0.09 7.29 1.43 13.09
4/3/2021 2:45:00 PM 6.46 43.628 0.09 7.29 1.4 13.03
4/3/2021 3:00:00 PM 6.58 43.844 0.09 7.27 1.45 12.98
4/3/2021 3:15:00 PM 6.72 44.096 0.09 7.29 1.78 12.92
4/3/2021 3:30:00 PM 6.86 44.348 0.09 7.3 1.34 12.86
4/3/2021 3:45:00 PM 7.01 44.618 0.09 7.33 1.52 12.82
4/3/2021 4:00:00 PM 7.08 44.744 0.09 7.31 1.42 12.76
4/3/2021 4:15:00 PM 7.2 44.96 0.09 7.33 1.5 12.71
4/3/2021 4:30:00 PM 7.27 45.086 0.09 7.34 1.4 12.66
4/3/2021 4:45:00 PM 7.36 45.248 0.09 7.34 1.45 12.6
4/3/2021 5:00:00 PM 7.42 45.356 0.09 7.34 1.34 12.55
4/3/2021 5:15:00 PM 7.5 45.5 0.09 7.32 1.53 12.51
4/3/2021 5:30:00 PM 7.54 45.572 0.09 7.35 1.43 12.46
4/3/2021 5:45:00 PM 7.58 45.644 0.09 7.33 1.46 12.41
4/3/2021 6:00:00 PM 7.65 45.77 0.09 7.33 1.44 12.37
4/3/2021 6:15:00 PM 7.65 45.77 0.09 7.32 1.64 12.33
4/3/2021 6:30:00 PM 7.63 45.734 0.09 7.28 1.54 12.26
4/3/2021 6:45:00 PM 7.6 45.68 0.09 7.26 1.61 12.18
4/3/2021 7:00:00 PM 7.57 45.626 0.09 7.22 1.61 12.1
4/3/2021 7:15:00 PM 7.54 45.572 0.09 7.19 1.64 12.03
4/3/2021 7:30:00 PM 7.51 45.518 0.09 7.14 1.64 11.96
4/3/2021 7:45:00 PM 7.46 45.428 0.09 7.11 1.6 11.91
4/3/2021 8:00:00 PM 7.41 45.338 0.09 7.09 1.55 11.86
4/3/2021 8:15:00 PM 7.35 45.23 0.09 7.05 1.6 11.82
4/3/2021 8:30:00 PM 7.29 45.122 0.09 7.04 1.55 11.78
4/3/2021 8:45:00 PM 7.23 45.014 0.09 7.02 1.58 11.76
4/3/2021 9:00:00 PM 7.17 44.906 0.09 7.02 1.72 11.73
4/3/2021 9:15:00 PM 7.11 44.798 0.09 6.99 1.75 11.72
4/3/2021 9:30:00 PM 7.05 44.69 0.09 6.95 2.02 11.7
4/3/2021 9:45:00 PM 6.99 44.582 0.091 6.95 1.94 11.7
4/3/2021 10:00:00 PM 6.93 44.474 0.091 6.96 2.02 11.7
4/3/2021 10:15:00 PM 6.88 44.384 0.091 6.95 1.78 11.7
4/3/2021 10:30:00 PM 6.82 44.276 0.091 6.93 1.75 11.7
4/3/2021 10:45:00 PM 6.78 44.204 0.091 6.94 1.88 11.7
4/3/2021 11:00:00 PM 6.73 44.114 0.091 6.94 1.93 11.71
4/3/2021 11:15:00 PM 6.69 44.042 0.091 6.93 1.8 11.72
4/3/2021 11:30:00 PM 6.65 43.97 0.091 6.93 1.67 11.71
4/3/2021 11:45:00 PM 6.61 43.898 0.091 6.92 1.87 11.72
4/4/2021 12:00:00 AM 6.58 43.844 0.091 6.89 1.58 11.72
4/4/2021 12:15:00 AM 6.54 43.772 0.091 6.91 1.77 11.73
4/4/2021 12:30:00 AM 6.51 43.718 0.091 6.91 1.85 11.73
4/4/2021 12:45:00 AM 6.48 43.664 0.091 6.9 1.81 11.75
4/4/2021 1:00:00 AM 6.45 43.61 0.092 6.89 1.75 11.75
4/4/2021 1:15:00 AM 6.42 43.556 0.092 6.91 1.66 11.76
4/4/2021 1:30:00 AM 6.39 43.502 0.092 6.89 1.65 11.76
4/4/2021 1:45:00 AM 6.36 43.448 0.092 6.92 1.66 11.77
4/4/2021 2:00:00 AM 6.33 43.394 0.092 6.88 1.6 11.78
4/4/2021 2:15:00 AM 6.31 43.358 0.092 6.89 1.63 11.79
4/4/2021 2:30:00 AM 6.28 43.304 0.092 6.89 1.72 11.79
4/4/2021 2:45:00 AM 6.25 43.25 0.092 6.89 1.7 11.8
4/4/2021 3:00:00 AM 6.22 43.196 0.092 6.88 1.71 11.8
4/4/2021 3:15:00 AM 6.19 43.142 0.092 6.89 1.65 11.81
4/4/2021 3:30:00 AM 6.15 43.07 0.092 6.89 1.68 11.82
4/4/2021 3:45:00 AM 6.12 43.016 0.092 6.9 1.68 11.82
4/4/2021 4:00:00 AM 6.09 42.962 0.092 6.89 1.64 11.84
4/4/2021 4:15:00 AM 6.06 42.908 0.092 6.9 1.71 11.84
4/4/2021 4:30:00 AM 6.03 42.854 0.092 6.9 1.73 11.85
4/4/2021 4:45:00 AM 6.01 42.818 0.092 6.89 1.76 11.86
4/4/2021 5:00:00 AM 5.97 42.746 0.092 6.9 1.62 11.87
4/4/2021 5:15:00 AM 5.93 42.674 0.092 6.87 1.66 11.88
4/4/2021 5:30:00 AM 5.89 42.602 0.092 6.89 1.55 11.88
4/4/2021 5:45:00 AM 5.86 42.548 0.092 6.89 1.59 11.9
4/4/2021 6:00:00 AM 5.83 42.494 0.092 6.89 1.61 11.91
4/4/2021 6:15:00 AM 5.79 42.422 0.092 6.89 1.61 11.92
4/4/2021 6:30:00 AM 5.76 42.368 0.092 6.88 1.69 11.93
4/4/2021 6:45:00 AM 5.73 42.314 0.092 6.86 1.77 11.94
4/4/2021 7:00:00 AM 5.7 42.26 0.092 6.87 1.84 11.95
4/4/2021 7:15:00 AM 5.68 42.224 0.092 6.88 1.49 11.96
4/4/2021 7:30:00 AM 5.65 42.17 0.092 6.9 1.61 11.99
4/4/2021 7:45:00 AM 5.64 42.152 0.092 6.91 1.8 12.03
4/4/2021 8:00:00 AM 5.63 42.134 0.092 6.92 1.55 12.1
4/4/2021 8:15:00 AM 5.63 42.134 0.092 6.93 1.47 12.18
4/4/2021 8:30:00 AM 5.64 42.152 0.092 6.96 1.56 12.24
4/4/2021 8:45:00 AM 5.66 42.188 0.092 6.99 1.6 12.31
4/4/2021 9:00:00 AM 5.71 42.278 0.092 7 1.55 12.37
4/4/2021 9:15:00 AM 5.76 42.368 0.092 7.03 1.58 12.43
4/4/2021 9:30:00 AM 5.81 42.458 0.092 7.05 1.49 12.49
4/4/2021 9:45:00 AM 5.91 42.638 0.092 7.07 1.59 12.53
4/4/2021 10:00:00 AM 6.01 42.818 0.091 7.1 1.44 12.56
4/4/2021 10:15:00 AM 6.14 43.052 0.091 7.13 1.44 12.59
4/4/2021 10:30:00 AM 6.25 43.25 0.091 7.15 1.44 12.6
4/4/2021 10:45:00 AM 6.4 43.52 0.091 7.16 1.6 12.62
4/4/2021 11:00:00 AM 6.55 43.79 0.091 7.18 1.55 12.63
4/4/2021 11:15:00 AM 6.72 44.096 0.091 7.2 1.66 12.62
4/4/2021 11:30:00 AM 6.91 44.438 0.091 7.22 1.68 12.61
4/4/2021 11:45:00 AM 7.11 44.798 0.091 7.24 1.61 12.59
4/4/2021 12:00:00 PM 7.34 45.212 0.091 7.24 1.44 12.57
4/4/2021 12:15:00 PM 7.6 45.68 0.091 7.29 1.58 12.53
4/4/2021 12:30:00 PM 7.86 46.148 0.09 7.29 1.34 12.5
4/4/2021 12:45:00 PM 8.14 46.652 0.09 7.32 1.38 12.46
4/4/2021 1:00:00 PM 8.42 47.156 0.09 7.33 1.36 12.41
4/4/2021 1:15:00 PM 8.7 47.66 0.09 7.35 1.64 12.36
4/4/2021 1:30:00 PM 8.8 47.84 0.09 7.36 1.49 12.31
4/4/2021 1:45:00 PM 8.93 48.074 0.09 7.35 1.5 12.26
4/4/2021 2:00:00 PM 9.07 48.326 0.09 7.36 1.38 12.21
4/4/2021 2:15:00 PM 9.19 48.542 0.09 7.37 1.43 12.15
4/4/2021 2:30:00 PM 9.35 48.83 0.089 7.37 1.45 12.11
4/4/2021 2:45:00 PM 9.54 49.172 0.089 7.38 1.58 12.06
4/4/2021 3:00:00 PM 9.68 49.424 0.089 7.39 1.34 12.02
4/4/2021 3:15:00 PM 9.83 49.694 0.089 7.4 1.39 11.97
4/4/2021 3:30:00 PM 9.96 49.928 0.089 7.4 1.49 11.92
4/4/2021 3:45:00 PM 10.06 50.108 0.089 7.4 1.46 11.88
4/4/2021 4:00:00 PM 10.13 50.234 0.089 7.4 1.7 11.82
4/4/2021 4:15:00 PM 10.21 50.378 0.089 7.39 1.46 11.77
4/4/2021 4:30:00 PM 10.28 50.504 0.089 7.4 1.41 11.71
4/4/2021 4:45:00 PM 10.36 50.648 0.089 7.38 1.54 11.64
4/4/2021 5:00:00 PM 10.45 50.81 0.089 7.39 1.45 11.57
4/4/2021 5:15:00 PM 10.54 50.972 0.089 7.37 1.47 11.5
4/4/2021 5:30:00 PM 10.62 51.116 0.089 7.36 1.55 11.42
4/4/2021 5:45:00 PM 10.69 51.242 0.089 7.32 1.56 11.35
4/4/2021 6:00:00 PM 10.75 51.35 0.089 7.33 1.55 11.27
4/4/2021 6:15:00 PM 10.79 51.422 0.089 7.3 1.64 11.2
4/4/2021 6:30:00 PM 10.81 51.458 0.089 7.27 1.67 11.14
4/4/2021 6:45:00 PM 10.81 51.458 0.089 7.26 1.38 11.08
4/4/2021 7:00:00 PM 10.79 51.422 0.089 7.23 1.5 11.02
4/4/2021 7:15:00 PM 10.74 51.332 0.089 7.2 1.87 10.97
4/4/2021 7:30:00 PM 10.68 51.224 0.089 7.16 1.47 10.92
4/4/2021 7:45:00 PM 10.6 51.08 0.089 7.13 1.72 10.88
4/4/2021 8:00:00 PM 10.51 50.918 0.089 7.09 1.57 10.84
4/4/2021 8:15:00 PM 10.41 50.738 0.09 7.04 1.78 10.81
4/4/2021 8:30:00 PM 10.31 50.558 0.09 7.03 1.71 10.79
4/4/2021 8:45:00 PM 10.2 50.36 0.09 6.99 1.68 10.77
4/4/2021 9:00:00 PM 10.09 50.162 0.09 6.97 1.75 10.76
4/4/2021 9:15:00 PM 9.98 49.964 0.09 6.95 1.84 10.76
4/4/2021 9:30:00 PM 9.86 49.748 0.09 6.92 1.72 10.76
4/4/2021 9:45:00 PM 9.74 49.532 0.09 6.91 1.8 10.77
4/4/2021 10:00:00 PM 9.62 49.316 0.09 6.89 1.72 10.78
4/4/2021 10:15:00 PM 9.51 49.118 0.09 6.89 1.61 10.8
4/4/2021 10:30:00 PM 9.39 48.902 0.09 6.88 1.88 10.81
4/4/2021 10:45:00 PM 9.28 48.704 0.09 6.88 1.64 10.83
4/4/2021 11:00:00 PM 9.17 48.506 0.091 6.87 1.72 10.85
4/4/2021 11:15:00 PM 9.07 48.326 0.091 6.88 1.87 10.87
4/4/2021 11:30:00 PM 8.96 48.128 0.091 6.87 1.78 10.9
4/4/2021 11:45:00 PM 8.86 47.948 0.091 6.87 1.76 10.91
4/5/2021 12:00:00 AM 8.76 47.768 0.091 6.87 1.61 10.94
4/5/2021 12:15:00 AM 8.65 47.57 0.091 6.88 2.06 10.97
4/5/2021 12:30:00 AM 8.54 47.372 0.091 6.85 1.71 11
4/5/2021 12:45:00 AM 8.44 47.192 0.091 6.84 1.72 11.02
4/5/2021 1:00:00 AM 8.34 47.012 0.091 6.85 1.82 11.05
4/5/2021 1:15:00 AM 8.24 46.832 0.092 6.85 1.86 11.07
4/5/2021 1:30:00 AM 8.14 46.652 0.092 6.85 1.77 11.1
4/5/2021 1:45:00 AM 8.04 46.472 0.092 6.86 1.92 11.13
4/5/2021 2:00:00 AM 7.94 46.292 0.092 6.84 1.9 11.16
4/5/2021 2:15:00 AM 7.85 46.13 0.092 6.84 1.79 11.19
4/5/2021 2:30:00 AM 7.76 45.968 0.092 6.86 1.72 11.21
4/5/2021 2:45:00 AM 7.67 45.806 0.092 6.86 1.71 11.24
4/5/2021 3:00:00 AM 7.58 45.644 0.092 6.87 1.64 11.27
4/5/2021 3:15:00 AM 7.49 45.482 0.092 6.86 1.76 11.3
4/5/2021 3:30:00 AM 7.39 45.302 0.092 6.86 1.64 11.32
4/5/2021 3:45:00 AM 7.3 45.14 0.092 6.86 1.66 11.34
4/5/2021 4:00:00 AM 7.22 44.996 0.092 6.86 1.67 11.37
4/5/2021 4:15:00 AM 7.13 44.834 0.092 6.86 1.72 11.4
4/5/2021 4:30:00 AM 7.04 44.672 0.092 6.84 1.68 11.43
4/5/2021 4:45:00 AM 6.95 44.51 0.092 6.85 1.79 11.46
4/5/2021 5:00:00 AM 6.86 44.348 0.092 6.86 1.9 11.49
4/5/2021 5:15:00 AM 6.78 44.204 0.092 6.86 2.04 11.52
4/5/2021 5:30:00 AM 6.69 44.042 0.092 6.86 1.76 11.55
4/5/2021 5:45:00 AM 6.6 43.88 0.092 6.86 1.77 11.58
4/5/2021 6:00:00 AM 6.51 43.718 0.092 6.86 1.69 11.6
4/5/2021 6:15:00 AM 6.43 43.574 0.092 6.86 1.86 11.64
4/5/2021 6:30:00 AM 6.34 43.412 0.092 6.87 1.95 11.67
4/5/2021 6:45:00 AM 6.26 43.268 0.092 6.87 1.77 11.69
4/5/2021 7:00:00 AM 6.18 43.124 0.092 6.87 1.7 11.74
4/5/2021 7:15:00 AM 6.11 42.998 0.092 6.88 1.7 11.8
4/5/2021 7:30:00 AM 6.05 42.89 0.092 6.89 1.74 11.86
4/5/2021 7:45:00 AM 5.99 42.782 0.092 6.9 1.72 11.93
4/5/2021 8:00:00 AM 5.95 42.71 0.092 6.91 1.66 12
4/5/2021 8:15:00 AM 5.92 42.656 0.092 6.92 1.67 12.08
4/5/2021 8:30:00 AM 5.91 42.638 0.092 6.94 1.73 12.15
4/5/2021 8:45:00 AM 5.91 42.638 0.092 6.97 1.61 12.22
4/5/2021 9:00:00 AM 5.94 42.692 0.092 7 1.63 12.28
4/5/2021 9:15:00 AM 5.98 42.764 0.092 7.03 1.63 12.35
4/5/2021 9:30:00 AM 6.04 42.872 0.092 7.06 1.55 12.4
4/5/2021 9:45:00 AM 6.13 43.034 0.092 7.08 1.61 12.45
4/5/2021 10:00:00 AM 6.24 43.232 0.092 7.11 1.59 12.48
4/5/2021 10:15:00 AM 6.38 43.484 0.092 7.13 1.59 12.52
4/5/2021 10:30:00 AM 6.49 43.682 0.092 7.14 1.58 12.53
4/5/2021 10:45:00 AM 6.64 43.952 0.091 7.17 1.52 12.55
4/5/2021 11:00:00 AM 6.8 44.24 0.091 7.17 1.56 12.55
4/5/2021 11:15:00 AM 6.96 44.528 0.091 7.21 1.58 12.55
4/5/2021 11:30:00 AM 7.16 44.888 0.091 7.23 1.49 12.55
4/5/2021 11:45:00 AM 7.35 45.23 0.091 7.25 1.63 12.53
4/5/2021 12:00:00 PM 7.59 45.662 0.091 7.26 1.65 12.51
4/5/2021 12:15:00 PM 7.85 46.13 0.091 7.28 1.78 12.48
4/5/2021 12:30:00 PM 8.12 46.616 0.091 7.29 1.56 12.44
4/5/2021 12:45:00 PM 8.38 47.084 0.091 7.32 1.53 12.4
4/5/2021 1:00:00 PM 8.66 47.588 0.091 7.34 1.43 12.35
4/5/2021 1:15:00 PM 8.92 48.056 0.091 7.34 1.47 12.29
4/5/2021 1:30:00 PM 9.18 48.524 0.09 7.37 1.39 12.24
4/5/2021 1:45:00 PM 9.44 48.992 0.09 7.38 1.44 12.2
4/5/2021 2:00:00 PM 9.69 49.442 0.09 7.39 1.58 12.13
4/5/2021 2:15:00 PM 9.89 49.802 0.09 7.4 1.33 12.07
4/5/2021 2:30:00 PM 10.1 50.18 0.09 7.41 1.54 12.01
4/5/2021 2:45:00 PM 10.3 50.54 0.09 7.4 1.4 11.95
4/5/2021 3:00:00 PM 10.45 50.81 0.09 7.42 1.45 11.88
4/5/2021 3:15:00 PM 10.6 51.08 0.09 7.42 1.46 11.82
4/5/2021 3:30:00 PM 10.74 51.332 0.09 7.43 1.56 11.76
4/5/2021 3:45:00 PM 10.85 51.53 0.09 7.43 1.48 11.7
4/5/2021 4:00:00 PM 10.94 51.692 0.09 7.43 1.44 11.65
4/5/2021 4:15:00 PM 11 51.8 0.09 7.43 1.43 11.59
4/5/2021 4:30:00 PM 11.05 51.89 0.09 7.42 1.42 11.52
4/5/2021 4:45:00 PM 11.11 51.998 0.089 7.4 1.58 11.47
4/5/2021 5:00:00 PM 11.16 52.088 0.089 7.4 1.45 11.41
4/5/2021 5:15:00 PM 11.19 52.142 0.089 7.39 1.45 11.35
4/5/2021 5:30:00 PM 11.27 52.286 0.089 7.39 1.48 11.31
4/5/2021 5:45:00 PM 11.3 52.34 0.089 7.38 1.48 11.26
4/5/2021 6:00:00 PM 11.32 52.376 0.089 7.35 1.57 11.2
4/5/2021 6:15:00 PM 11.35 52.43 0.089 7.34 1.54 11.14
4/5/2021 6:30:00 PM 11.36 52.448 0.089 7.32 1.75 11.08
4/5/2021 6:45:00 PM 11.36 52.448 0.089 7.29 1.6 11.01
4/5/2021 7:00:00 PM 11.34 52.412 0.09 7.26 1.61 10.95
4/5/2021 7:15:00 PM 11.3 52.34 0.09 7.22 1.56 10.88
4/5/2021 7:30:00 PM 11.25 52.25 0.09 7.18 1.58 10.81
4/5/2021 7:45:00 PM 11.2 52.16 0.09 7.15 1.53 10.75
4/5/2021 8:00:00 PM 11.14 52.052 0.09 7.12 1.44 10.69
4/5/2021 8:15:00 PM 11.07 51.926 0.09 7.07 1.57 10.64
4/5/2021 8:30:00 PM 10.99 51.782 0.09 7.03 1.59 10.61
4/5/2021 8:45:00 PM 10.91 51.638 0.09 7.02 1.63 10.58
4/5/2021 9:00:00 PM 10.83 51.494 0.09 7 1.7 10.56
4/5/2021 9:15:00 PM 10.74 51.332 0.09 6.98 1.71 10.54
4/5/2021 9:30:00 PM 10.66 51.188 0.091 6.96 1.65 10.53
4/5/2021 9:45:00 PM 10.57 51.026 0.091 6.96 1.62 10.53
4/5/2021 10:00:00 PM 10.48 50.864 0.091 6.94 1.78 10.53
4/5/2021 10:15:00 PM 10.4 50.72 0.091 6.9 1.67 10.54
4/5/2021 10:30:00 PM 10.32 50.576 0.091 6.91 1.62 10.54
4/5/2021 10:45:00 PM 10.25 50.45 0.091 6.9 1.66 10.56
4/5/2021 11:00:00 PM 10.17 50.306 0.091 6.9 2.06 10.57
4/5/2021 11:15:00 PM 10.1 50.18 0.091 6.89 1.65 10.58
4/5/2021 11:30:00 PM 10.03 50.054 0.091 6.9 1.75 10.59
4/5/2021 11:45:00 PM 9.96 49.928 0.091 6.9 1.68 10.61
4/6/2021 12:00:00 AM 9.89 49.802 0.091 6.89 1.64 10.63
4/6/2021 12:15:00 AM 9.82 49.676 0.092 6.89 1.65 10.64
4/6/2021 12:30:00 AM 9.75 49.55 0.092 6.88 1.77 10.65
4/6/2021 12:45:00 AM 9.68 49.424 0.092 6.9 1.61 10.67
4/6/2021 1:00:00 AM 9.61 49.298 0.092 6.9 1.75 10.68
4/6/2021 1:15:00 AM 9.55 49.19 0.092 6.9 1.68 10.7
4/6/2021 1:30:00 AM 9.49 49.082 0.092 6.9 1.76 10.71
4/6/2021 1:45:00 AM 9.42 48.956 0.092 6.88 1.77 10.73
4/6/2021 2:00:00 AM 9.34 48.812 0.092 6.89 1.76 10.75
4/6/2021 2:15:00 AM 9.26 48.668 0.092 6.88 1.78 10.77
4/6/2021 2:30:00 AM 9.18 48.524 0.093 6.88 1.85 10.78
4/6/2021 2:45:00 AM 9.09 48.362 0.093 6.87 1.62 10.8
4/6/2021 3:00:00 AM 9.01 48.218 0.093 6.87 1.86 10.82
4/6/2021 3:15:00 AM 8.93 48.074 0.093 6.87 1.71 10.84
4/6/2021 3:30:00 AM 8.84 47.912 0.093 6.87 1.68 10.86
4/6/2021 3:45:00 AM 8.75 47.75 0.093 6.87 1.66 10.89
4/6/2021 4:00:00 AM 8.66 47.588 0.093 6.85 1.75 10.91
4/6/2021 4:15:00 AM 8.58 47.444 0.093 6.86 1.78 10.93
4/6/2021 4:30:00 AM 8.49 47.282 0.093 6.84 1.77 10.95
4/6/2021 4:45:00 AM 8.41 47.138 0.093 6.86 1.76 10.98
4/6/2021 5:00:00 AM 8.32 46.976 0.094 6.85 1.86 11
4/6/2021 5:15:00 AM 8.22 46.796 0.094 6.85 1.72 11.02
4/6/2021 5:30:00 AM 8.14 46.652 0.094 6.86 1.72 11.05
4/6/2021 5:45:00 AM 8.05 46.49 0.094 6.86 1.72 11.08
4/6/2021 6:00:00 AM 7.96 46.328 0.094 6.86 1.78 11.11
4/6/2021 6:15:00 AM 7.87 46.166 0.094 6.86 1.67 11.13
4/6/2021 6:30:00 AM 7.78 46.004 0.094 6.87 1.61 11.16
4/6/2021 6:45:00 AM 7.7 45.86 0.094 6.86 1.66 11.19
4/6/2021 7:00:00 AM 7.62 45.716 0.094 6.86 1.74 11.23
4/6/2021 7:15:00 AM 7.54 45.572 0.094 6.86 1.77 11.28
4/6/2021 7:30:00 AM 7.47 45.446 0.094 6.89 1.69 11.35
4/6/2021 7:45:00 AM 7.42 45.356 0.094 6.89 1.67 11.42
4/6/2021 8:00:00 AM 7.37 45.266 0.094 6.91 1.7 11.5
4/6/2021 8:15:00 AM 7.35 45.23 0.094 6.93 1.66 11.57
4/6/2021 8:30:00 AM 7.34 45.212 0.094 6.96 1.77 11.64
4/6/2021 8:45:00 AM 7.34 45.212 0.094 6.99 1.71 11.72
4/6/2021 9:00:00 AM 7.38 45.284 0.094 7.01 1.56 11.79
4/6/2021 9:15:00 AM 7.43 45.374 0.094 7.03 1.65 11.85
4/6/2021 9:30:00 AM 7.48 45.464 0.093 7.06 1.62 11.91
4/6/2021 9:45:00 AM 7.57 45.626 0.093 7.08 1.59 11.96
4/6/2021 10:00:00 AM 7.69 45.842 0.093 7.11 1.54 12
4/6/2021 10:15:00 AM 7.82 46.076 0.093 7.14 1.53 12.03
4/6/2021 10:30:00 AM 7.93 46.274 0.093 7.15 1.53 12.06
4/6/2021 10:45:00 AM 8.08 46.544 0.093 7.15 1.53 12.07
4/6/2021 11:00:00 AM 8.23 46.814 0.093 7.2 1.61 12.08
4/6/2021 11:15:00 AM 8.39 47.102 0.093 7.21 1.61 12.08
4/6/2021 11:30:00 AM 8.58 47.444 0.093 7.24 1.68 12.08
4/6/2021 11:45:00 AM 8.79 47.822 0.093 7.25 1.58 12.07
4/6/2021 12:00:00 PM 9.02 48.236 0.092 7.28 1.6 12.06
4/6/2021 12:15:00 PM 9.26 48.668 0.092 7.3 1.53 12.03
4/6/2021 12:30:00 PM 9.53 49.154 0.092 7.32 1.52 12.01
4/6/2021 12:45:00 PM 9.79 49.622 0.092 7.34 1.56 11.97
4/6/2021 1:00:00 PM 10.05 50.09 0.092 7.35 1.61 11.93
4/6/2021 1:15:00 PM 10.3 50.54 0.092 7.37 1.56 11.89
4/6/2021 1:30:00 PM 10.55 50.99 0.092 7.39 1.38 11.85
4/6/2021 1:45:00 PM 10.79 51.422 0.092 7.39 1.41 11.8
4/6/2021 2:00:00 PM 11 51.8 0.092 7.41 1.48 11.75
4/6/2021 2:15:00 PM 11.22 52.196 0.091 7.42 1.38 11.71
4/6/2021 2:30:00 PM 11.43 52.574 0.091 7.44 1.51 11.66
4/6/2021 2:45:00 PM 11.61 52.898 0.091 7.45 1.37 11.59
4/6/2021 3:00:00 PM 11.78 53.204 0.091 7.44 1.49 11.54
4/6/2021 3:15:00 PM 11.92 53.456 0.091 7.45 1.44 11.48
4/6/2021 3:30:00 PM 12.04 53.672 0.091 7.44 1.52 11.42
4/6/2021 3:45:00 PM 12.14 53.852 0.091 7.45 1.4 11.37
4/6/2021 4:00:00 PM 12.23 54.014 0.091 7.45 1.38 11.31
4/6/2021 4:15:00 PM 12.29 54.122 0.091 7.43 1.49 11.25
4/6/2021 4:30:00 PM 12.34 54.212 0.091 7.43 1.42 11.17
4/6/2021 4:45:00 PM 12.38 54.284 0.091 7.41 1.44 11.13
4/6/2021 5:00:00 PM 12.43 54.374 0.091 7.38 1.41 11.05
4/6/2021 5:15:00 PM 12.46 54.428 0.091 7.38 1.48 11
4/6/2021 5:30:00 PM 12.49 54.482 0.091 7.36 1.48 10.95
4/6/2021 5:45:00 PM 12.51 54.518 0.091 7.35 1.45 10.88
4/6/2021 6:00:00 PM 12.52 54.536 0.091 7.33 1.55 10.83
4/6/2021 6:15:00 PM 12.53 54.554 0.091 7.31 1.61 10.74
4/6/2021 6:30:00 PM 12.52 54.536 0.091 7.29 1.49 10.68
4/6/2021 6:45:00 PM 12.53 54.554 0.091 7.24 1.56 10.6
4/6/2021 7:00:00 PM 12.53 54.554 0.091 7.23 1.65 10.53
4/6/2021 7:15:00 PM 12.5 54.5 0.091 7.2 1.59 10.47
4/6/2021 7:30:00 PM 12.47 54.446 0.091 7.16 1.55 10.42
4/6/2021 7:45:00 PM 12.42 54.356 0.091 7.12 1.51 10.35
4/6/2021 8:00:00 PM 12.36 54.248 0.091 7.1 1.49 10.31
4/6/2021 8:15:00 PM 12.29 54.122 0.091 7.07 1.55 10.27
4/6/2021 8:30:00 PM 12.21 53.978 0.091 7.03 1.71 10.23
4/6/2021 8:45:00 PM 12.13 53.834 0.092 7 2.35 10.2
4/6/2021 9:00:00 PM 12.04 53.672 0.092 6.98 1.7 10.18
4/6/2021 9:15:00 PM 11.95 53.51 0.092 6.96 1.79 10.16
4/6/2021 9:30:00 PM 11.87 53.366 0.092 6.95 1.64 10.15
4/6/2021 9:45:00 PM 11.79 53.222 0.092 6.94 1.75 10.15
4/6/2021 10:00:00 PM 11.69 53.042 0.092 6.91 4.28 10.15
4/6/2021 10:15:00 PM 11.59 52.862 0.092 6.91 1.82 10.16
4/6/2021 10:30:00 PM 11.49 52.682 0.092 6.9 1.69 10.17
4/6/2021 10:45:00 PM 11.4 52.52 0.092 6.89 1.68 10.18
4/6/2021 11:00:00 PM 11.31 52.358 0.092 6.89 1.76 10.2
4/6/2021 11:15:00 PM 11.22 52.196 0.093 6.88 1.84 10.22
4/6/2021 11:30:00 PM 11.13 52.034 0.093 6.89 1.84 10.24
4/6/2021 11:45:00 PM 11.05 51.89 0.093 6.87 1.74 10.26
4/7/2021 12:00:00 AM 10.96 51.728 0.093 6.87 1.64 10.27
4/7/2021 12:15:00 AM 10.87 51.566 0.093 6.89 1.68 10.3
4/7/2021 12:30:00 AM 10.79 51.422 0.093 6.87 1.83 10.32
4/7/2021 12:45:00 AM 10.71 51.278 0.093 6.87 1.92 10.35
4/7/2021 1:00:00 AM 10.64 51.152 0.093 6.88 1.74 10.36
4/7/2021 1:15:00 AM 10.57 51.026 0.093 6.87 1.66 10.36
4/7/2021 1:30:00 AM 10.49 50.882 0.093 6.88 1.82 10.39
4/7/2021 1:45:00 AM 10.42 50.756 0.094 6.88 1.94 10.42
4/7/2021 2:00:00 AM 10.36 50.648 0.094 6.89 1.77 10.44
4/7/2021 2:15:00 AM 10.3 50.54 0.094 6.89 1.74 10.45
4/7/2021 2:30:00 AM 10.23 50.414 0.094 6.88 1.71 10.47
4/7/2021 2:45:00 AM 10.17 50.306 0.094 6.88 1.7 10.49
4/7/2021 3:00:00 AM 10.1 50.18 0.094 6.89 1.82 10.52
4/7/2021 3:15:00 AM 10.04 50.072 0.094 6.88 2.07 10.53
4/7/2021 3:30:00 AM 9.98 49.964 0.094 6.89 1.88 10.54
4/7/2021 3:45:00 AM 9.92 49.856 0.094 6.9 1.77 10.57
4/7/2021 4:00:00 AM 9.85 49.73 0.094 6.88 1.73 10.58
4/7/2021 4:15:00 AM 9.79 49.622 0.094 6.88 1.69 10.6
4/7/2021 4:30:00 AM 9.73 49.514 0.094 6.88 1.78 10.61
4/7/2021 4:45:00 AM 9.66 49.388 0.095 6.89 1.77 10.63
4/7/2021 5:00:00 AM 9.61 49.298 0.094 6.89 1.66 10.64
4/7/2021 5:15:00 AM 9.55 49.19 0.094 6.9 1.7 10.66
4/7/2021 5:30:00 AM 9.5 49.1 0.094 6.89 1.74 10.67
4/7/2021 5:45:00 AM 9.45 49.01 0.095 6.9 1.6 10.69
4/7/2021 6:00:00 AM 9.4 48.92 0.095 6.9 1.81 10.71
4/7/2021 6:15:00 AM 9.35 48.83 0.095 6.9 1.68 10.73
4/7/2021 6:30:00 AM 9.31 48.758 0.095 6.91 1.61 10.74
4/7/2021 6:45:00 AM 9.27 48.686 0.095 6.91 1.58 10.76
4/7/2021 7:00:00 AM 9.23 48.614 0.095 6.91 1.7 10.78
4/7/2021 7:15:00 AM 9.19 48.542 0.094 6.91 1.59 10.81
4/7/2021 7:30:00 AM 9.16 48.488 0.094 6.93 1.62 10.87
4/7/2021 7:45:00 AM 9.14 48.452 0.094 6.94 1.66 10.94
4/7/2021 8:00:00 AM 9.14 48.452 0.094 6.95 1.59 11.01
4/7/2021 8:15:00 AM 9.13 48.434 0.094 6.99 1.62 11.09
4/7/2021 8:30:00 AM 9.14 48.452 0.094 6.99 1.55 11.15
4/7/2021 8:45:00 AM 9.15 48.47 0.094 7.01 1.51 11.21
4/7/2021 9:00:00 AM 9.19 48.542 0.094 7.04 1.53 11.27
4/7/2021 9:15:00 AM 9.19 48.542 0.094 7.06 1.67 11.33
4/7/2021 9:30:00 AM 9.18 48.524 0.094 7.06 1.6 11.35
4/7/2021 9:45:00 AM 9.2 48.56 0.094 7.07 1.57 11.39
4/7/2021 10:00:00 AM 9.23 48.614 0.094 7.11 1.53 11.43
4/7/2021 10:15:00 AM 9.29 48.722 0.094 7.12 1.82 11.47
4/7/2021 10:30:00 AM 9.45 49.01 0.094 7.15 1.64 11.51
4/7/2021 10:45:00 AM 9.64 49.352 0.094 7.2 1.56 11.55
4/7/2021 11:00:00 AM 9.79 49.622 0.094 7.2 1.58 11.57
4/7/2021 11:15:00 AM 9.95 49.91 0.093 7.23 1.54 11.59
4/7/2021 11:30:00 AM 10.14 50.252 0.093 7.26 1.44 11.6
4/7/2021 11:45:00 AM 10.36 50.648 0.093 7.28 1.51 11.61
4/7/2021 12:00:00 PM 10.58 51.044 0.093 7.29 1.52 11.6
4/7/2021 12:15:00 PM 10.85 51.53 0.093 7.33 1.39 11.56
4/7/2021 12:30:00 PM 11.12 52.016 0.093 7.35 1.53 11.55
4/7/2021 12:45:00 PM 11.39 52.502 0.093 7.38 1.46 11.52
4/7/2021 1:00:00 PM 11.65 52.97 0.093 7.38 1.44 11.49
4/7/2021 1:15:00 PM 11.91 53.438 0.093 7.41 1.44 11.46
4/7/2021 1:30:00 PM 12.13 53.834 0.093 7.44 2.63 11.42
4/7/2021 1:45:00 PM 12.36 54.248 0.093 7.43 1.44 11.38
4/7/2021 2:00:00 PM 12.57 54.626 0.093 7.45 1.35 11.35
4/7/2021 2:15:00 PM 12.79 55.022 0.093 7.46 1.47 11.29
4/7/2021 2:30:00 PM 13 55.4 0.092 7.48 1.32 11.25
4/7/2021 2:45:00 PM 13.15 55.67 0.092 7.46 1.45 11.19
4/7/2021 3:00:00 PM 13.31 55.958 0.092 7.48 1.33 11.14
4/7/2021 3:15:00 PM 13.45 56.21 0.092 7.48 1.31 11.09
4/7/2021 3:30:00 PM 13.56 56.408 0.092 7.48 1.36 11.04
4/7/2021 3:45:00 PM 13.66 56.588 0.092 7.48 1.37 10.98
4/7/2021 4:00:00 PM 13.75 56.75 0.092 7.47 1.38 10.93
4/7/2021 4:15:00 PM 13.84 56.912 0.092 7.47 1.43 10.87
4/7/2021 4:30:00 PM 13.9 57.02 0.092 7.45 1.4 10.83
4/7/2021 4:45:00 PM 13.99 57.182 0.092 7.47 1.32 10.77
4/7/2021 5:00:00 PM 14.04 57.272 0.092 7.46 1.37 10.72
4/7/2021 5:15:00 PM 14.1 57.38 0.092 7.46 1.35 10.68
4/7/2021 5:30:00 PM 14.18 57.524 0.092 7.45 1.35 10.62
4/7/2021 5:45:00 PM 14.24 57.632 0.092 7.43 1.53 10.56
4/7/2021 6:00:00 PM 14.26 57.668 0.092 7.4 1.53 10.47
4/7/2021 6:15:00 PM 14.26 57.668 0.092 7.36 1.44 10.37
4/7/2021 6:30:00 PM 14.3 57.74 0.092 7.33 1.45 10.31
4/7/2021 6:45:00 PM 14.31 57.758 0.092 7.31 1.43 10.23
4/7/2021 7:00:00 PM 14.32 57.776 0.092 7.23 1.43 10.15
4/7/2021 7:15:00 PM 14.31 57.758 0.092 7.23 1.35 10.08
4/7/2021 7:30:00 PM 14.28 57.704 0.092 7.19 2.2 10
4/7/2021 7:45:00 PM 14.24 57.632 0.092 7.13 1.62 9.93
4/7/2021 8:00:00 PM 14.2 57.56 0.092 7.11 1.5 9.86
4/7/2021 8:15:00 PM 14.14 57.452 0.092 7.08 1.41 9.82
4/7/2021 8:30:00 PM 14.08 57.344 0.092 7.05 1.61 9.77
4/7/2021 8:45:00 PM 14.01 57.218 0.092 7 1.77 9.73
4/7/2021 9:00:00 PM 13.94 57.092 0.093 6.99 2.04 9.7
4/7/2021 9:15:00 PM 13.86 56.948 0.093 6.98 1.82 9.68
4/7/2021 9:30:00 PM 13.77 56.786 0.093 6.95 1.83 9.67
4/7/2021 9:45:00 PM 13.68 56.624 0.093 6.94 1.61 9.66
4/7/2021 10:00:00 PM 13.58 56.444 0.093 6.93 1.83 9.66
4/7/2021 10:15:00 PM 13.48 56.264 0.093 6.9 1.66 9.65
4/7/2021 10:30:00 PM 13.37 56.066 0.093 6.89 1.61 9.67
4/7/2021 10:45:00 PM 13.25 55.85 0.093 6.89 1.62 9.68
4/7/2021 11:00:00 PM 13.14 55.652 0.094 6.89 1.65 9.7
4/7/2021 11:15:00 PM 13.01 55.418 0.094 6.88 1.63 9.72
4/7/2021 11:30:00 PM 12.88 55.184 0.094 6.87 1.7 9.74
4/7/2021 11:45:00 PM 12.76 54.968 0.094 6.88 1.66 9.77
4/8/2021 12:00:00 AM 12.63 54.734 0.094 6.86 1.72 9.8
4/8/2021 12:15:00 AM 12.5 54.5 0.094 6.83 1.75 9.82
4/8/2021 12:30:00 AM 12.37 54.266 0.094 6.85 1.65 9.85
4/8/2021 12:45:00 AM 12.24 54.032 0.094 6.84 1.72 9.89
4/8/2021 1:00:00 AM 12.12 53.816 0.094 6.85 1.59 9.92
4/8/2021 1:15:00 AM 11.99 53.582 0.095 6.85 1.7 9.94
4/8/2021 1:30:00 AM 11.87 53.366 0.095 6.84 2.11 9.97
4/8/2021 1:45:00 AM 11.75 53.15 0.095 6.85 1.93 9.99
4/8/2021 2:00:00 AM 11.64 52.952 0.095 6.87 1.71 10.03
4/8/2021 2:15:00 AM 11.53 52.754 0.095 6.87 1.49 10.06
4/8/2021 2:30:00 AM 11.42 52.556 0.095 6.86 1.77 10.08
4/8/2021 2:45:00 AM 11.31 52.358 0.095 6.87 1.72 10.11
4/8/2021 3:00:00 AM 11.21 52.178 0.095 6.86 1.69 10.14
4/8/2021 3:15:00 AM 11.11 51.998 0.095 6.87 1.68 10.17
4/8/2021 3:30:00 AM 11.01 51.818 0.095 6.86 1.72 10.21
4/8/2021 3:45:00 AM 10.91 51.638 0.096 6.87 1.62 10.23
4/8/2021 4:00:00 AM 10.81 51.458 0.096 6.87 1.69 10.26
4/8/2021 4:15:00 AM 10.71 51.278 0.096 6.87 1.74 10.29
4/8/2021 4:30:00 AM 10.62 51.116 0.096 6.87 1.71 10.31
4/8/2021 4:45:00 AM 10.53 50.954 0.096 6.87 1.72 10.34
4/8/2021 5:00:00 AM 10.44 50.792 0.096 6.88 1.66 10.36
4/8/2021 5:15:00 AM 10.35 50.63 0.096 6.88 1.81 10.4
4/8/2021 5:30:00 AM 10.26 50.468 0.096 6.88 1.7 10.42
4/8/2021 5:45:00 AM 10.17 50.306 0.096 6.89 1.69 10.45
4/8/2021 6:00:00 AM 10.08 50.144 0.096 6.89 1.69 10.48
4/8/2021 6:15:00 AM 9.99 49.982 0.096 6.88 1.62 10.51
4/8/2021 6:30:00 AM 9.91 49.838 0.096 6.89 1.77 10.53
4/8/2021 6:45:00 AM 9.83 49.694 0.096 6.89 1.76 10.56
4/8/2021 7:00:00 AM 9.75 49.55 0.096 6.9 1.61 10.61
4/8/2021 7:15:00 AM 9.68 49.424 0.096 6.91 1.66 10.66
4/8/2021 7:30:00 AM 9.62 49.316 0.096 6.92 1.66 10.72
4/8/2021 7:45:00 AM 9.57 49.226 0.096 6.93 1.72 10.79
4/8/2021 8:00:00 AM 9.54 49.172 0.096 6.94 1.61 10.86
4/8/2021 8:15:00 AM 9.52 49.136 0.096 6.97 1.55 10.93
4/8/2021 8:30:00 AM 9.53 49.154 0.096 6.99 1.52 11
4/8/2021 8:45:00 AM 9.55 49.19 0.096 7.01 1.61 11.07
4/8/2021 9:00:00 AM 9.61 49.298 0.096 7.04 2.09 11.15
4/8/2021 9:15:00 AM 9.66 49.388 0.096 7.07 1.52 11.2
4/8/2021 9:30:00 AM 9.73 49.514 0.096 7.11 1.53 11.26
4/8/2021 9:45:00 AM 9.82 49.676 0.096 7.14 1.47 11.32
4/8/2021 10:00:00 AM 9.91 49.838 0.095 7.16 1.59 11.37
4/8/2021 10:15:00 AM 10.04 50.072 0.095 7.19 1.47 11.4
4/8/2021 10:30:00 AM 10.17 50.306 0.095 7.21 1.47 11.43
4/8/2021 10:45:00 AM 10.32 50.576 0.095 7.24 1.48 11.46
4/8/2021 11:00:00 AM 10.46 50.828 0.095 7.25 1.54 11.46
4/8/2021 11:15:00 AM 10.62 51.116 0.095 7.27 1.42 11.48
4/8/2021 11:30:00 AM 10.8 51.44 0.095 7.29 1.49 11.47
4/8/2021 11:45:00 AM 11 51.8 0.095 7.3 1.62 11.47
4/8/2021 12:00:00 PM 11.22 52.196 0.095 7.32 1.42 11.45
4/8/2021 12:15:00 PM 11.49 52.682 0.095 7.36 1.5 11.45
4/8/2021 12:30:00 PM 11.77 53.186 0.095 7.38 1.46 11.41
4/8/2021 12:45:00 PM 12.02 53.636 0.095 7.39 1.38 11.39
4/8/2021 1:00:00 PM 12.28 54.104 0.095 7.41 1.41 11.35
4/8/2021 1:15:00 PM 12.54 54.572 0.095 7.43 1.48 11.32
4/8/2021 1:30:00 PM 12.81 55.058 0.094 7.44 1.47 11.29
4/8/2021 1:45:00 PM 13.06 55.508 0.094 7.45 1.49 11.23
4/8/2021 2:00:00 PM 13.28 55.904 0.094 7.46 1.43 11.19
4/8/2021 2:15:00 PM 13.48 56.264 0.094 7.47 1.46 11.16
4/8/2021 2:30:00 PM 13.68 56.624 0.094 7.48 1.45 11.09
4/8/2021 2:45:00 PM 13.84 56.912 0.094 7.49 1.58 11.06
4/8/2021 3:00:00 PM 14 57.2 0.094 7.49 1.41 11
4/8/2021 3:15:00 PM 14.13 57.434 0.094 7.5 1.42 10.95
4/8/2021 3:30:00 PM 14.23 57.614 0.094 7.47 1.34 10.9
4/8/2021 3:45:00 PM 14.31 57.758 0.094 7.49 1.33 10.85
4/8/2021 4:00:00 PM 14.38 57.884 0.094 7.48 1.37 10.8
4/8/2021 4:15:00 PM 14.43 57.974 0.093 7.48 1.4 10.74
4/8/2021 4:30:00 PM 14.46 58.028 0.093 7.45 1.54 10.68
4/8/2021 4:45:00 PM 14.49 58.082 0.093 7.46 1.43 10.63
4/8/2021 5:00:00 PM 14.51 58.118 0.093 7.45 1.42 10.58
4/8/2021 5:15:00 PM 14.53 58.154 0.093 7.42 1.42 10.52
4/8/2021 5:30:00 PM 14.54 58.172 0.093 7.42 1.34 10.45
4/8/2021 5:45:00 PM 14.54 58.172 0.093 7.39 1.42 10.39
4/8/2021 6:00:00 PM 14.54 58.172 0.093 7.37 1.45 10.33
4/8/2021 6:15:00 PM 14.54 58.172 0.093 7.36 1.49 10.26
4/8/2021 6:30:00 PM 14.53 58.154 0.093 7.33 1.4 10.19
4/8/2021 6:45:00 PM 14.53 58.154 0.093 7.29 1.38 10.12
4/8/2021 7:00:00 PM 14.52 58.136 0.093 7.27 1.51 10.05
4/8/2021 7:15:00 PM 14.5 58.1 0.093 7.24 1.52 9.99
4/8/2021 7:30:00 PM 14.47 58.046 0.093 7.21 1.41 9.92
4/8/2021 7:45:00 PM 14.43 57.974 0.093 7.18 1.57 9.85
4/8/2021 8:00:00 PM 14.38 57.884 0.094 7.14 1.5 9.8
4/8/2021 8:15:00 PM 14.33 57.794 0.094 7.12 1.49 9.75
4/8/2021 8:30:00 PM 14.27 57.686 0.094 7.11 1.55 9.72
4/8/2021 8:45:00 PM 14.21 57.578 0.094 7.08 1.58 9.68
4/8/2021 9:00:00 PM 14.15 57.47 0.094 7.06 1.56 9.65
4/8/2021 9:15:00 PM 14.08 57.344 0.094 7.04 1.54 9.63
4/8/2021 9:30:00 PM 14 57.2 0.094 7.02 1.66 9.61
4/8/2021 9:45:00 PM 13.93 57.074 0.094 7.01 1.69 9.6
4/8/2021 10:00:00 PM 13.86 56.948 0.094 7.01 1.64 9.6
4/8/2021 10:15:00 PM 13.79 56.822 0.095 6.99 1.58 9.59
4/8/2021 10:30:00 PM 13.72 56.696 0.095 6.97 1.57 9.59
4/8/2021 10:45:00 PM 13.64 56.552 0.095 6.96 1.66 9.59
4/8/2021 11:00:00 PM 13.55 56.39 0.095 6.96 1.59 9.61
4/8/2021 11:15:00 PM 13.47 56.246 0.095 6.95 1.72 9.62
4/8/2021 11:30:00 PM 13.38 56.084 0.095 6.95 1.69 9.63
4/8/2021 11:45:00 PM 13.28 55.904 0.095 6.94 1.62 9.65
4/9/2021 12:00:00 AM 13.2 55.76 0.095 6.93 1.72 9.67
4/9/2021 12:15:00 AM 13.1 55.58 0.095 6.93 1.77 9.69
4/9/2021 12:30:00 AM 13.01 55.418 0.095 6.93 1.66 9.71
4/9/2021 12:45:00 AM 12.91 55.238 0.095 6.92 1.68 9.74
4/9/2021 1:00:00 AM 12.81 55.058 0.096 6.89 1.61 9.77
4/9/2021 1:15:00 AM 12.71 54.878 0.096 6.92 1.56 9.78
4/9/2021 1:30:00 AM 12.61 54.698 0.096 6.89 1.65 9.81
4/9/2021 1:45:00 AM 12.52 54.536 0.096 6.91 1.66 9.83
4/9/2021 2:00:00 AM 12.42 54.356 0.096 6.88 1.66 9.85
4/9/2021 2:15:00 AM 12.32 54.176 0.096 6.9 1.65 9.88
4/9/2021 2:30:00 AM 12.23 54.014 0.096 6.9 1.67 9.91
4/9/2021 2:45:00 AM 12.13 53.834 0.096 6.9 1.57 9.94
4/9/2021 3:00:00 AM 12.04 53.672 0.096 6.91 1.86 9.96
4/9/2021 3:15:00 AM 11.95 53.51 0.097 6.92 1.78 9.98
4/9/2021 3:30:00 AM 11.87 53.366 0.097 6.91 1.73 10.01
4/9/2021 3:45:00 AM 11.78 53.204 0.097 6.92 1.52 10.03
4/9/2021 4:00:00 AM 11.7 53.06 0.097 6.92 1.72 10.05
4/9/2021 4:15:00 AM 11.63 52.934 0.097 6.93 1.65 10.08
4/9/2021 4:30:00 AM 11.58 52.844 0.097 6.92 1.55 10.09
4/9/2021 4:45:00 AM 11.51 52.718 0.097 6.93 1.53 10.12
4/9/2021 5:00:00 AM 11.45 52.61 0.097 6.93 1.7 10.14
4/9/2021 5:15:00 AM 11.4 52.52 0.097 6.92 1.57 10.15
4/9/2021 5:30:00 AM 11.35 52.43 0.097 6.94 1.67 10.17
4/9/2021 5:45:00 AM 11.31 52.358 0.098 6.94 1.63 10.18
4/9/2021 6:00:00 AM 11.26 52.268 0.098 6.93 1.61 10.21
4/9/2021 6:15:00 AM 11.22 52.196 0.098 6.95 1.7 10.22
4/9/2021 6:30:00 AM 11.17 52.106 0.098 6.95 1.59 10.23
4/9/2021 6:45:00 AM 11.13 52.034 0.098 6.96 1.5 10.26
4/9/2021 7:00:00 AM 11.09 51.962 0.098 6.96 1.83 10.28
4/9/2021 7:15:00 AM 11.05 51.89 0.098 6.97 4.29 10.31
4/9/2021 7:30:00 AM 11.02 51.836 0.098 6.97 1.63 10.35
4/9/2021 7:45:00 AM 10.98 51.764 0.098 6.98 1.49 10.38
4/9/2021 8:00:00 AM 10.96 51.728 0.098 6.99 1.48 10.44
4/9/2021 8:15:00 AM 10.96 51.728 0.098 7.01 1.59 10.52
4/9/2021 8:30:00 AM 10.96 51.728 0.098 7.02 1.64 10.59
4/9/2021 8:45:00 AM 10.95 51.71 0.097 7.05 1.51 10.66
4/9/2021 9:00:00 AM 10.94 51.692 0.097 7.08 1.47 10.7
4/9/2021 9:15:00 AM 10.94 51.692 0.097 7.08 1.48 10.76
4/9/2021 9:30:00 AM 10.95 51.71 0.097 7.1 1.44 10.81
4/9/2021 9:45:00 AM 10.96 51.728 0.097 7.11 1.58 10.86
4/9/2021 10:00:00 AM 10.96 51.728 0.097 7.13 1.55 10.9
4/9/2021 10:15:00 AM 10.95 51.71 0.097 7.15 1.43 10.93
4/9/2021 10:30:00 AM 10.97 51.746 0.097 7.16 1.41 10.97
4/9/2021 10:45:00 AM 11 51.8 0.097 7.17 1.45 11
4/9/2021 11:00:00 AM 11 51.8 0.097 7.18 1.41 11.01
4/9/2021 11:15:00 AM 10.98 51.764 0.097 7.17 1.43 11.03
4/9/2021 11:30:00 AM 10.99 51.782 0.097 7.19 1.55 11.04
4/9/2021 11:45:00 AM 10.99 51.782 0.097 7.19 1.46 11.05
4/9/2021 12:00:00 PM 10.99 51.782 0.097 7.21 1.37 11.05
4/9/2021 12:15:00 PM 11 51.8 0.097 7.22 1.39 11.07
4/9/2021 12:30:00 PM 11.02 51.836 0.097 7.23 1.41 11.1
4/9/2021 12:45:00 PM 11.03 51.854 0.096 7.23 1.52 11.11
4/9/2021 1:00:00 PM 11.06 51.908 0.096 7.25 1.5 11.12
4/9/2021 1:15:00 PM 11.08 51.944 0.096 7.26 1.31 11.13
4/9/2021 1:30:00 PM 11.11 51.998 0.096 7.28 1.42 11.15
4/9/2021 1:45:00 PM 11.14 52.052 0.096 7.29 1.26 11.16
4/9/2021 2:00:00 PM 11.16 52.088 0.096 7.29 1.29 11.16
4/9/2021 2:15:00 PM 11.18 52.124 0.096 7.3 1.4 11.16
4/9/2021 2:30:00 PM 11.21 52.178 0.096 7.3 1.32 11.18
4/9/2021 2:45:00 PM 11.23 52.214 0.096 7.31 1.34 11.16
4/9/2021 3:00:00 PM 11.25 52.25 0.096 7.31 1.35 11.16
4/9/2021 3:15:00 PM 11.29 52.322 0.096 7.31 1.43 11.17
4/9/2021 3:30:00 PM 11.32 52.376 0.096 7.32 1.45 11.16
4/9/2021 3:45:00 PM 11.34 52.412 0.096 7.33 1.34 11.15
4/9/2021 4:00:00 PM 11.37 52.466 0.096 7.33 1.34 11.13
4/9/2021 4:15:00 PM 11.4 52.52 0.096 7.33 1.44 11.13
4/9/2021 4:30:00 PM 11.41 52.538 0.095 7.32 1.44 11.09
4/9/2021 4:45:00 PM 11.41 52.538 0.095 7.31 1.49 11.06
4/9/2021 5:00:00 PM 11.44 52.592 0.095 7.31 1.48 11.04
4/9/2021 5:15:00 PM 11.45 52.61 0.095 7.29 1.48 11.01
4/9/2021 5:30:00 PM 11.45 52.61 0.095 7.28 1.48 10.97
4/9/2021 5:45:00 PM 11.46 52.628 0.095 7.28 1.43 10.95
4/9/2021 6:00:00 PM 11.46 52.628 0.095 7.26 1.49 10.88
4/9/2021 6:15:00 PM 11.45 52.61 0.095 7.23 1.39 10.82
4/9/2021 6:30:00 PM 11.44 52.592 0.095 7.21 1.51 10.76
4/9/2021 6:45:00 PM 11.43 52.574 0.095 7.19 1.49 10.71
4/9/2021 7:00:00 PM 11.42 52.556 0.095 7.16 1.5 10.66
4/9/2021 7:15:00 PM 11.4 52.52 0.095 7.16 1.47 10.62
4/9/2021 7:30:00 PM 11.38 52.484 0.095 7.13 1.39 10.58
4/9/2021 7:45:00 PM 11.37 52.466 0.096 7.11 1.44 10.53
4/9/2021 8:00:00 PM 11.35 52.43 0.096 7.1 1.5 10.49
4/9/2021 8:15:00 PM 11.33 52.394 0.096 7.08 1.53 10.47
4/9/2021 8:30:00 PM 11.31 52.358 0.096 7.07 1.6 10.44
4/9/2021 8:45:00 PM 11.29 52.322 0.096 7.06 1.66 10.42
4/9/2021 9:00:00 PM 11.27 52.286 0.096 7.04 1.55 10.4
4/9/2021 9:15:00 PM 11.25 52.25 0.096 7.04 1.63 10.38
4/9/2021 9:30:00 PM 11.23 52.214 0.096 7.03 1.71 10.37
4/9/2021 9:45:00 PM 11.22 52.196 0.096 7.04 1.61 10.35
4/9/2021 10:00:00 PM 11.2 52.16 0.096 7.03 1.57 10.35
4/9/2021 10:15:00 PM 11.18 52.124 0.096 7.02 1.65 10.33
4/9/2021 10:30:00 PM 11.16 52.088 0.096 7.01 1.53 10.33
4/9/2021 10:45:00 PM 11.15 52.07 0.096 7.01 1.64 10.32
4/9/2021 11:00:00 PM 11.13 52.034 0.096 7.01 1.71 10.32
4/9/2021 11:15:00 PM 11.11 51.998 0.096 6.99 1.63 10.32
4/9/2021 11:30:00 PM 11.09 51.962 0.096 7.01 1.63 10.32
4/9/2021 11:45:00 PM 11.08 51.944 0.096 7 1.57 10.32
4/10/2021 12:00:00 AM 11.06 51.908 0.096 6.99 1.62 10.32
4/10/2021 12:15:00 AM 11.05 51.89 0.096 7 1.56 10.32
4/10/2021 12:30:00 AM 11.03 51.854 0.096 6.98 1.57 10.32
4/10/2021 12:45:00 AM 11.01 51.818 0.096 6.99 1.66 10.32
4/10/2021 1:00:00 AM 11 51.8 0.097 6.98 1.63 10.32
4/10/2021 1:15:00 AM 10.98 51.764 0.097 6.97 1.73 10.32
4/10/2021 1:30:00 AM 10.97 51.746 0.097 6.98 1.58 10.33
4/10/2021 1:45:00 AM 10.95 51.71 0.097 6.97 1.69 10.33
4/10/2021 2:00:00 AM 10.94 51.692 0.097 6.98 1.64 10.33
4/10/2021 2:15:00 AM 10.92 51.656 0.097 6.97 1.66 10.34
4/10/2021 2:30:00 AM 10.9 51.62 0.097 6.96 1.52 10.33
4/10/2021 2:45:00 AM 10.89 51.602 0.097 6.96 1.66 10.34
4/10/2021 3:00:00 AM 10.87 51.566 0.097 6.97 1.61 10.34
4/10/2021 3:15:00 AM 10.85 51.53 0.097 6.97 1.76 10.35
4/10/2021 3:30:00 AM 10.84 51.512 0.097 6.97 1.59 10.35
4/10/2021 3:45:00 AM 10.82 51.476 0.098 6.97 1.92 10.36
4/10/2021 4:00:00 AM 10.8 51.44 0.098 6.97 1.76 10.36
4/10/2021 4:15:00 AM 10.78 51.404 0.098 6.97 1.6 10.36
4/10/2021 4:30:00 AM 10.76 51.368 0.098 6.97 1.69 10.37
4/10/2021 4:45:00 AM 10.74 51.332 0.098 6.98 1.69 10.37
4/10/2021 5:00:00 AM 10.73 51.314 0.098 6.97 1.78 10.38
4/10/2021 5:15:00 AM 10.71 51.278 0.098 6.98 1.81 10.38
4/10/2021 5:30:00 AM 10.69 51.242 0.098 6.98 1.64 10.38
4/10/2021 5:45:00 AM 10.67 51.206 0.098 6.98 1.84 10.39
4/10/2021 6:00:00 AM 10.66 51.188 0.098 6.98 1.6 10.39
4/10/2021 6:15:00 AM 10.64 51.152 0.098 6.98 1.63 10.4
4/10/2021 6:30:00 AM 10.62 51.116 0.098 6.98 1.59 10.4
4/10/2021 6:45:00 AM 10.61 51.098 0.092 6.97 1.57 10.41
4/10/2021 7:00:00 AM 10.6 51.08 0.098 6.98 1.87 10.43
4/10/2021 7:15:00 AM 10.59 51.062 0.098 6.99 1.49 10.45
4/10/2021 7:30:00 AM 10.58 51.044 0.098 6.99 1.6 10.48
4/10/2021 7:45:00 AM 10.58 51.044 0.098 7 1.44 10.51
4/10/2021 8:00:00 AM 10.58 51.044 0.098 7 1.51 10.54
4/10/2021 8:15:00 AM 10.58 51.044 0.098 7.01 1.38 10.59
4/10/2021 8:30:00 AM 10.59 51.062 0.098 7.03 1.44 10.63
4/10/2021 8:45:00 AM 10.61 51.098 0.098 7.05 1.45 10.7
4/10/2021 9:00:00 AM 10.64 51.152 0.098 7.06 1.61 10.75
4/10/2021 9:15:00 AM 10.68 51.224 0.098 7.08 1.37 10.81
4/10/2021 9:30:00 AM 10.71 51.278 0.098 7.09 1.43 10.86
4/10/2021 9:45:00 AM 10.74 51.332 0.098 7.11 1.32 10.89
4/10/2021 10:00:00 AM 10.76 51.368 0.098 7.13 1.42 10.92
4/10/2021 10:15:00 AM 10.8 51.44 0.098 7.14 1.4 10.96
4/10/2021 10:30:00 AM 10.83 51.494 0.098 7.15 1.25 10.98
4/10/2021 10:45:00 AM 10.88 51.584 0.098 7.18 1.32 11.02
4/10/2021 11:00:00 AM 10.94 51.692 0.098 7.19 1.35 11.04
4/10/2021 11:15:00 AM 11.01 51.818 0.098 7.21 1.44 11.07
4/10/2021 11:30:00 AM 11.06 51.908 0.097 7.22 1.3 11.08
4/10/2021 11:45:00 AM 11.1 51.98 0.097 7.22 1.41 11.1
4/10/2021 12:00:00 PM 11.17 52.106 0.097 7.24 1.29 11.1
4/10/2021 12:15:00 PM 11.25 52.25 0.097 7.26 1.34 11.12
4/10/2021 12:30:00 PM 11.33 52.394 0.097 7.28 1.28 11.13
4/10/2021 12:45:00 PM 11.4 52.52 0.097 7.29 1.46 11.12
4/10/2021 1:00:00 PM 11.48 52.664 0.097 7.3 1.32 11.13
4/10/2021 1:15:00 PM 11.55 52.79 0.097 7.31 1.36 11.12
4/10/2021 1:30:00 PM 11.63 52.934 0.097 7.33 1.4 11.13
4/10/2021 1:45:00 PM 11.73 53.114 0.097 7.34 1.34 11.12
4/10/2021 2:00:00 PM 11.85 53.33 0.097 7.36 1.58 11.12
4/10/2021 2:15:00 PM 11.97 53.546 0.097 7.36 1.34 11.12
4/10/2021 2:30:00 PM 12.08 53.744 0.097 7.39 1.31 11.1
4/10/2021 2:45:00 PM 12.22 53.996 0.097 7.4 1.32 11.1
4/10/2021 3:00:00 PM 12.33 54.194 0.096 7.4 1.43 11.08
4/10/2021 3:15:00 PM 12.37 54.266 0.096 7.41 1.3 11.05
4/10/2021 3:30:00 PM 12.4 54.32 0.096 7.4 1.43 11.01
4/10/2021 3:45:00 PM 12.45 54.41 0.096 7.4 1.34 10.98
4/10/2021 4:00:00 PM 12.52 54.536 0.096 7.39 1.38 10.97
4/10/2021 4:15:00 PM 12.6 54.68 0.096 7.4 1.34 10.93
4/10/2021 4:30:00 PM 12.64 54.752 0.096 7.39 1.38 10.89
4/10/2021 4:45:00 PM 12.66 54.788 0.096 7.39 1.37 10.88
4/10/2021 5:00:00 PM 12.71 54.878 0.096 7.39 1.43 10.85
4/10/2021 5:15:00 PM 12.75 54.95 0.096 7.37 1.35 10.83
4/10/2021 5:30:00 PM 12.79 55.022 0.096 7.39 1.36 10.81
4/10/2021 5:45:00 PM 12.81 55.058 0.096 7.39 1.5 10.78
4/10/2021 6:00:00 PM 12.82 55.076 0.096 7.37 1.62 10.75
4/10/2021 6:15:00 PM 12.81 55.058 0.096 7.34 1.47 10.72
4/10/2021 6:30:00 PM 12.79 55.022 0.096 7.33 1.42 10.67
4/10/2021 6:45:00 PM 12.77 54.986 0.096 7.31 1.35 10.6
4/10/2021 7:00:00 PM 12.74 54.932 0.096 7.29 1.38 10.55
4/10/2021 7:15:00 PM 12.71 54.878 0.096 7.26 1.38 10.46
4/10/2021 7:30:00 PM 12.68 54.824 0.096 7.21 1.43 10.39
4/10/2021 7:45:00 PM 12.64 54.752 0.096 7.19 1.48 10.31
4/10/2021 8:00:00 PM 12.6 54.68 0.096 7.16 1.45 10.25
4/10/2021 8:15:00 PM 12.56 54.608 0.096 7.13 1.57 10.2
4/10/2021 8:30:00 PM 12.53 54.554 0.096 7.11 1.51 10.15
4/10/2021 8:45:00 PM 12.49 54.482 0.096 7.07 1.64 10.11
4/10/2021 9:00:00 PM 12.46 54.428 0.096 7.07 1.72 10.08
4/10/2021 9:15:00 PM 12.41 54.338 0.096 7.05 1.63 10.04
4/10/2021 9:30:00 PM 12.37 54.266 0.096 7.02 1.84 10.02
4/10/2021 9:45:00 PM 12.31 54.158 0.096 7.01 1.73 10
4/10/2021 10:00:00 PM 12.26 54.068 0.096 7 1.75 9.98
4/10/2021 10:15:00 PM 12.22 53.996 0.096 7 1.74 9.97
4/10/2021 10:30:00 PM 12.17 53.906 0.096 6.99 1.99 9.96
4/10/2021 10:45:00 PM 12.13 53.834 0.096 6.98 1.89 9.95
4/10/2021 11:00:00 PM 12.08 53.744 0.096 6.96 1.75 9.94
4/10/2021 11:15:00 PM 12.04 53.672 0.096 6.97 1.77 9.94
4/10/2021 11:30:00 PM 11.99 53.582 0.096 6.97 1.76 9.95
4/10/2021 11:45:00 PM 11.94 53.492 0.097 6.96 1.68 9.95
4/11/2021 12:00:00 AM 11.9 53.42 0.097 6.95 1.58 9.95
4/11/2021 12:15:00 AM 11.86 53.348 0.097 6.95 1.63 9.95
4/11/2021 12:30:00 AM 11.82 53.276 0.097 6.95 1.8 9.96
4/11/2021 12:45:00 AM 11.78 53.204 0.097 6.94 1.65 9.97
4/11/2021 1:00:00 AM 11.73 53.114 0.097 6.93 1.74 9.97
4/11/2021 1:15:00 AM 11.69 53.042 0.097 6.94 1.78 9.98
4/11/2021 1:30:00 AM 11.65 52.97 0.097 6.93 1.74 9.99
4/11/2021 1:45:00 AM 11.61 52.898 0.097 6.93 1.73 9.99
4/11/2021 2:00:00 AM 11.58 52.844 0.097 6.94 2.02 10.01
4/11/2021 2:15:00 AM 11.55 52.79 0.097 6.93 1.59 10
4/11/2021 2:30:00 AM 11.52 52.736 0.097 6.93 1.64 10.01
4/11/2021 2:45:00 AM 11.49 52.682 0.097 6.93 1.64 10.01
4/11/2021 3:00:00 AM 11.46 52.628 0.098 6.93 1.71 10.02
4/11/2021 3:15:00 AM 11.43 52.574 0.098 6.93 2.38 10.03
4/11/2021 3:30:00 AM 11.41 52.538 0.098 6.93 1.64 10.04
4/11/2021 3:45:00 AM 11.38 52.484 0.098 6.93 1.64 10.04
4/11/2021 4:00:00 AM 11.35 52.43 0.098 6.93 1.53 10.04
4/11/2021 4:15:00 AM 11.33 52.394 0.098 6.94 1.76 10.05
4/11/2021 4:30:00 AM 11.3 52.34 0.098 6.94 1.68 10.06
4/11/2021 4:45:00 AM 11.28 52.304 0.098 6.95 1.61 10.07
4/11/2021 5:00:00 AM 11.26 52.268 0.098 6.93 1.88 10.07
4/11/2021 5:15:00 AM 11.24 52.232 0.098 6.94 1.76 10.09
4/11/2021 5:30:00 AM 11.22 52.196 0.098 6.93 2.04 10.09
4/11/2021 5:45:00 AM 11.2 52.16 0.098 6.93 2.02 10.09
4/11/2021 6:00:00 AM 11.19 52.142 0.098 6.93 1.74 10.09
4/11/2021 6:15:00 AM 11.18 52.124 0.098 6.94 1.75 10.1
4/11/2021 6:30:00 AM 11.17 52.106 0.098 6.94 1.75 10.1
4/11/2021 6:45:00 AM 11.15 52.07 0.098 6.95 1.78 10.09
4/11/2021 7:00:00 AM 11.14 52.052 0.098 6.97 1.74 10.11
4/11/2021 7:15:00 AM 11.13 52.034 0.098 6.96 1.67 10.12
4/11/2021 7:30:00 AM 11.12 52.016 0.098 6.97 1.66 10.14
4/11/2021 7:45:00 AM 11.11 51.998 0.098 6.98 1.93 10.16
4/11/2021 8:00:00 AM 11.1 51.98 0.098 6.97 2.06 10.18
4/11/2021 8:15:00 AM 11.1 51.98 0.098 6.99 1.95 10.2
4/11/2021 8:30:00 AM 11.1 51.98 0.097 6.99 2.01 10.22
4/11/2021 8:45:00 AM 11.1 51.98 0.097 7 2.1 10.25
4/11/2021 9:00:00 AM 11.11 51.998 0.097 6.99 2.33 10.27
4/11/2021 9:15:00 AM 11.11 51.998 0.097 7.01 2.31 10.31
4/11/2021 9:30:00 AM 11.13 52.034 0.097 7.02 2.79 10.34
4/11/2021 9:45:00 AM 11.14 52.052 0.097 7.03 2.52 10.37
4/11/2021 10:00:00 AM 11.15 52.07 0.097 7.04 2.56 10.41
4/11/2021 10:15:00 AM 11.16 52.088 0.097 7.06 2.62 10.45
4/11/2021 10:30:00 AM 11.2 52.16 0.097 7.07 2.82 10.5
4/11/2021 10:45:00 AM 11.24 52.232 0.098 7.09 3.28 10.53
4/11/2021 11:00:00 AM 11.27 52.286 0.099 7.1 4 10.56
4/11/2021 11:15:00 AM 11.32 52.376 0.099 7.13 5.01 10.59
4/11/2021 11:30:00 AM 11.35 52.43 0.099 7.13 4.88 10.61
4/11/2021 11:45:00 AM 11.43 52.574 0.099 7.15 5.63 10.64
4/11/2021 12:00:00 PM 11.48 52.664 0.1 7.17 6.02 10.65
4/11/2021 12:15:00 PM 11.56 52.808 0.1 7.21 7.24 10.67
4/11/2021 12:30:00 PM 11.66 52.988 0.101 7.22 7.11 10.69
4/11/2021 12:45:00 PM 11.75 53.15 0.102 7.26 8.6 10.7
4/11/2021 1:00:00 PM 11.8 53.24 0.103 7.24 8.21 10.7
4/11/2021 1:15:00 PM 11.9 53.42 0.104 7.26 7.35 10.7
4/11/2021 1:30:00 PM 11.98 53.564 0.105 7.27 6.54 10.7
4/11/2021 1:45:00 PM 12.03 53.654 0.104 7.28 6.82 10.68
4/11/2021 2:00:00 PM 12.07 53.726 0.104 7.27 7 10.64
4/11/2021 2:15:00 PM 12.1 53.78 0.103 7.26 7.19 10.6
4/11/2021 2:30:00 PM 12.15 53.87 0.102 7.25 7.01 10.6
4/11/2021 2:45:00 PM 12.19 53.942 0.101 7.25 7.22 10.58
4/11/2021 3:00:00 PM 12.22 53.996 0.1 7.23 6.82 10.56
4/11/2021 3:15:00 PM 12.24 54.032 0.1 7.23 7.1 10.55
4/11/2021 3:30:00 PM 12.25 54.05 0.099 7.21 6.71 10.52
4/11/2021 3:45:00 PM 12.26 54.068 0.098 7.18 8.01 10.49
4/11/2021 4:00:00 PM 12.28 54.104 0.098 7.19 7.53 10.46
4/11/2021 4:15:00 PM 12.32 54.176 0.097 7.19 7.81 10.44
4/11/2021 4:30:00 PM 12.35 54.23 0.097 7.2 8.35 10.43
4/11/2021 4:45:00 PM 12.38 54.284 0.096 7.21 7.81 10.42
4/11/2021 5:00:00 PM 12.39 54.302 0.096 7.18 5.89 10.39
4/11/2021 5:15:00 PM 12.41 54.338 0.096 7.18 5.95 10.38
4/11/2021 5:30:00 PM 12.42 54.356 0.095 7.16 6.23 10.35
4/11/2021 5:45:00 PM 12.43 54.374 0.095 7.17 6.03 10.32
4/11/2021 6:00:00 PM 12.43 54.374 0.095 7.15 6.2 10.3
4/11/2021 6:15:00 PM 12.41 54.338 0.095 7.13 6.23 10.26
4/11/2021 6:30:00 PM 12.4 54.32 0.095 7.1 6.73 10.22
4/11/2021 6:45:00 PM 12.38 54.284 0.096 7.11 6.73 10.18
4/11/2021 7:00:00 PM 12.37 54.266 0.096 7.08 6.85 10.15
4/11/2021 7:15:00 PM 12.34 54.212 0.096 7.08 10.4 10.12
4/11/2021 7:30:00 PM 12.32 54.176 0.096 7.05 7.57 10.1
4/11/2021 7:45:00 PM 12.3 54.14 0.097 7.05 8.98 10.07
4/11/2021 8:00:00 PM 12.28 54.104 0.097 7.03 9.33 10.05
4/11/2021 8:15:00 PM 12.26 54.068 0.097 7.03 9.76 10.03
4/11/2021 8:30:00 PM 12.23 54.014 0.096 7 12.28 10.02
4/11/2021 8:45:00 PM 12.19 53.942 0.096 6.98 11.97 10.01
4/11/2021 9:00:00 PM 12.16 53.888 0.096 6.96 12.5 10
4/11/2021 9:15:00 PM 12.12 53.816 0.095 6.94 12.09 10
4/11/2021 9:30:00 PM 12.1 53.78 0.095 6.95 13.34 10
4/11/2021 9:45:00 PM 12.07 53.726 0.095 6.94 13.92 10
4/11/2021 10:00:00 PM 12.04 53.672 0.095 6.96 10.33 10.01
4/11/2021 10:15:00 PM 12.02 53.636 0.095 6.95 11.44 10.01
4/11/2021 10:30:00 PM 11.99 53.582 0.095 6.93 14.23 10.02
4/11/2021 10:45:00 PM 11.95 53.51 0.094 6.95 12.94 10.03
4/11/2021 11:00:00 PM 11.92 53.456 0.094 6.95 13.47 10.03
4/11/2021 11:15:00 PM 11.89 53.402 0.094 6.96 10.19 10.04
4/11/2021 11:30:00 PM 11.85 53.33 0.093 6.92 12.59 10.05
4/11/2021 11:45:00 PM 11.82 53.276 0.093 6.95 13.07 10.06
4/12/2021 12:00:00 AM 11.79 53.222 0.092 6.92 12.08 10.08
4/12/2021 12:15:00 AM 11.76 53.168 0.092 6.91 14.13 10.1
4/12/2021 12:30:00 AM 11.72 53.096 0.091 6.92 13.5 10.11
4/12/2021 12:45:00 AM 11.69 53.042 0.091 6.92 13.98 10.13
4/12/2021 1:00:00 AM 11.65 52.97 0.09 6.93 13.59 10.13
4/12/2021 1:15:00 AM 11.62 52.916 0.09 6.92 14.07 10.15
4/12/2021 1:30:00 AM 11.58 52.844 0.09 6.9 14.13 10.16
4/12/2021 1:45:00 AM 11.53 52.754 0.09 6.89 13.33 10.17
4/12/2021 2:00:00 AM 11.49 52.682 0.091 6.94 14.4 10.18
4/12/2021 2:15:00 AM 11.44 52.592 0.091 6.9 12.57 10.19
4/12/2021 2:30:00 AM 11.4 52.52 0.091 6.88 23.78 10.2
4/12/2021 2:45:00 AM 11.35 52.43 0.093 6.9 28.06 10.21
4/12/2021 3:00:00 AM 11.3 52.34 0.094 6.92 30.68 10.22
4/12/2021 3:15:00 AM 11.25 52.25 0.096 6.91 29.73 10.23
4/12/2021 3:30:00 AM 11.2 52.16 0.097 6.94 29.36 10.23
4/12/2021 3:45:00 AM 11.16 52.088 0.098 6.96 36.39 10.25
4/12/2021 4:00:00 AM 11.12 52.016 0.099 6.97 35.88 10.26
4/12/2021 4:15:00 AM 11.07 51.926 0.098 6.95 50.2 10.27
4/12/2021 4:30:00 AM 11.03 51.854 0.097 6.96 39.93 10.29
4/12/2021 4:45:00 AM 10.99 51.782 0.097 6.95 35.35 10.3
4/12/2021 5:00:00 AM 10.94 51.692 0.097 6.94 26.09 10.31
4/12/2021 5:15:00 AM 10.9 51.62 0.096 6.96 36.37 10.32
4/12/2021 5:30:00 AM 10.87 51.566 0.095 6.92 19.31 10.33
4/12/2021 5:45:00 AM 10.83 51.494 0.094 6.92 22.98 10.34
4/12/2021 6:00:00 AM 10.8 51.44 0.093 6.92 30.81 10.36
4/12/2021 6:15:00 AM 10.76 51.368 0.092 6.91 21.79 10.37
4/12/2021 6:30:00 AM 10.72 51.296 0.091 6.93 24.56 10.39
4/12/2021 6:45:00 AM 10.69 51.242 0.09 6.88 14.8 10.4
4/12/2021 7:00:00 AM 10.65 51.17 0.09 6.86 18.25 10.42
4/12/2021 7:15:00 AM 10.61 51.098 0.089 6.9 18.98 10.43
4/12/2021 7:30:00 AM 10.57 51.026 0.089 6.88 18.07 10.45
4/12/2021 7:45:00 AM 10.54 50.972 0.089 6.9 19.71 10.47
4/12/2021 8:00:00 AM 10.52 50.936 0.089 6.92 18.42 10.49
4/12/2021 8:15:00 AM 10.5 50.9 0.09 6.89 14.32 10.52
4/12/2021 8:30:00 AM 10.49 50.882 0.09 6.88 19 10.55
4/12/2021 8:45:00 AM 10.48 50.864 0.09 6.91 21.39 10.58
4/12/2021 9:00:00 AM 10.47 50.846 0.09 6.95 15.73 10.59
4/12/2021 9:15:00 AM 10.45 50.81 0.09 6.91 15.43 10.61
4/12/2021 9:30:00 AM 10.43 50.774 0.09 6.95 12.74 10.61
4/12/2021 9:45:00 AM 10.42 50.756 0.09 6.94 15.12 10.63
4/12/2021 10:00:00 AM 10.4 50.72 0.09 6.95 14.03 10.64
4/12/2021 10:15:00 AM 10.38 50.684 0.09 6.96 14.79 10.65
4/12/2021 10:30:00 AM 10.37 50.666 0.09 6.95 13.35 10.67
4/12/2021 10:45:00 AM 10.36 50.648 0.09 6.95 13.18 10.7
4/12/2021 11:00:00 AM 10.36 50.648 0.09 6.93 12.22 10.72
4/12/2021 11:15:00 AM 10.35 50.63 0.09 6.96 11.43 10.75
4/12/2021 11:30:00 AM 10.34 50.612 0.09 6.99 11.53 10.76
4/12/2021 11:45:00 AM 10.32 50.576 0.09 6.97 10.41 10.78
4/12/2021 12:00:00 PM 10.31 50.558 0.089 6.95 10.32 10.78
4/12/2021 12:15:00 PM 10.29 50.522 0.089 6.99 9.55 10.8
4/12/2021 12:30:00 PM 10.27 50.486 0.089 6.99 8.69 10.82
4/12/2021 12:45:00 PM 10.26 50.468 0.089 7 9.46 10.84
4/12/2021 1:00:00 PM 10.25 50.45 0.089 7.01 8.37 10.87
4/12/2021 1:15:00 PM 10.25 50.45 0.089 6.98 7.89 10.9
4/12/2021 1:30:00 PM 10.26 50.468 0.089 7 7.55 10.92
4/12/2021 1:45:00 PM 10.26 50.468 0.089 7.02 7.53 10.94
4/12/2021 2:00:00 PM 10.27 50.486 0.089 7.04 7.6 10.95
4/12/2021 2:15:00 PM 10.27 50.486 0.089 7.05 7.4 10.97
4/12/2021 2:30:00 PM 10.31 50.558 0.089 7.04 6.88 10.99
4/12/2021 2:45:00 PM 10.33 50.594 0.089 7.03 6.49 11.01
4/12/2021 3:00:00 PM 10.34 50.612 0.089 7.04 6.29 11.02
4/12/2021 3:15:00 PM 10.38 50.684 0.089 7.05 6.5 11.02
4/12/2021 3:30:00 PM 10.38 50.684 0.089 7.05 5.94 11
4/12/2021 3:45:00 PM 10.38 50.684 0.089 7.06 5.58 11
4/12/2021 4:00:00 PM 10.39 50.702 0.089 7.07 5.96 10.99
4/12/2021 4:15:00 PM 10.39 50.702 0.089 7.05 5.53 10.97
4/12/2021 4:30:00 PM 10.4 50.72 0.089 7.06 5.66 10.98
4/12/2021 4:45:00 PM 10.4 50.72 0.089 7.04 5.85 10.98
4/12/2021 5:00:00 PM 10.4 50.72 0.089 7.03 5.7 10.97
4/12/2021 5:15:00 PM 10.4 50.72 0.089 7.04 5.26 10.98
4/12/2021 5:30:00 PM 10.4 50.72 0.089 7.05 5.98 10.97
4/12/2021 5:45:00 PM 10.4 50.72 0.089 7.05 5.28 10.97
4/12/2021 6:00:00 PM 10.38 50.684 0.089 7.05 4.88 10.95
4/12/2021 6:15:00 PM 10.38 50.684 0.089 7.04 5.22 10.93
4/12/2021 6:30:00 PM 10.36 50.648 0.089 7.01 5.14 10.91
4/12/2021 6:45:00 PM 10.33 50.594 0.089 7 4.96 10.89
4/12/2021 7:00:00 PM 10.3 50.54 0.089 6.98 5.37 10.86
4/12/2021 7:15:00 PM 10.26 50.468 0.089 6.96 5.1 10.83
4/12/2021 7:30:00 PM 10.23 50.414 0.089 6.96 5.09 10.81
4/12/2021 7:45:00 PM 10.19 50.342 0.088 6.98 5.38 10.78
4/12/2021 8:00:00 PM 10.15 50.27 0.089 6.96 6.72 10.77
4/12/2021 8:15:00 PM 10.12 50.216 0.089 6.97 6.37 10.76
4/12/2021 8:30:00 PM 10.09 50.162 0.089 6.93 6.33 10.75
4/12/2021 8:45:00 PM 10.06 50.108 0.089 6.91 5.62 10.75
4/12/2021 9:00:00 PM 10.02 50.036 0.089 6.9 5.4 10.74
4/12/2021 9:15:00 PM 9.99 49.982 0.089 6.9 5.41 10.74
4/12/2021 9:30:00 PM 9.96 49.928 0.089 6.91 6.04 10.74
4/12/2021 9:45:00 PM 9.93 49.874 0.089 6.89 5.92 10.74
4/12/2021 10:00:00 PM 9.9 49.82 0.089 6.9 5.53 10.74
4/12/2021 10:15:00 PM 9.87 49.766 0.089 6.91 5.46 10.75
4/12/2021 10:30:00 PM 9.83 49.694 0.089 6.88 5.99 10.76
4/12/2021 10:45:00 PM 9.8 49.64 0.089 6.88 5.37 10.76
4/12/2021 11:00:00 PM 9.77 49.586 0.089 6.92 5.51 10.77
4/12/2021 11:15:00 PM 9.74 49.532 0.089 6.89 5.35 10.78
4/12/2021 11:30:00 PM 9.71 49.478 0.089 6.9 4.8 10.79
4/12/2021 11:45:00 PM 9.68 49.424 0.089 6.87 6.01 10.8
4/13/2021 12:00:00 AM 9.65 49.37 0.089 6.89 5.44 10.81
4/13/2021 12:15:00 AM 9.62 49.316 0.089 6.9 5.24 10.81
4/13/2021 12:30:00 AM 9.59 49.262 0.089 6.85 5.66 10.82
4/13/2021 12:45:00 AM 9.56 49.208 0.089 6.85 5.18 10.83
4/13/2021 1:00:00 AM 9.53 49.154 0.088 6.86 5.08 10.84
4/13/2021 1:15:00 AM 9.51 49.118 0.089 6.89 5.18 10.85
4/13/2021 1:30:00 AM 9.48 49.064 0.088 6.9 5.16 10.85
4/13/2021 1:45:00 AM 9.46 49.028 0.088 6.87 4.89 10.86
4/13/2021 2:00:00 AM 9.43 48.974 0.088 6.89 4.6 10.87
4/13/2021 2:15:00 AM 9.41 48.938 0.088 6.87 4.88 10.88
4/13/2021 2:30:00 AM 9.39 48.902 0.088 6.88 4.84 10.89
4/13/2021 2:45:00 AM 9.36 48.848 0.088 6.87 5.17 10.89
4/13/2021 3:00:00 AM 9.34 48.812 0.088 6.88 4.82 10.9
4/13/2021 3:15:00 AM 9.32 48.776 0.088 6.88 4.85 10.91
4/13/2021 3:30:00 AM 9.29 48.722 0.088 6.91 5.05 10.92
4/13/2021 3:45:00 AM 9.27 48.686 0.088 6.88 5 10.92
4/13/2021 4:00:00 AM 9.25 48.65 0.088 6.87 5.09 10.93
4/13/2021 4:15:00 AM 9.23 48.614 0.088 6.88 4.49 10.94
4/13/2021 4:30:00 AM 9.21 48.578 0.088 6.87 4.83 10.94
4/13/2021 4:45:00 AM 9.19 48.542 0.088 6.89 4.37 10.95
4/13/2021 5:00:00 AM 9.17 48.506 0.088 6.88 4.93 10.96
4/13/2021 5:15:00 AM 9.15 48.47 0.088 6.87 4.53 10.97
4/13/2021 5:30:00 AM 9.13 48.434 0.088 6.89 4.55 10.98
4/13/2021 5:45:00 AM 9.12 48.416 0.088 6.89 4.43 10.98
4/13/2021 6:00:00 AM 9.1 48.38 0.088 6.88 4.77 10.98
4/13/2021 6:15:00 AM 9.08 48.344 0.087 6.87 4.62 10.99
4/13/2021 6:30:00 AM 9.07 48.326 0.088 6.87 5.04 10.99
4/13/2021 6:45:00 AM 9.05 48.29 0.087 6.86 4.28 11
4/13/2021 7:00:00 AM 9.04 48.272 0.087 6.87 4.52 11.02
4/13/2021 7:15:00 AM 9.02 48.236 0.087 6.87 4.23 11.04
4/13/2021 7:30:00 AM 9.02 48.236 0.087 6.88 4.17 11.07
4/13/2021 7:45:00 AM 9.01 48.218 0.087 6.88 4.15 11.09
4/13/2021 8:00:00 AM 9.01 48.218 0.087 6.9 4.08 11.12
4/13/2021 8:15:00 AM 9.01 48.218 0.087 6.92 3.99 11.14
4/13/2021 8:30:00 AM 9.02 48.236 0.087 6.93 3.78 11.17
4/13/2021 8:45:00 AM 9.03 48.254 0.087 6.94 3.83 11.2
4/13/2021 9:00:00 AM 9.04 48.272 0.087 6.94 3.42 11.23
4/13/2021 9:15:00 AM 9.06 48.308 0.087 6.95 3.64 11.26
4/13/2021 9:30:00 AM 9.08 48.344 0.087 6.97 3.34 11.29
4/13/2021 9:45:00 AM 9.14 48.452 0.087 6.99 3.11 11.33
4/13/2021 10:00:00 AM 9.19 48.542 0.086 7 3.26 11.36
4/13/2021 10:15:00 AM 9.26 48.668 0.086 7.01 3.2 11.39
4/13/2021 10:30:00 AM 9.35 48.83 0.086 7.03 3.26 11.41
4/13/2021 10:45:00 AM 9.55 49.19 0.086 7.06 3.48 11.42
4/13/2021 11:00:00 AM 9.63 49.334 0.086 7.05 3.22 11.43
4/13/2021 11:15:00 AM 9.72 49.496 0.086 7.06 3.07 11.43
4/13/2021 11:30:00 AM 9.79 49.622 0.086 7.09 3.12 11.42
4/13/2021 11:45:00 AM 9.93 49.874 0.086 7.11 3.03 11.41
4/13/2021 12:00:00 PM 10.1 50.18 0.086 7.12 3.35 11.4
4/13/2021 12:15:00 PM 10.23 50.414 0.086 7.13 3.01 11.38
4/13/2021 12:30:00 PM 10.36 50.648 0.086 7.13 3.16 11.36
4/13/2021 12:45:00 PM 10.42 50.756 0.085 7.12 3.07 11.33
4/13/2021 1:00:00 PM 10.54 50.972 0.085 7.11 3.16 11.31
4/13/2021 1:15:00 PM 10.75 51.35 0.085 7.15 2.98 11.3
4/13/2021 1:30:00 PM 10.95 51.71 0.085 7.16 3.21 11.27
4/13/2021 1:45:00 PM 11.2 52.16 0.085 7.15 3.18 11.24
4/13/2021 2:00:00 PM 11.21 52.178 0.085 7.14 3.28 11.19
4/13/2021 2:15:00 PM 11.38 52.484 0.085 7.16 2.95 11.16
4/13/2021 2:30:00 PM 11.59 52.862 0.085 7.18 3.3 11.12
4/13/2021 2:45:00 PM 11.67 53.006 0.085 7.18 3.57 11.08
4/13/2021 3:00:00 PM 11.74 53.132 0.085 7.16 3.12 11.03
4/13/2021 3:15:00 PM 11.94 53.492 0.085 7.17 3.27 11.01
4/13/2021 3:30:00 PM 12.09 53.762 0.085 7.18 3.11 10.97
4/13/2021 3:45:00 PM 12.26 54.068 0.085 7.19 3.41 10.94
4/13/2021 4:00:00 PM 12.28 54.104 0.085 7.19 3.07 10.9
4/13/2021 4:15:00 PM 12.35 54.23 0.084 7.17 3.03 10.88
4/13/2021 4:30:00 PM 12.32 54.176 0.084 7.15 3.39 10.85
4/13/2021 4:45:00 PM 12.35 54.23 0.084 7.13 3.4 10.82
4/13/2021 5:00:00 PM 12.38 54.284 0.084 7.15 3.21 10.78
4/13/2021 5:15:00 PM 12.46 54.428 0.084 7.16 3.15 10.76
4/13/2021 5:30:00 PM 12.5 54.5 0.084 7.14 3.48 10.72
4/13/2021 5:45:00 PM 12.51 54.518 0.084 7.13 3.37 10.65
4/13/2021 6:00:00 PM 12.52 54.536 0.084 7.1 4.12 10.62
4/13/2021 6:15:00 PM 12.48 54.464 0.084 7.07 3.03 10.59
4/13/2021 6:30:00 PM 12.44 54.392 0.085 7.07 3.43 10.57
4/13/2021 6:45:00 PM 12.35 54.23 0.085 7.06 3.26 10.55
4/13/2021 7:00:00 PM 12.28 54.104 0.085 7.02 4.09 10.52
4/13/2021 7:15:00 PM 12.22 53.996 0.085 7 3.64 10.49
4/13/2021 7:30:00 PM 12.17 53.906 0.085 7 3.5 10.46
4/13/2021 7:45:00 PM 12.11 53.798 0.085 6.97 3.67 10.43
4/13/2021 8:00:00 PM 12.04 53.672 0.085 6.95 3.78 10.4
4/13/2021 8:15:00 PM 11.97 53.546 0.085 6.94 3.96 10.38
4/13/2021 8:30:00 PM 11.89 53.402 0.085 6.91 3.91 10.36
4/13/2021 8:45:00 PM 11.81 53.258 0.085 6.91 3.95 10.35
4/13/2021 9:00:00 PM 11.72 53.096 0.085 6.88 3.96 10.35
4/13/2021 9:15:00 PM 11.62 52.916 0.085 6.87 4.12 10.35
4/13/2021 9:30:00 PM 11.53 52.754 0.085 6.86 4.03 10.36
4/13/2021 9:45:00 PM 11.43 52.574 0.086 6.84 4.05 10.37
4/13/2021 10:00:00 PM 11.34 52.412 0.086 6.82 4.08 10.39
4/13/2021 10:15:00 PM 11.25 52.25 0.086 6.82 3.9 10.4
4/13/2021 10:30:00 PM 11.16 52.088 0.086 6.82 3.88 10.42
4/13/2021 10:45:00 PM 11.07 51.926 0.086 6.83 4 10.44
4/13/2021 11:00:00 PM 10.99 51.782 0.086 6.77 4.1 10.45
4/13/2021 11:15:00 PM 10.91 51.638 0.086 6.8 4.08 10.47
4/13/2021 11:30:00 PM 10.82 51.476 0.086 6.81 3.87 10.49
4/13/2021 11:45:00 PM 10.74 51.332 0.086 6.83 3.98 10.5
4/14/2021 12:00:00 AM 10.66 51.188 0.086 6.82 4.06 10.53
4/14/2021 12:15:00 AM 10.58 51.044 0.086 6.81 4.29 10.54
4/14/2021 12:30:00 AM 10.5 50.9 0.086 6.83 3.86 10.57
4/14/2021 12:45:00 AM 10.42 50.756 0.086 6.85 3.86 10.59
4/14/2021 1:00:00 AM 10.36 50.648 0.086 6.83 4.17 10.61
4/14/2021 1:15:00 AM 10.29 50.522 0.086 6.82 4.16 10.63
4/14/2021 1:30:00 AM 10.23 50.414 0.086 6.81 4.49 10.64
4/14/2021 1:45:00 AM 10.17 50.306 0.086 6.84 3.62 10.66
4/14/2021 2:00:00 AM 10.12 50.216 0.086 6.82 3.72 10.68
4/14/2021 2:15:00 AM 10.06 50.108 0.086 6.82 3.6 10.69
4/14/2021 2:30:00 AM 10 50 0.086 6.83 4.1 10.7
4/14/2021 2:45:00 AM 9.93 49.874 0.086 6.82 3.71 10.73
4/14/2021 3:00:00 AM 9.87 49.766 0.086 6.83 4.36 10.75
4/14/2021 3:15:00 AM 9.79 49.622 0.086 6.83 3.72 10.76
4/14/2021 3:30:00 AM 9.73 49.514 0.086 6.85 4.7 10.78
4/14/2021 3:45:00 AM 9.66 49.388 0.086 6.82 3.69 10.8
4/14/2021 4:00:00 AM 9.59 49.262 0.086 6.81 3.67 10.82
4/14/2021 4:15:00 AM 9.53 49.154 0.086 6.83 3.26 10.83
4/14/2021 4:30:00 AM 9.46 49.028 0.086 6.85 3.51 10.85
4/14/2021 4:45:00 AM 9.39 48.902 0.086 6.83 3.87 10.86
4/14/2021 5:00:00 AM 9.33 48.794 0.087 6.83 3.57 10.89
4/14/2021 5:15:00 AM 9.26 48.668 0.087 6.83 3.24 10.9
4/14/2021 5:30:00 AM 9.21 48.578 0.087 6.84 3.17 10.92
4/14/2021 5:45:00 AM 9.15 48.47 0.087 6.83 3.3 10.93
4/14/2021 6:00:00 AM 9.1 48.38 0.087 6.84 3.62 10.95
4/14/2021 6:15:00 AM 9.05 48.29 0.087 6.84 3.17 10.97
4/14/2021 6:30:00 AM 9 48.2 0.087 6.84 3.29 10.99
4/14/2021 6:45:00 AM 8.94 48.092 0.087 6.82 3.37 11.01
4/14/2021 7:00:00 AM 8.9 48.02 0.087 6.85 3.36 11.04
4/14/2021 7:15:00 AM 8.87 47.966 0.087 6.85 3.14 11.08
4/14/2021 7:30:00 AM 8.85 47.93 0.087 6.86 3.08 11.11
4/14/2021 7:45:00 AM 8.83 47.894 0.087 6.87 3.22 11.17
4/14/2021 8:00:00 AM 8.84 47.912 0.087 6.88 3.05 11.22
4/14/2021 8:15:00 AM 8.84 47.912 0.086 6.91 2.82 11.27
4/14/2021 8:30:00 AM 8.85 47.93 0.086 6.91 2.72 11.32
4/14/2021 8:45:00 AM 8.88 47.984 0.086 6.93 2.81 11.37
4/14/2021 9:00:00 AM 8.92 48.056 0.086 6.97 2.59 11.4
4/14/2021 9:15:00 AM 9 48.2 0.086 6.98 2.83 11.44
4/14/2021 9:30:00 AM 9.07 48.326 0.086 6.99 2.75 11.47
4/14/2021 9:45:00 AM 9.18 48.524 0.086 7.02 2.83 11.49
4/14/2021 10:00:00 AM 9.26 48.668 0.086 7.04 2.72 11.5
4/14/2021 10:15:00 AM 9.35 48.83 0.086 7.07 2.66 11.51
4/14/2021 10:30:00 AM 9.44 48.992 0.086 7.07 2.39 11.52
4/14/2021 10:45:00 AM 9.53 49.154 0.086 7.09 2.53 11.51
4/14/2021 11:00:00 AM 9.63 49.334 0.086 7.09 2.47 11.51
4/14/2021 11:15:00 AM 9.75 49.55 0.086 7.11 2.49 11.51
4/14/2021 11:30:00 AM 9.9 49.82 0.086 7.13 2.51 11.5
4/14/2021 11:45:00 AM 10.02 50.036 0.086 7.13 2.62 11.49
4/14/2021 12:00:00 PM 10.18 50.324 0.085 7.14 2.63 11.46
4/14/2021 12:15:00 PM 10.35 50.63 0.085 7.17 2.28 11.45
4/14/2021 12:30:00 PM 10.62 51.116 0.085 7.19 2.5 11.41
4/14/2021 12:45:00 PM 10.79 51.422 0.085 7.18 2.69 11.38
4/14/2021 1:00:00 PM 11.02 51.836 0.085 7.2 2.52 11.35
4/14/2021 1:15:00 PM 11.24 52.232 0.085 7.21 2.37 11.31
4/14/2021 1:30:00 PM 11.39 52.502 0.085 7.21 2.27 11.27
4/14/2021 1:45:00 PM 11.51 52.718 0.085 7.21 2.39 11.23
4/14/2021 2:00:00 PM 11.61 52.898 0.085 7.22 2.38 11.19
4/14/2021 2:15:00 PM 11.69 53.042 0.085 7.19 2.38 11.15
4/14/2021 2:30:00 PM 11.92 53.456 0.085 7.23 2.4 11.11
4/14/2021 2:45:00 PM 12.08 53.744 0.085 7.25 2.43 11.07
4/14/2021 3:00:00 PM 12.13 53.834 0.085 7.24 2.54 11.02
4/14/2021 3:15:00 PM 12.17 53.906 0.085 7.21 2.8 10.98
4/14/2021 3:30:00 PM 12.29 54.122 0.084 7.22 2.61 10.93
4/14/2021 3:45:00 PM 12.35 54.23 0.084 7.22 2.35 10.89
4/14/2021 4:00:00 PM 12.42 54.356 0.084 7.22 2.29 10.83
4/14/2021 4:15:00 PM 12.45 54.41 0.084 7.19 2.32 10.79
4/14/2021 4:30:00 PM 12.51 54.518 0.084 7.2 2.27 10.75
4/14/2021 4:45:00 PM 12.54 54.572 0.084 7.18 2.71 10.73
4/14/2021 5:00:00 PM 12.63 54.734 0.084 7.19 2.65 10.7
4/14/2021 5:15:00 PM 12.67 54.806 0.084 7.18 2.61 10.69
4/14/2021 5:30:00 PM 12.62 54.716 0.084 7.17 2.39 10.63
4/14/2021 5:45:00 PM 12.6 54.68 0.085 7.15 2.45 10.59
4/14/2021 6:00:00 PM 12.6 54.68 0.084 7.12 2.64 10.54
4/14/2021 6:15:00 PM 12.64 54.752 0.085 7.12 2.49 10.54
4/14/2021 6:30:00 PM 12.62 54.716 0.085 7.09 2.54 10.49
4/14/2021 6:45:00 PM 12.61 54.698 0.085 7.07 2.7 10.45
4/14/2021 7:00:00 PM 12.58 54.644 0.085 7.05 2.56 10.42
4/14/2021 7:15:00 PM 12.56 54.608 0.085 7.05 2.67 10.39
4/14/2021 7:30:00 PM 12.53 54.554 0.085 7.02 2.83 10.34
4/14/2021 7:45:00 PM 12.49 54.482 0.085 7.01 2.78 10.3
4/14/2021 8:00:00 PM 12.45 54.41 0.085 6.96 2.83 10.26
4/14/2021 8:15:00 PM 12.41 54.338 0.085 6.97 3.19 10.23
4/14/2021 8:30:00 PM 12.36 54.248 0.085 6.93 2.77 10.2
4/14/2021 8:45:00 PM 12.31 54.158 0.085 6.93 2.85 10.17
4/14/2021 9:00:00 PM 12.25 54.05 0.085 6.92 3.29 10.16
4/14/2021 9:15:00 PM 12.18 53.924 0.085 6.89 3.11 10.15
4/14/2021 9:30:00 PM 12.11 53.798 0.085 6.89 3.39 10.15
4/14/2021 9:45:00 PM 12.03 53.654 0.086 6.89 3.42 10.15
4/14/2021 10:00:00 PM 11.96 53.528 0.086 6.88 3.12 10.15
4/14/2021 10:15:00 PM 11.88 53.384 0.086 6.89 2.97 10.16
4/14/2021 10:30:00 PM 11.81 53.258 0.086 6.88 3.42 10.17
4/14/2021 10:45:00 PM 11.73 53.114 0.086 6.84 3.26 10.18
4/14/2021 11:00:00 PM 11.65 52.97 0.086 6.84 3.4 10.19
4/14/2021 11:15:00 PM 11.57 52.826 0.086 6.84 3.3 10.21
4/14/2021 11:30:00 PM 11.48 52.664 0.086 6.85 3.17 10.22
4/14/2021 11:45:00 PM 11.4 52.52 0.086 6.8 3.27 10.24
4/15/2021 12:00:00 AM 11.31 52.358 0.086 6.83 3.42 10.25
4/15/2021 12:15:00 AM 11.23 52.214 0.087 6.84 3.17 10.26
4/15/2021 12:30:00 AM 11.15 52.07 0.087 6.82 3.27 10.29
4/15/2021 12:45:00 AM 11.07 51.926 0.087 6.83 3.18 10.31
4/15/2021 1:00:00 AM 10.99 51.782 0.087 6.81 3.16 10.33
4/15/2021 1:15:00 AM 10.91 51.638 0.087 6.84 3.03 10.34
4/15/2021 1:30:00 AM 10.85 51.53 0.087 6.84 3.34 10.36
4/15/2021 1:45:00 AM 10.78 51.404 0.087 6.83 3.43 10.38
4/15/2021 2:00:00 AM 10.71 51.278 0.087 6.83 3.23 10.4
4/15/2021 2:15:00 AM 10.64 51.152 0.087 6.83 2.96 10.42
4/15/2021 2:30:00 AM 10.57 51.026 0.087 6.85 3.11 10.44
4/15/2021 2:45:00 AM 10.5 50.9 0.087 6.84 2.88 10.45
4/15/2021 3:00:00 AM 10.43 50.774 0.087 6.83 3.11 10.47
4/15/2021 3:15:00 AM 10.36 50.648 0.087 6.84 2.8 10.48
4/15/2021 3:30:00 AM 10.3 50.54 0.087 6.83 3.28 10.51
4/15/2021 3:45:00 AM 10.24 50.432 0.087 6.82 3.04 10.52
4/15/2021 4:00:00 AM 10.18 50.324 0.087 6.83 3.22 10.53
4/15/2021 4:15:00 AM 10.13 50.234 0.087 6.83 3.26 10.55
4/15/2021 4:30:00 AM 10.08 50.144 0.087 6.82 3.31 10.56
4/15/2021 4:45:00 AM 10.03 50.054 0.087 6.86 3.08 10.57
4/15/2021 5:00:00 AM 9.97 49.946 0.087 6.85 3.23 10.6
4/15/2021 5:15:00 AM 9.92 49.856 0.087 6.85 3.1 10.61
4/15/2021 5:30:00 AM 9.88 49.784 0.087 6.84 2.84 10.62
4/15/2021 5:45:00 AM 9.82 49.676 0.087 6.85 2.84 10.63
4/15/2021 6:00:00 AM 9.77 49.586 0.087 6.82 3.17 10.65
4/15/2021 6:15:00 AM 9.72 49.496 0.088 6.85 2.85 10.66
4/15/2021 6:30:00 AM 9.66 49.388 0.087 6.84 2.87 10.68
4/15/2021 6:45:00 AM 9.61 49.298 0.088 6.86 3 10.7
4/15/2021 7:00:00 AM 9.56 49.208 0.088 6.86 3.02 10.73
4/15/2021 7:15:00 AM 9.53 49.154 0.088 6.89 2.69 10.78
4/15/2021 7:30:00 AM 9.49 49.082 0.088 6.9 2.8 10.82
4/15/2021 7:45:00 AM 9.46 49.028 0.088 6.91 2.86 10.87
4/15/2021 8:00:00 AM 9.44 48.992 0.088 6.93 2.85 10.91
4/15/2021 8:15:00 AM 9.42 48.956 0.088 6.93 2.66 10.97
4/15/2021 8:30:00 AM 9.41 48.938 0.088 6.95 2.7 11.01
4/15/2021 8:45:00 AM 9.41 48.938 0.088 6.97 2.5 11.06
4/15/2021 9:00:00 AM 9.41 48.938 0.087 6.96 2.52 11.1
4/15/2021 9:15:00 AM 9.41 48.938 0.087 7 2.48 11.14
4/15/2021 9:30:00 AM 9.4 48.92 0.087 7.01 2.41 11.14
4/15/2021 9:45:00 AM 9.41 48.938 0.087 7.02 2.31 11.16
4/15/2021 10:00:00 AM 9.43 48.974 0.087 7.02 2.39 11.19
4/15/2021 10:15:00 AM 9.45 49.01 0.087 7.02 2.23 11.22
4/15/2021 10:30:00 AM 9.47 49.046 0.087 7.05 2.18 11.24
4/15/2021 10:45:00 AM 9.49 49.082 0.087 7.05 2.33 11.26
4/15/2021 11:00:00 AM 9.52 49.136 0.087 7.06 2.22 11.27
4/15/2021 11:15:00 AM 9.58 49.244 0.087 7.08 2.38 11.29
4/15/2021 11:30:00 AM 9.58 49.244 0.087 7.08 2.26 11.3
4/15/2021 11:45:00 AM 9.6 49.28 0.087 7.11 2.08 11.31
4/15/2021 12:00:00 PM 9.66 49.388 0.087 7.11 2.13 11.32
4/15/2021 12:15:00 PM 9.7 49.46 0.087 7.11 2.2 11.34
4/15/2021 12:30:00 PM 9.76 49.568 0.087 7.14 2.05 11.35
4/15/2021 12:45:00 PM 9.8 49.64 0.086 7.14 2.32 11.35
4/15/2021 1:00:00 PM 9.82 49.676 0.086 7.15 2.19 11.36
4/15/2021 1:15:00 PM 9.88 49.784 0.086 7.16 2.29 11.36
4/15/2021 1:30:00 PM 10.04 50.072 0.086 7.2 2.19 11.37
4/15/2021 1:45:00 PM 10.15 50.27 0.086 7.2 2.2 11.35
4/15/2021 2:00:00 PM 10.2 50.36 0.086 7.21 2.6 11.36
4/15/2021 2:15:00 PM 10.31 50.558 0.086 7.21 2.28 11.34
4/15/2021 2:30:00 PM 10.37 50.666 0.086 7.21 2.15 11.32
4/15/2021 2:45:00 PM 10.46 50.828 0.086 7.23 2.16 11.32
4/15/2021 3:00:00 PM 10.59 51.062 0.086 7.23 2.09 11.29
4/15/2021 3:15:00 PM 10.72 51.296 0.086 7.25 2.05 11.27
4/15/2021 3:30:00 PM 10.87 51.566 0.086 7.26 2.24 11.23
4/15/2021 3:45:00 PM 10.92 51.656 0.086 7.25 2.16 11.18
4/15/2021 4:00:00 PM 10.97 51.746 0.086 7.24 2.26 11.09
4/15/2021 4:15:00 PM 11 51.8 0.086 7.17 2.2 11
4/15/2021 4:30:00 PM 11.01 51.818 0.086 7.16 2.27 10.94
4/15/2021 4:45:00 PM 11.01 51.818 0.086 7.12 2.16 10.9
4/15/2021 5:00:00 PM 10.97 51.746 0.086 7.13 2.27 10.87
4/15/2021 5:15:00 PM 10.91 51.638 0.086 7.11 2.29 10.85
4/15/2021 5:30:00 PM 10.82 51.476 0.086 7.09 2.39 10.82
4/15/2021 5:45:00 PM 10.74 51.332 0.086 7.06 2.22 10.82
4/15/2021 6:00:00 PM 10.66 51.188 0.086 7.05 2.29 10.82
4/15/2021 6:15:00 PM 10.57 51.026 0.086 7.03 2.3 10.84
4/15/2021 6:30:00 PM 10.5 50.9 0.086 7.04 2.17 10.84
4/15/2021 6:45:00 PM 10.42 50.756 0.086 7.03 2.6 10.84
4/15/2021 7:00:00 PM 10.35 50.63 0.086 7.01 2.28 10.83
4/15/2021 7:15:00 PM 10.29 50.522 0.086 7.01 2.59 10.81
4/15/2021 7:30:00 PM 10.23 50.414 0.086 7 2.41 10.78
4/15/2021 7:45:00 PM 10.17 50.306 0.086 6.96 2.41 10.76
4/15/2021 8:00:00 PM 10.11 50.198 0.086 6.97 2.41 10.74
4/15/2021 8:15:00 PM 10.05 50.09 0.086 6.96 2.58 10.73
4/15/2021 8:30:00 PM 9.99 49.982 0.086 6.94 2.55 10.71
4/15/2021 8:45:00 PM 9.91 49.838 0.086 6.96 2.69 10.71
4/15/2021 9:00:00 PM 9.84 49.712 0.086 6.92 2.57 10.7
4/15/2021 9:15:00 PM 9.78 49.604 0.086 6.91 2.76 10.71
4/15/2021 9:30:00 PM 9.71 49.478 0.087 6.92 2.69 10.71
4/15/2021 9:45:00 PM 9.64 49.352 0.087 6.92 2.84 10.72
4/15/2021 10:00:00 PM 9.58 49.244 0.087 6.89 2.89 10.73
4/15/2021 10:15:00 PM 9.52 49.136 0.087 6.89 3.24 10.74
4/15/2021 10:30:00 PM 9.46 49.028 0.087 6.89 2.98 10.75
4/15/2021 10:45:00 PM 9.41 48.938 0.087 6.88 2.7 10.76
4/15/2021 11:00:00 PM 9.36 48.848 0.087 6.89 2.61 10.77
4/15/2021 11:15:00 PM 9.31 48.758 0.087 6.9 2.77 10.77
4/15/2021 11:30:00 PM 9.26 48.668 0.087 6.88 2.78 10.79
4/15/2021 11:45:00 PM 9.21 48.578 0.087 6.88 2.87 10.8
4/16/2021 12:00:00 AM 9.16 48.488 0.087 6.88 2.73 10.81
4/16/2021 12:15:00 AM 9.11 48.398 0.087 6.88 2.79 10.82
4/16/2021 12:30:00 AM 9.04 48.272 0.087 6.87 2.69 10.84
4/16/2021 12:45:00 AM 8.97 48.146 0.087 6.88 2.62 10.85
4/16/2021 1:00:00 AM 8.9 48.02 0.087 6.89 2.8 10.87
4/16/2021 1:15:00 AM 8.83 47.894 0.088 6.86 2.83 10.89
4/16/2021 1:30:00 AM 8.75 47.75 0.088 6.87 2.77 10.91
4/16/2021 1:45:00 AM 8.68 47.624 0.088 6.88 2.8 10.93
4/16/2021 2:00:00 AM 8.61 47.498 0.088 6.83 2.59 10.95
4/16/2021 2:15:00 AM 8.55 47.39 0.088 6.85 2.95 10.96
4/16/2021 2:30:00 AM 8.49 47.282 0.088 6.85 2.63 10.98
4/16/2021 2:45:00 AM 8.44 47.192 0.088 6.85 2.47 11
4/16/2021 3:00:00 AM 8.39 47.102 0.088 6.86 2.62 11.01
4/16/2021 3:15:00 AM 8.35 47.03 0.088 6.84 2.63 11.03
4/16/2021 3:30:00 AM 8.31 46.958 0.088 6.9 2.69 11.04
4/16/2021 3:45:00 AM 8.27 46.886 0.088 6.87 2.53 11.05
4/16/2021 4:00:00 AM 8.23 46.814 0.088 6.88 2.37 11.07
4/16/2021 4:15:00 AM 8.19 46.742 0.088 6.87 2.57 11.07
4/16/2021 4:30:00 AM 8.16 46.688 0.088 6.87 2.55 11.09
4/16/2021 4:45:00 AM 8.12 46.616 0.088 6.86 2.44 11.1
4/16/2021 5:00:00 AM 8.08 46.544 0.088 6.87 2.56 11.11
4/16/2021 5:15:00 AM 8.05 46.49 0.088 6.88 2.48 11.12
4/16/2021 5:30:00 AM 8.01 46.418 0.088 6.88 2.45 11.14
4/16/2021 5:45:00 AM 7.97 46.346 0.088 6.89 2.4 11.15
4/16/2021 6:00:00 AM 7.93 46.274 0.088 6.85 2.32 11.16
4/16/2021 6:15:00 AM 7.89 46.202 0.088 6.88 2.35 11.17
4/16/2021 6:30:00 AM 7.86 46.148 0.088 6.9 2.39 11.18
4/16/2021 6:45:00 AM 7.83 46.094 0.088 6.92 2.27 11.2
4/16/2021 7:00:00 AM 7.79 46.022 0.088 6.91 2.31 11.22
4/16/2021 7:15:00 AM 7.76 45.968 0.088 6.9 2.39 11.24
4/16/2021 7:30:00 AM 7.72 45.896 0.088 6.89 2.37 11.27
4/16/2021 7:45:00 AM 7.68 45.824 0.088 6.91 2.37 11.31
4/16/2021 8:00:00 AM 7.64 45.752 0.088 6.91 2.22 11.34
4/16/2021 8:15:00 AM 7.62 45.716 0.088 6.94 2.22 11.38
4/16/2021 8:30:00 AM 7.61 45.698 0.088 6.94 2.11 11.43
4/16/2021 8:45:00 AM 7.62 45.716 0.088 6.95 2.13 11.49
4/16/2021 9:00:00 AM 7.63 45.734 0.088 6.96 2.1 11.54
4/16/2021 9:15:00 AM 7.66 45.788 0.088 7 2.06 11.6
4/16/2021 9:30:00 AM 7.68 45.824 0.088 7.02 2.09 11.63
4/16/2021 9:45:00 AM 7.69 45.842 0.087 7.04 2.09 11.67
4/16/2021 10:00:00 AM